<?xml version="1.0" encoding="UTF-8" standalone="no" ?>
<gpx xmlns="http://www.topografix.com/GPX/1/1" creator="www.cicloide.com" version="1.1" xmlns:xsi="http://www.w3.org/2001/XMLSchema-instance" xsi:schemaLocation="http://www.topografix.com/GPX/1/1 http://www.topografix.com/GPX/1/1/gpx.xsd">
  <trk>
    <name>www.cicloide.com 16129</name>
    <desc>www.cicloide.com 16129</desc>
    <trkseg>
      <trkpt lat="41.607030912" lon="2.542083010">
        <ele>86.18</ele>
        <time>2013-11-11T07:57:51Z</time>
      </trkpt>
      <trkpt lat="41.609372481" lon="2.541431485">
        <ele>86.18</ele>
        <time>2013-11-11T07:57:52Z</time>
      </trkpt>
      <trkpt lat="41.609329733" lon="2.541429306">
        <ele>86.18</ele>
        <time>2013-11-11T07:58:00Z</time>
      </trkpt>
      <trkpt lat="41.609325710" lon="2.541417822">
        <ele>86.18</ele>
        <time>2013-11-11T07:58:07Z</time>
      </trkpt>
      <trkpt lat="41.609283130" lon="2.541379852">
        <ele>86.18</ele>
        <time>2013-11-11T07:58:13Z</time>
      </trkpt>
      <trkpt lat="41.608999989" lon="2.541432155">
        <ele>85.21</ele>
        <time>2013-11-11T07:58:20Z</time>
      </trkpt>
      <trkpt lat="41.608974508" lon="2.541435927">
        <ele>85.21</ele>
        <time>2013-11-11T07:58:21Z</time>
      </trkpt>
      <trkpt lat="41.608844505" lon="2.541436179">
        <ele>84.25</ele>
        <time>2013-11-11T07:58:23Z</time>
      </trkpt>
      <trkpt lat="41.608622887" lon="2.541340960">
        <ele>83.77</ele>
        <time>2013-11-11T07:58:27Z</time>
      </trkpt>
      <trkpt lat="41.608526160" lon="2.541251442">
        <ele>83.29</ele>
        <time>2013-11-11T07:58:29Z</time>
      </trkpt>
      <trkpt lat="41.608467738" lon="2.541203665">
        <ele>83.29</ele>
        <time>2013-11-11T07:58:30Z</time>
      </trkpt>
      <trkpt lat="41.608418536" lon="2.541171143">
        <ele>83.29</ele>
        <time>2013-11-11T07:58:31Z</time>
      </trkpt>
      <trkpt lat="41.608183172" lon="2.541014150">
        <ele>81.37</ele>
        <time>2013-11-11T07:58:37Z</time>
      </trkpt>
      <trkpt lat="41.608205804" lon="2.540936785">
        <ele>80.89</ele>
        <time>2013-11-11T07:58:39Z</time>
      </trkpt>
      <trkpt lat="41.608333292" lon="2.540833939">
        <ele>80.41</ele>
        <time>2013-11-11T07:58:45Z</time>
      </trkpt>
      <trkpt lat="41.608421638" lon="2.540813152">
        <ele>80.41</ele>
        <time>2013-11-11T07:58:50Z</time>
      </trkpt>
      <trkpt lat="41.608553401" lon="2.540785156">
        <ele>81.85</ele>
        <time>2013-11-11T07:58:57Z</time>
      </trkpt>
      <trkpt lat="41.608567734" lon="2.540783396">
        <ele>81.85</ele>
        <time>2013-11-11T07:58:58Z</time>
      </trkpt>
      <trkpt lat="41.608685584" lon="2.540747522">
        <ele>82.33</ele>
        <time>2013-11-11T07:59:04Z</time>
      </trkpt>
      <trkpt lat="41.608933856" lon="2.540679209">
        <ele>82.81</ele>
        <time>2013-11-11T07:59:13Z</time>
      </trkpt>
      <trkpt lat="41.609035277" lon="2.540650459">
        <ele>161.64</ele>
        <time>2013-11-11T07:59:17Z</time>
      </trkpt>
      <trkpt lat="41.609061009" lon="2.540641826">
        <ele>161.64</ele>
        <time>2013-11-11T07:59:18Z</time>
      </trkpt>
      <trkpt lat="41.609213811" lon="2.540610729">
        <ele>161.64</ele>
        <time>2013-11-11T07:59:25Z</time>
      </trkpt>
      <trkpt lat="41.609412882" lon="2.540595893">
        <ele>162.60</ele>
        <time>2013-11-11T07:59:34Z</time>
      </trkpt>
      <trkpt lat="41.609432914" lon="2.540596144">
        <ele>162.60</ele>
        <time>2013-11-11T07:59:35Z</time>
      </trkpt>
      <trkpt lat="41.609611952" lon="2.540562952">
        <ele>163.56</ele>
        <time>2013-11-11T07:59:42Z</time>
      </trkpt>
      <trkpt lat="41.609635840" lon="2.540555325">
        <ele>163.56</ele>
        <time>2013-11-11T07:59:43Z</time>
      </trkpt>
      <trkpt lat="41.609831725" lon="2.540515175">
        <ele>164.52</ele>
        <time>2013-11-11T07:59:51Z</time>
      </trkpt>
      <trkpt lat="41.609998441" lon="2.540464968">
        <ele>164.52</ele>
        <time>2013-11-11T07:59:58Z</time>
      </trkpt>
      <trkpt lat="41.610098689" lon="2.540394224">
        <ele>165.00</ele>
        <time>2013-11-11T08:00:03Z</time>
      </trkpt>
      <trkpt lat="41.610305051" lon="2.540281069">
        <ele>165.48</ele>
        <time>2013-11-11T08:00:12Z</time>
      </trkpt>
      <trkpt lat="41.610560783" lon="2.540162129">
        <ele>166.93</ele>
        <time>2013-11-11T08:00:20Z</time>
      </trkpt>
      <trkpt lat="41.610764882" lon="2.540051153">
        <ele>166.93</ele>
        <time>2013-11-11T08:00:27Z</time>
      </trkpt>
      <trkpt lat="41.610955487" lon="2.539983930">
        <ele>167.41</ele>
        <time>2013-11-11T08:00:34Z</time>
      </trkpt>
      <trkpt lat="41.611113905" lon="2.539929532">
        <ele>168.37</ele>
        <time>2013-11-11T08:00:39Z</time>
      </trkpt>
      <trkpt lat="41.611319932" lon="2.539844204">
        <ele>168.85</ele>
        <time>2013-11-11T08:00:46Z</time>
      </trkpt>
      <trkpt lat="41.611512381" lon="2.539728450">
        <ele>169.81</ele>
        <time>2013-11-11T08:00:53Z</time>
      </trkpt>
      <trkpt lat="41.611703991" lon="2.539517058">
        <ele>170.77</ele>
        <time>2013-11-11T08:01:01Z</time>
      </trkpt>
      <trkpt lat="41.611837682" lon="2.539354533">
        <ele>171.25</ele>
        <time>2013-11-11T08:01:07Z</time>
      </trkpt>
      <trkpt lat="41.612016217" lon="2.539182117">
        <ele>171.25</ele>
        <time>2013-11-11T08:01:13Z</time>
      </trkpt>
      <trkpt lat="41.612149405" lon="2.538940551">
        <ele>172.69</ele>
        <time>2013-11-11T08:01:21Z</time>
      </trkpt>
      <trkpt lat="41.612270272" lon="2.538687753">
        <ele>173.17</ele>
        <time>2013-11-11T08:01:28Z</time>
      </trkpt>
      <trkpt lat="41.612409496" lon="2.538443420">
        <ele>174.14</ele>
        <time>2013-11-11T08:01:36Z</time>
      </trkpt>
      <trkpt lat="41.612563304" lon="2.538216019">
        <ele>175.10</ele>
        <time>2013-11-11T08:01:44Z</time>
      </trkpt>
      <trkpt lat="41.612697079" lon="2.538054500">
        <ele>175.58</ele>
        <time>2013-11-11T08:01:50Z</time>
      </trkpt>
      <trkpt lat="41.612892796" lon="2.537840929">
        <ele>176.06</ele>
        <time>2013-11-11T08:01:58Z</time>
      </trkpt>
      <trkpt lat="41.613025817" lon="2.537695000">
        <ele>176.54</ele>
        <time>2013-11-11T08:02:04Z</time>
      </trkpt>
      <trkpt lat="41.613162526" lon="2.537533900">
        <ele>177.50</ele>
        <time>2013-11-11T08:02:10Z</time>
      </trkpt>
      <trkpt lat="41.613382551" lon="2.537268529">
        <ele>177.98</ele>
        <time>2013-11-11T08:02:19Z</time>
      </trkpt>
      <trkpt lat="41.613530827" lon="2.537070381">
        <ele>178.46</ele>
        <time>2013-11-11T08:02:26Z</time>
      </trkpt>
      <trkpt lat="41.613631158" lon="2.536876591">
        <ele>178.94</ele>
        <time>2013-11-11T08:02:32Z</time>
      </trkpt>
      <trkpt lat="41.613674157" lon="2.536634103">
        <ele>179.90</ele>
        <time>2013-11-11T08:02:39Z</time>
      </trkpt>
      <trkpt lat="41.613754540" lon="2.536387172">
        <ele>180.38</ele>
        <time>2013-11-11T08:02:46Z</time>
      </trkpt>
      <trkpt lat="41.613860990" lon="2.536106629">
        <ele>181.35</ele>
        <time>2013-11-11T08:02:54Z</time>
      </trkpt>
      <trkpt lat="41.613978169" lon="2.535809575">
        <ele>182.31</ele>
        <time>2013-11-11T08:03:03Z</time>
      </trkpt>
      <trkpt lat="41.614076153" lon="2.535481423">
        <ele>183.27</ele>
        <time>2013-11-11T08:03:12Z</time>
      </trkpt>
      <trkpt lat="41.614161062" lon="2.535189482">
        <ele>183.75</ele>
        <time>2013-11-11T08:03:20Z</time>
      </trkpt>
      <trkpt lat="41.614241612" lon="2.534907850">
        <ele>185.19</ele>
        <time>2013-11-11T08:03:28Z</time>
      </trkpt>
      <trkpt lat="41.614325934" lon="2.534639713">
        <ele>185.67</ele>
        <time>2013-11-11T08:03:35Z</time>
      </trkpt>
      <trkpt lat="41.614428780" lon="2.534356153">
        <ele>186.63</ele>
        <time>2013-11-11T08:03:43Z</time>
      </trkpt>
      <trkpt lat="41.614504385" lon="2.534091704">
        <ele>187.11</ele>
        <time>2013-11-11T08:03:50Z</time>
      </trkpt>
      <trkpt lat="41.614594406" lon="2.533745112">
        <ele>188.08</ele>
        <time>2013-11-11T08:03:59Z</time>
      </trkpt>
      <trkpt lat="41.614692642" lon="2.533429114">
        <ele>189.04</ele>
        <time>2013-11-11T08:04:08Z</time>
      </trkpt>
      <trkpt lat="41.614783418" lon="2.533154775">
        <ele>189.52</ele>
        <time>2013-11-11T08:04:15Z</time>
      </trkpt>
      <trkpt lat="41.614883917" lon="2.532801896">
        <ele>190.48</ele>
        <time>2013-11-11T08:04:24Z</time>
      </trkpt>
      <trkpt lat="41.614984584" lon="2.532435440">
        <ele>191.44</ele>
        <time>2013-11-11T08:04:33Z</time>
      </trkpt>
      <trkpt lat="41.615066475" lon="2.531953061">
        <ele>192.40</ele>
        <time>2013-11-11T08:04:44Z</time>
      </trkpt>
      <trkpt lat="41.615105786" lon="2.531553831">
        <ele>193.36</ele>
        <time>2013-11-11T08:04:53Z</time>
      </trkpt>
      <trkpt lat="41.615123724" lon="2.531157283">
        <ele>193.84</ele>
        <time>2013-11-11T08:05:02Z</time>
      </trkpt>
      <trkpt lat="41.615173847" lon="2.530770710">
        <ele>194.80</ele>
        <time>2013-11-11T08:05:11Z</time>
      </trkpt>
      <trkpt lat="41.615183654" lon="2.530246673">
        <ele>196.25</ele>
        <time>2013-11-11T08:05:23Z</time>
      </trkpt>
      <trkpt lat="41.615182732" lon="2.529921455">
        <ele>197.21</ele>
        <time>2013-11-11T08:05:31Z</time>
      </trkpt>
      <trkpt lat="41.615190276" lon="2.529540498">
        <ele>198.17</ele>
        <time>2013-11-11T08:05:40Z</time>
      </trkpt>
      <trkpt lat="41.615189102" lon="2.529112518">
        <ele>199.61</ele>
        <time>2013-11-11T08:05:50Z</time>
      </trkpt>
      <trkpt lat="41.615252637" lon="2.528727202">
        <ele>200.09</ele>
        <time>2013-11-11T08:05:59Z</time>
      </trkpt>
      <trkpt lat="41.615332517" lon="2.528347753">
        <ele>201.05</ele>
        <time>2013-11-11T08:06:08Z</time>
      </trkpt>
      <trkpt lat="41.615408289" lon="2.527976100">
        <ele>201.53</ele>
        <time>2013-11-11T08:06:17Z</time>
      </trkpt>
      <trkpt lat="41.615489175" lon="2.527512664">
        <ele>202.98</ele>
        <time>2013-11-11T08:06:28Z</time>
      </trkpt>
      <trkpt lat="41.615552458" lon="2.527195661">
        <ele>204.42</ele>
        <time>2013-11-11T08:06:36Z</time>
      </trkpt>
      <trkpt lat="41.615592859" lon="2.526891397">
        <ele>205.38</ele>
        <time>2013-11-11T08:06:44Z</time>
      </trkpt>
      <trkpt lat="41.615568216" lon="2.526499292">
        <ele>206.82</ele>
        <time>2013-11-11T08:06:54Z</time>
      </trkpt>
      <trkpt lat="41.615541813" lon="2.526248338">
        <ele>207.30</ele>
        <time>2013-11-11T08:07:00Z</time>
      </trkpt>
      <trkpt lat="41.615515997" lon="2.525874505">
        <ele>208.26</ele>
        <time>2013-11-11T08:07:09Z</time>
      </trkpt>
      <trkpt lat="41.615509878" lon="2.525423810">
        <ele>209.22</ele>
        <time>2013-11-11T08:07:20Z</time>
      </trkpt>
      <trkpt lat="41.615531252" lon="2.525071267">
        <ele>210.19</ele>
        <time>2013-11-11T08:07:29Z</time>
      </trkpt>
      <trkpt lat="41.615565366" lon="2.524717802">
        <ele>211.15</ele>
        <time>2013-11-11T08:07:38Z</time>
      </trkpt>
      <trkpt lat="41.615600319" lon="2.524265180">
        <ele>213.07</ele>
        <time>2013-11-11T08:07:50Z</time>
      </trkpt>
      <trkpt lat="41.615623704" lon="2.523932669">
        <ele>214.03</ele>
        <time>2013-11-11T08:07:59Z</time>
      </trkpt>
      <trkpt lat="41.615638121" lon="2.523675177">
        <ele>215.47</ele>
        <time>2013-11-11T08:08:06Z</time>
      </trkpt>
      <trkpt lat="41.615672152" lon="2.523330178">
        <ele>216.43</ele>
        <time>2013-11-11T08:08:15Z</time>
      </trkpt>
      <trkpt lat="41.615712971" lon="2.523072016">
        <ele>216.43</ele>
        <time>2013-11-11T08:08:22Z</time>
      </trkpt>
      <trkpt lat="41.615756725" lon="2.522744283">
        <ele>217.88</ele>
        <time>2013-11-11T08:08:31Z</time>
      </trkpt>
      <trkpt lat="41.615791677" lon="2.522425687">
        <ele>219.32</ele>
        <time>2013-11-11T08:08:39Z</time>
      </trkpt>
      <trkpt lat="41.615827468" lon="2.522112539">
        <ele>220.28</ele>
        <time>2013-11-11T08:08:47Z</time>
      </trkpt>
      <trkpt lat="41.615851776" lon="2.521849347">
        <ele>220.76</ele>
        <time>2013-11-11T08:08:54Z</time>
      </trkpt>
      <trkpt lat="41.615905923" lon="2.521526057">
        <ele>220.76</ele>
        <time>2013-11-11T08:09:01Z</time>
      </trkpt>
      <trkpt lat="41.615950598" lon="2.521253897">
        <ele>221.24</ele>
        <time>2013-11-11T08:09:08Z</time>
      </trkpt>
      <trkpt lat="41.616032238" lon="2.520888781">
        <ele>221.72</ele>
        <time>2013-11-11T08:09:17Z</time>
      </trkpt>
      <trkpt lat="41.616147741" lon="2.520484103">
        <ele>222.68</ele>
        <time>2013-11-11T08:09:27Z</time>
      </trkpt>
      <trkpt lat="41.616265171" lon="2.520156706">
        <ele>222.68</ele>
        <time>2013-11-11T08:09:36Z</time>
      </trkpt>
      <trkpt lat="41.616350247" lon="2.520050675">
        <ele>223.16</ele>
        <time>2013-11-11T08:09:41Z</time>
      </trkpt>
      <trkpt lat="41.616451082" lon="2.519960066">
        <ele>221.72</ele>
        <time>2013-11-11T08:09:44Z</time>
      </trkpt>
      <trkpt lat="41.616608326" lon="2.519863339">
        <ele>221.72</ele>
        <time>2013-11-11T08:09:49Z</time>
      </trkpt>
      <trkpt lat="41.616813348" lon="2.519770216">
        <ele>223.64</ele>
        <time>2013-11-11T08:09:57Z</time>
      </trkpt>
      <trkpt lat="41.617025326" lon="2.519723697">
        <ele>224.61</ele>
        <time>2013-11-11T08:10:05Z</time>
      </trkpt>
      <trkpt lat="41.617219032" lon="2.519694444">
        <ele>225.57</ele>
        <time>2013-11-11T08:10:12Z</time>
      </trkpt>
      <trkpt lat="41.617517847" lon="2.519651109">
        <ele>226.53</ele>
        <time>2013-11-11T08:10:22Z</time>
      </trkpt>
      <trkpt lat="41.617739716" lon="2.519631915">
        <ele>227.49</ele>
        <time>2013-11-11T08:10:30Z</time>
      </trkpt>
      <trkpt lat="41.617808615" lon="2.519622024">
        <ele>227.49</ele>
        <time>2013-11-11T08:10:36Z</time>
      </trkpt>
      <trkpt lat="41.617817164" lon="2.519658653">
        <ele>228.45</ele>
        <time>2013-11-11T08:10:43Z</time>
      </trkpt>
      <trkpt lat="41.617829821" lon="2.519681033">
        <ele>228.45</ele>
        <time>2013-11-11T08:10:47Z</time>
      </trkpt>
      <trkpt lat="41.617910120" lon="2.519812713">
        <ele>228.93</ele>
        <time>2013-11-11T08:10:54Z</time>
      </trkpt>
      <trkpt lat="41.617892266" lon="2.519975489">
        <ele>230.37</ele>
        <time>2013-11-11T08:11:01Z</time>
      </trkpt>
      <trkpt lat="41.617868378" lon="2.520029888">
        <ele>230.85</ele>
        <time>2013-11-11T08:11:04Z</time>
      </trkpt>
      <trkpt lat="41.617749774" lon="2.520132901">
        <ele>232.78</ele>
        <time>2013-11-11T08:11:13Z</time>
      </trkpt>
      <trkpt lat="41.617707864" lon="2.520307161">
        <ele>234.22</ele>
        <time>2013-11-11T08:11:21Z</time>
      </trkpt>
      <trkpt lat="41.617713732" lon="2.520440349">
        <ele>235.66</ele>
        <time>2013-11-11T08:11:26Z</time>
      </trkpt>
      <trkpt lat="41.617671571" lon="2.520667248">
        <ele>236.14</ele>
        <time>2013-11-11T08:11:35Z</time>
      </trkpt>
      <trkpt lat="41.617716582" lon="2.520903869">
        <ele>237.10</ele>
        <time>2013-11-11T08:11:43Z</time>
      </trkpt>
      <trkpt lat="41.617787325" lon="2.521149207">
        <ele>238.06</ele>
        <time>2013-11-11T08:11:52Z</time>
      </trkpt>
      <trkpt lat="41.617868210" lon="2.521452045">
        <ele>239.02</ele>
        <time>2013-11-11T08:12:02Z</time>
      </trkpt>
      <trkpt lat="41.617930320" lon="2.521632005">
        <ele>240.95</ele>
        <time>2013-11-11T08:12:10Z</time>
      </trkpt>
      <trkpt lat="41.617991089" lon="2.521629322">
        <ele>241.43</ele>
        <time>2013-11-11T08:12:14Z</time>
      </trkpt>
      <trkpt lat="41.618049846" lon="2.521490267">
        <ele>243.83</ele>
        <time>2013-11-11T08:12:22Z</time>
      </trkpt>
      <trkpt lat="41.618141544" lon="2.521334363">
        <ele>245.75</ele>
        <time>2013-11-11T08:12:31Z</time>
      </trkpt>
      <trkpt lat="41.618221926" lon="2.521162786">
        <ele>247.68</ele>
        <time>2013-11-11T08:12:40Z</time>
      </trkpt>
      <trkpt lat="41.618248665" lon="2.521083493">
        <ele>248.16</ele>
        <time>2013-11-11T08:12:45Z</time>
      </trkpt>
      <trkpt lat="41.618284539" lon="2.520950807">
        <ele>249.60</ele>
        <time>2013-11-11T08:12:52Z</time>
      </trkpt>
      <trkpt lat="41.618303566" lon="2.520890039">
        <ele>250.56</ele>
        <time>2013-11-11T08:12:55Z</time>
      </trkpt>
      <trkpt lat="41.618373387" lon="2.520688454">
        <ele>252.00</ele>
        <time>2013-11-11T08:13:05Z</time>
      </trkpt>
      <trkpt lat="41.618475730" lon="2.520607066">
        <ele>253.44</ele>
        <time>2013-11-11T08:13:13Z</time>
      </trkpt>
      <trkpt lat="41.618628700" lon="2.520569682">
        <ele>254.89</ele>
        <time>2013-11-11T08:13:24Z</time>
      </trkpt>
      <trkpt lat="41.618754596" lon="2.520551410">
        <ele>256.33</ele>
        <time>2013-11-11T08:13:33Z</time>
      </trkpt>
      <trkpt lat="41.618867584" lon="2.520497179">
        <ele>257.29</ele>
        <time>2013-11-11T08:13:42Z</time>
      </trkpt>
      <trkpt lat="41.619000354" lon="2.520419814">
        <ele>259.69</ele>
        <time>2013-11-11T08:13:52Z</time>
      </trkpt>
      <trkpt lat="41.619154162" lon="2.520336330">
        <ele>261.62</ele>
        <time>2013-11-11T08:14:03Z</time>
      </trkpt>
      <trkpt lat="41.619279555" lon="2.520306155">
        <ele>263.06</ele>
        <time>2013-11-11T08:14:11Z</time>
      </trkpt>
      <trkpt lat="41.619381898" lon="2.520321578">
        <ele>264.02</ele>
        <time>2013-11-11T08:14:18Z</time>
      </trkpt>
      <trkpt lat="41.619506285" lon="2.520355106">
        <ele>266.42</ele>
        <time>2013-11-11T08:14:27Z</time>
      </trkpt>
      <trkpt lat="41.619617346" lon="2.520329038">
        <ele>267.86</ele>
        <time>2013-11-11T08:14:36Z</time>
      </trkpt>
      <trkpt lat="41.619732178" lon="2.520290397">
        <ele>270.27</ele>
        <time>2013-11-11T08:14:45Z</time>
      </trkpt>
      <trkpt lat="41.619854721" lon="2.520224599">
        <ele>272.19</ele>
        <time>2013-11-11T08:14:55Z</time>
      </trkpt>
      <trkpt lat="41.619962345" lon="2.520161651">
        <ele>273.63</ele>
        <time>2013-11-11T08:15:04Z</time>
      </trkpt>
      <trkpt lat="41.620069214" lon="2.520114377">
        <ele>275.07</ele>
        <time>2013-11-11T08:15:12Z</time>
      </trkpt>
      <trkpt lat="41.620221262" lon="2.520116640">
        <ele>276.52</ele>
        <time>2013-11-11T08:15:23Z</time>
      </trkpt>
      <trkpt lat="41.620361826" lon="2.520148408">
        <ele>277.96</ele>
        <time>2013-11-11T08:15:33Z</time>
      </trkpt>
      <trkpt lat="41.620458721" lon="2.520168776">
        <ele>278.92</ele>
        <time>2013-11-11T08:15:40Z</time>
      </trkpt>
      <trkpt lat="41.620581516" lon="2.520171542">
        <ele>280.36</ele>
        <time>2013-11-11T08:15:49Z</time>
      </trkpt>
      <trkpt lat="41.620698276" lon="2.520190066">
        <ele>281.80</ele>
        <time>2013-11-11T08:15:57Z</time>
      </trkpt>
      <trkpt lat="41.620854096" lon="2.520209177">
        <ele>283.25</ele>
        <time>2013-11-11T08:16:07Z</time>
      </trkpt>
      <trkpt lat="41.620985859" lon="2.520250416">
        <ele>284.69</ele>
        <time>2013-11-11T08:16:16Z</time>
      </trkpt>
      <trkpt lat="41.621130950" lon="2.520280255">
        <ele>286.13</ele>
        <time>2013-11-11T08:16:26Z</time>
      </trkpt>
      <trkpt lat="41.621246704" lon="2.520289811">
        <ele>287.57</ele>
        <time>2013-11-11T08:16:35Z</time>
      </trkpt>
      <trkpt lat="41.621400428" lon="2.520310849">
        <ele>289.97</ele>
        <time>2013-11-11T08:16:46Z</time>
      </trkpt>
      <trkpt lat="41.621525318" lon="2.520361476">
        <ele>290.94</ele>
        <time>2013-11-11T08:16:54Z</time>
      </trkpt>
      <trkpt lat="41.621636295" lon="2.520391567">
        <ele>292.86</ele>
        <time>2013-11-11T08:17:02Z</time>
      </trkpt>
      <trkpt lat="41.621733357" lon="2.520405648">
        <ele>294.78</ele>
        <time>2013-11-11T08:17:10Z</time>
      </trkpt>
      <trkpt lat="41.621801837" lon="2.520419227">
        <ele>295.74</ele>
        <time>2013-11-11T08:17:15Z</time>
      </trkpt>
      <trkpt lat="41.621912981" lon="2.520437500">
        <ele>298.15</ele>
        <time>2013-11-11T08:17:23Z</time>
      </trkpt>
      <trkpt lat="41.622026556" lon="2.520452252">
        <ele>300.07</ele>
        <time>2013-11-11T08:17:32Z</time>
      </trkpt>
      <trkpt lat="41.622144238" lon="2.520413527">
        <ele>301.99</ele>
        <time>2013-11-11T08:17:41Z</time>
      </trkpt>
      <trkpt lat="41.622311792" lon="2.520364158">
        <ele>304.39</ele>
        <time>2013-11-11T08:17:53Z</time>
      </trkpt>
      <trkpt lat="41.622442382" lon="2.520394668">
        <ele>305.36</ele>
        <time>2013-11-11T08:18:02Z</time>
      </trkpt>
      <trkpt lat="41.622454955" lon="2.520403972">
        <ele>305.36</ele>
        <time>2013-11-11T08:18:03Z</time>
      </trkpt>
      <trkpt lat="41.622462164" lon="2.520482343">
        <ele>306.32</ele>
        <time>2013-11-11T08:18:09Z</time>
      </trkpt>
      <trkpt lat="41.622344733" lon="2.520542022">
        <ele>308.72</ele>
        <time>2013-11-11T08:18:19Z</time>
      </trkpt>
      <trkpt lat="41.622245324" lon="2.520621063">
        <ele>310.16</ele>
        <time>2013-11-11T08:18:28Z</time>
      </trkpt>
      <trkpt lat="41.622101071" lon="2.520743188">
        <ele>312.09</ele>
        <time>2013-11-11T08:18:40Z</time>
      </trkpt>
      <trkpt lat="41.621981042" lon="2.520826420">
        <ele>314.01</ele>
        <time>2013-11-11T08:18:50Z</time>
      </trkpt>
      <trkpt lat="41.621836957" lon="2.520934295">
        <ele>315.45</ele>
        <time>2013-11-11T08:19:00Z</time>
      </trkpt>
      <trkpt lat="41.621701757" lon="2.521005038">
        <ele>315.93</ele>
        <time>2013-11-11T08:19:09Z</time>
      </trkpt>
      <trkpt lat="41.621551889" lon="2.520973690">
        <ele>316.89</ele>
        <time>2013-11-11T08:19:18Z</time>
      </trkpt>
      <trkpt lat="41.621370756" lon="2.520946784">
        <ele>317.85</ele>
        <time>2013-11-11T08:19:28Z</time>
      </trkpt>
      <trkpt lat="41.621225414" lon="2.520999171">
        <ele>318.33</ele>
        <time>2013-11-11T08:19:37Z</time>
      </trkpt>
      <trkpt lat="41.621122987" lon="2.521032363">
        <ele>319.78</ele>
        <time>2013-11-11T08:19:44Z</time>
      </trkpt>
      <trkpt lat="41.621156095" lon="2.521113500">
        <ele>320.26</ele>
        <time>2013-11-11T08:19:50Z</time>
      </trkpt>
      <trkpt lat="41.621168249" lon="2.521113081">
        <ele>320.74</ele>
        <time>2013-11-11T08:19:51Z</time>
      </trkpt>
      <trkpt lat="41.621285512" lon="2.521148117">
        <ele>323.14</ele>
        <time>2013-11-11T08:20:01Z</time>
      </trkpt>
      <trkpt lat="41.621393303" lon="2.521256831">
        <ele>325.06</ele>
        <time>2013-11-11T08:20:11Z</time>
      </trkpt>
      <trkpt lat="41.621484163" lon="2.521382978">
        <ele>326.99</ele>
        <time>2013-11-11T08:20:20Z</time>
      </trkpt>
      <trkpt lat="41.621587093" lon="2.521543659">
        <ele>327.95</ele>
        <time>2013-11-11T08:20:30Z</time>
      </trkpt>
      <trkpt lat="41.621634870" lon="2.521621946">
        <ele>328.91</ele>
        <time>2013-11-11T08:20:35Z</time>
      </trkpt>
      <trkpt lat="41.621718102" lon="2.521773156">
        <ele>330.83</ele>
        <time>2013-11-11T08:20:45Z</time>
      </trkpt>
      <trkpt lat="41.621777949" lon="2.521902070">
        <ele>331.79</ele>
        <time>2013-11-11T08:20:53Z</time>
      </trkpt>
      <trkpt lat="41.621830000" lon="2.522054536">
        <ele>333.71</ele>
        <time>2013-11-11T08:21:02Z</time>
      </trkpt>
      <trkpt lat="41.621860762" lon="2.522145229">
        <ele>334.68</ele>
        <time>2013-11-11T08:21:08Z</time>
      </trkpt>
      <trkpt lat="41.621864031" lon="2.522175403">
        <ele>335.16</ele>
        <time>2013-11-11T08:21:10Z</time>
      </trkpt>
      <trkpt lat="41.621917340" lon="2.522269365">
        <ele>335.64</ele>
        <time>2013-11-11T08:21:16Z</time>
      </trkpt>
      <trkpt lat="41.621971068" lon="2.522194849">
        <ele>337.08</ele>
        <time>2013-11-11T08:21:23Z</time>
      </trkpt>
      <trkpt lat="41.621976181" lon="2.522034085">
        <ele>338.04</ele>
        <time>2013-11-11T08:21:33Z</time>
      </trkpt>
      <trkpt lat="41.621990765" lon="2.521808444">
        <ele>340.44</ele>
        <time>2013-11-11T08:21:44Z</time>
      </trkpt>
      <trkpt lat="41.622046505" lon="2.521607027">
        <ele>341.41</ele>
        <time>2013-11-11T08:21:54Z</time>
      </trkpt>
      <trkpt lat="41.622140718" lon="2.521527315">
        <ele>342.85</ele>
        <time>2013-11-11T08:22:02Z</time>
      </trkpt>
      <trkpt lat="41.622250521" lon="2.521574086">
        <ele>343.81</ele>
        <time>2013-11-11T08:22:10Z</time>
      </trkpt>
      <trkpt lat="41.622402065" lon="2.521707861">
        <ele>345.25</ele>
        <time>2013-11-11T08:22:21Z</time>
      </trkpt>
      <trkpt lat="41.622561322" lon="2.521822022">
        <ele>347.17</ele>
        <time>2013-11-11T08:22:32Z</time>
      </trkpt>
      <trkpt lat="41.622691995" lon="2.521877427">
        <ele>348.62</ele>
        <time>2013-11-11T08:22:41Z</time>
      </trkpt>
      <trkpt lat="41.622844630" lon="2.521869296">
        <ele>350.06</ele>
        <time>2013-11-11T08:22:51Z</time>
      </trkpt>
      <trkpt lat="41.623009837" lon="2.521827387">
        <ele>351.50</ele>
        <time>2013-11-11T08:23:01Z</time>
      </trkpt>
      <trkpt lat="41.623175212" lon="2.521821352">
        <ele>353.42</ele>
        <time>2013-11-11T08:23:11Z</time>
      </trkpt>
      <trkpt lat="41.623300186" lon="2.521957390">
        <ele>353.90</ele>
        <time>2013-11-11T08:23:19Z</time>
      </trkpt>
      <trkpt lat="41.623411917" lon="2.522100637">
        <ele>354.86</ele>
        <time>2013-11-11T08:23:27Z</time>
      </trkpt>
      <trkpt lat="41.623531359" lon="2.522237262">
        <ele>354.86</ele>
        <time>2013-11-11T08:23:35Z</time>
      </trkpt>
      <trkpt lat="41.623666224" lon="2.522344215">
        <ele>355.83</ele>
        <time>2013-11-11T08:23:44Z</time>
      </trkpt>
      <trkpt lat="41.623838975" lon="2.522473715">
        <ele>356.31</ele>
        <time>2013-11-11T08:23:54Z</time>
      </trkpt>
      <trkpt lat="41.623981886" lon="2.522621572">
        <ele>357.27</ele>
        <time>2013-11-11T08:24:02Z</time>
      </trkpt>
      <trkpt lat="41.624072914" lon="2.522788540">
        <ele>357.75</ele>
        <time>2013-11-11T08:24:09Z</time>
      </trkpt>
      <trkpt lat="41.624179532" lon="2.523024155">
        <ele>357.75</ele>
        <time>2013-11-11T08:24:17Z</time>
      </trkpt>
      <trkpt lat="41.624270559" lon="2.523348451">
        <ele>358.23</ele>
        <time>2013-11-11T08:24:26Z</time>
      </trkpt>
      <trkpt lat="41.624319761" lon="2.523536541">
        <ele>358.71</ele>
        <time>2013-11-11T08:24:31Z</time>
      </trkpt>
      <trkpt lat="41.624418500" lon="2.523757739">
        <ele>361.11</ele>
        <time>2013-11-11T08:24:39Z</time>
      </trkpt>
      <trkpt lat="41.624531656" lon="2.523990924">
        <ele>362.07</ele>
        <time>2013-11-11T08:24:47Z</time>
      </trkpt>
      <trkpt lat="41.624636765" lon="2.524248583">
        <ele>364.00</ele>
        <time>2013-11-11T08:24:56Z</time>
      </trkpt>
      <trkpt lat="41.624723014" lon="2.524495933">
        <ele>365.44</ele>
        <time>2013-11-11T08:25:04Z</time>
      </trkpt>
      <trkpt lat="41.624831560" lon="2.524790557">
        <ele>366.40</ele>
        <time>2013-11-11T08:25:13Z</time>
      </trkpt>
      <trkpt lat="41.624915295" lon="2.525017623">
        <ele>366.88</ele>
        <time>2013-11-11T08:25:20Z</time>
      </trkpt>
      <trkpt lat="41.625092824" lon="2.525278635">
        <ele>367.84</ele>
        <time>2013-11-11T08:25:29Z</time>
      </trkpt>
      <trkpt lat="41.625299941" lon="2.525512910">
        <ele>367.84</ele>
        <time>2013-11-11T08:25:38Z</time>
      </trkpt>
      <trkpt lat="41.625439667" lon="2.525757829">
        <ele>368.32</ele>
        <time>2013-11-11T08:25:46Z</time>
      </trkpt>
      <trkpt lat="41.625613927" lon="2.526031833">
        <ele>368.80</ele>
        <time>2013-11-11T08:25:54Z</time>
      </trkpt>
      <trkpt lat="41.625866725" lon="2.526220007">
        <ele>368.80</ele>
        <time>2013-11-11T08:26:02Z</time>
      </trkpt>
      <trkpt lat="41.626095048" lon="2.526434500">
        <ele>368.80</ele>
        <time>2013-11-11T08:26:11Z</time>
      </trkpt>
      <trkpt lat="41.626251287" lon="2.526685622">
        <ele>368.80</ele>
        <time>2013-11-11T08:26:20Z</time>
      </trkpt>
      <trkpt lat="41.626336028" lon="2.526925679">
        <ele>368.80</ele>
        <time>2013-11-11T08:26:29Z</time>
      </trkpt>
      <trkpt lat="41.626410208" lon="2.527013103">
        <ele>368.80</ele>
        <time>2013-11-11T08:26:35Z</time>
      </trkpt>
      <trkpt lat="41.626499223" lon="2.527152242">
        <ele>370.24</ele>
        <time>2013-11-11T08:26:42Z</time>
      </trkpt>
      <trkpt lat="41.626643225" lon="2.527292052">
        <ele>371.69</ele>
        <time>2013-11-11T08:26:49Z</time>
      </trkpt>
      <trkpt lat="41.626742550" lon="2.527340919">
        <ele>373.13</ele>
        <time>2013-11-11T08:26:56Z</time>
      </trkpt>
      <trkpt lat="41.626804073" lon="2.527354833">
        <ele>374.57</ele>
        <time>2013-11-11T08:26:59Z</time>
      </trkpt>
      <trkpt lat="41.626964000" lon="2.527402861">
        <ele>376.97</ele>
        <time>2013-11-11T08:27:07Z</time>
      </trkpt>
      <trkpt lat="41.627089980" lon="2.527422978">
        <ele>378.90</ele>
        <time>2013-11-11T08:27:15Z</time>
      </trkpt>
      <trkpt lat="41.627246135" lon="2.527513586">
        <ele>380.34</ele>
        <time>2013-11-11T08:27:23Z</time>
      </trkpt>
      <trkpt lat="41.627436404" lon="2.527609224">
        <ele>381.78</ele>
        <time>2013-11-11T08:27:33Z</time>
      </trkpt>
      <trkpt lat="41.627618124" lon="2.527741155">
        <ele>383.22</ele>
        <time>2013-11-11T08:27:43Z</time>
      </trkpt>
      <trkpt lat="41.627777045" lon="2.527823968">
        <ele>384.66</ele>
        <time>2013-11-11T08:27:51Z</time>
      </trkpt>
      <trkpt lat="41.627958010" lon="2.527950954">
        <ele>386.59</ele>
        <time>2013-11-11T08:28:00Z</time>
      </trkpt>
      <trkpt lat="41.628135790" lon="2.528097972">
        <ele>388.03</ele>
        <time>2013-11-11T08:28:09Z</time>
      </trkpt>
      <trkpt lat="41.628289347" lon="2.528247673">
        <ele>389.47</ele>
        <time>2013-11-11T08:28:17Z</time>
      </trkpt>
      <trkpt lat="41.628422954" lon="2.528393099">
        <ele>390.43</ele>
        <time>2013-11-11T08:28:24Z</time>
      </trkpt>
      <trkpt lat="41.628591263" lon="2.528619914">
        <ele>391.39</ele>
        <time>2013-11-11T08:28:33Z</time>
      </trkpt>
      <trkpt lat="41.628788740" lon="2.528955106">
        <ele>391.87</ele>
        <time>2013-11-11T08:28:44Z</time>
      </trkpt>
      <trkpt lat="41.629000551" lon="2.529231625">
        <ele>391.39</ele>
        <time>2013-11-11T08:28:53Z</time>
      </trkpt>
      <trkpt lat="41.629278495" lon="2.529430108">
        <ele>391.39</ele>
        <time>2013-11-11T08:29:02Z</time>
      </trkpt>
      <trkpt lat="41.629527689" lon="2.529476041">
        <ele>392.36</ele>
        <time>2013-11-11T08:29:10Z</time>
      </trkpt>
      <trkpt lat="41.629796329" lon="2.529439999">
        <ele>392.84</ele>
        <time>2013-11-11T08:29:19Z</time>
      </trkpt>
      <trkpt lat="41.630076536" lon="2.529374536">
        <ele>393.32</ele>
        <time>2013-11-11T08:29:28Z</time>
      </trkpt>
      <trkpt lat="41.630253981" lon="2.529231625">
        <ele>393.32</ele>
        <time>2013-11-11T08:29:34Z</time>
      </trkpt>
      <trkpt lat="41.630431510" lon="2.529018557">
        <ele>394.28</ele>
        <time>2013-11-11T08:29:41Z</time>
      </trkpt>
      <trkpt lat="41.630579953" lon="2.528942198">
        <ele>395.24</ele>
        <time>2013-11-11T08:29:47Z</time>
      </trkpt>
      <trkpt lat="41.630802409" lon="2.529046888">
        <ele>396.68</ele>
        <time>2013-11-11T08:29:55Z</time>
      </trkpt>
      <trkpt lat="41.631086974" lon="2.529134730">
        <ele>397.16</ele>
        <time>2013-11-11T08:30:04Z</time>
      </trkpt>
      <trkpt lat="41.631333654" lon="2.529025179">
        <ele>398.12</ele>
        <time>2013-11-11T08:30:12Z</time>
      </trkpt>
      <trkpt lat="41.631535574" lon="2.528883021">
        <ele>399.57</ele>
        <time>2013-11-11T08:30:20Z</time>
      </trkpt>
      <trkpt lat="41.631737745" lon="2.528753856">
        <ele>401.49</ele>
        <time>2013-11-11T08:30:29Z</time>
      </trkpt>
      <trkpt lat="41.631760125" lon="2.528750504">
        <ele>401.49</ele>
        <time>2013-11-11T08:30:30Z</time>
      </trkpt>
      <trkpt lat="41.631836987" lon="2.528862821">
        <ele>401.49</ele>
        <time>2013-11-11T08:30:34Z</time>
      </trkpt>
      <trkpt lat="41.631884764" lon="2.529249730">
        <ele>400.05</ele>
        <time>2013-11-11T08:30:40Z</time>
      </trkpt>
      <trkpt lat="41.631882585" lon="2.529545192">
        <ele>396.20</ele>
        <time>2013-11-11T08:30:43Z</time>
      </trkpt>
      <trkpt lat="41.631882585" lon="2.529656671">
        <ele>394.76</ele>
        <time>2013-11-11T08:30:44Z</time>
      </trkpt>
      <trkpt lat="41.631921309" lon="2.529988511">
        <ele>393.32</ele>
        <time>2013-11-11T08:30:47Z</time>
      </trkpt>
      <trkpt lat="41.632098922" lon="2.530476421">
        <ele>388.51</ele>
        <time>2013-11-11T08:30:51Z</time>
      </trkpt>
      <trkpt lat="41.632266727" lon="2.530688148">
        <ele>386.59</ele>
        <time>2013-11-11T08:30:53Z</time>
      </trkpt>
      <trkpt lat="41.632760338" lon="2.531212688">
        <ele>383.70</ele>
        <time>2013-11-11T08:30:59Z</time>
      </trkpt>
      <trkpt lat="41.633140205" lon="2.531816101">
        <ele>383.70</ele>
        <time>2013-11-11T08:31:06Z</time>
      </trkpt>
      <trkpt lat="41.633205919" lon="2.532009220">
        <ele>385.15</ele>
        <time>2013-11-11T08:31:10Z</time>
      </trkpt>
      <trkpt lat="41.633222097" lon="2.532072755">
        <ele>386.11</ele>
        <time>2013-11-11T08:31:12Z</time>
      </trkpt>
      <trkpt lat="41.633236178" lon="2.532314154">
        <ele>387.55</ele>
        <time>2013-11-11T08:31:19Z</time>
      </trkpt>
      <trkpt lat="41.633240369" lon="2.532529401">
        <ele>390.43</ele>
        <time>2013-11-11T08:31:26Z</time>
      </trkpt>
      <trkpt lat="41.633255540" lon="2.532675162">
        <ele>392.36</ele>
        <time>2013-11-11T08:31:32Z</time>
      </trkpt>
      <trkpt lat="41.633352016" lon="2.532807680">
        <ele>392.84</ele>
        <time>2013-11-11T08:31:39Z</time>
      </trkpt>
      <trkpt lat="41.633412533" lon="2.532906670">
        <ele>391.39</ele>
        <time>2013-11-11T08:31:42Z</time>
      </trkpt>
      <trkpt lat="41.633524516" lon="2.533065926">
        <ele>388.03</ele>
        <time>2013-11-11T08:31:46Z</time>
      </trkpt>
      <trkpt lat="41.633578411" lon="2.533161732">
        <ele>386.59</ele>
        <time>2013-11-11T08:31:48Z</time>
      </trkpt>
      <trkpt lat="41.633689304" lon="2.533335991">
        <ele>384.18</ele>
        <time>2013-11-11T08:31:51Z</time>
      </trkpt>
      <trkpt lat="41.633788210" lon="2.533450404">
        <ele>383.22</ele>
        <time>2013-11-11T08:31:53Z</time>
      </trkpt>
      <trkpt lat="41.633882171" lon="2.533513017">
        <ele>383.22</ele>
        <time>2013-11-11T08:31:55Z</time>
      </trkpt>
      <trkpt lat="41.634009995" lon="2.533547131">
        <ele>384.66</ele>
        <time>2013-11-11T08:32:00Z</time>
      </trkpt>
      <trkpt lat="41.634239743" lon="2.533496840">
        <ele>383.70</ele>
        <time>2013-11-11T08:32:06Z</time>
      </trkpt>
      <trkpt lat="41.634363041" lon="2.533474879">
        <ele>381.78</ele>
        <time>2013-11-11T08:32:09Z</time>
      </trkpt>
      <trkpt lat="41.634584407" lon="2.533481753">
        <ele>379.38</ele>
        <time>2013-11-11T08:32:14Z</time>
      </trkpt>
      <trkpt lat="41.634665041" lon="2.533214118">
        <ele>377.94</ele>
        <time>2013-11-11T08:32:19Z</time>
      </trkpt>
      <trkpt lat="41.634657078" lon="2.533154439">
        <ele>377.94</ele>
        <time>2013-11-11T08:32:20Z</time>
      </trkpt>
      <trkpt lat="41.634630089" lon="2.533011947">
        <ele>376.97</ele>
        <time>2013-11-11T08:32:22Z</time>
      </trkpt>
      <trkpt lat="41.634622461" lon="2.532683963">
        <ele>374.57</ele>
        <time>2013-11-11T08:32:26Z</time>
      </trkpt>
      <trkpt lat="41.634655234" lon="2.532220695">
        <ele>372.65</ele>
        <time>2013-11-11T08:32:31Z</time>
      </trkpt>
      <trkpt lat="41.634688091" lon="2.532144839">
        <ele>372.65</ele>
        <time>2013-11-11T08:32:32Z</time>
      </trkpt>
      <trkpt lat="41.634867129" lon="2.531874104">
        <ele>374.57</ele>
        <time>2013-11-11T08:32:39Z</time>
      </trkpt>
      <trkpt lat="41.634994534" lon="2.531807300">
        <ele>376.97</ele>
        <time>2013-11-11T08:32:46Z</time>
      </trkpt>
      <trkpt lat="41.635123783" lon="2.531907631">
        <ele>378.42</ele>
        <time>2013-11-11T08:32:53Z</time>
      </trkpt>
      <trkpt lat="41.635273232" lon="2.532075605">
        <ele>379.86</ele>
        <time>2013-11-11T08:33:01Z</time>
      </trkpt>
      <trkpt lat="41.635407426" lon="2.532167722">
        <ele>379.86</ele>
        <time>2013-11-11T08:33:07Z</time>
      </trkpt>
      <trkpt lat="41.635494598" lon="2.532136206">
        <ele>379.86</ele>
        <time>2013-11-11T08:33:10Z</time>
      </trkpt>
      <trkpt lat="41.635554193" lon="2.531965885">
        <ele>379.86</ele>
        <time>2013-11-11T08:33:14Z</time>
      </trkpt>
      <trkpt lat="41.635609933" lon="2.531642344">
        <ele>379.86</ele>
        <time>2013-11-11T08:33:22Z</time>
      </trkpt>
      <trkpt lat="41.635644969" lon="2.531449393">
        <ele>381.30</ele>
        <time>2013-11-11T08:33:28Z</time>
      </trkpt>
      <trkpt lat="41.635696434" lon="2.531243449">
        <ele>383.70</ele>
        <time>2013-11-11T08:33:35Z</time>
      </trkpt>
      <trkpt lat="41.635769357" lon="2.531038093">
        <ele>385.63</ele>
        <time>2013-11-11T08:33:42Z</time>
      </trkpt>
      <trkpt lat="41.635898438" lon="2.530963829">
        <ele>387.07</ele>
        <time>2013-11-11T08:33:48Z</time>
      </trkpt>
      <trkpt lat="41.636081248" lon="2.530913789">
        <ele>388.51</ele>
        <time>2013-11-11T08:33:56Z</time>
      </trkpt>
      <trkpt lat="41.636201863" lon="2.530905072">
        <ele>388.51</ele>
        <time>2013-11-11T08:34:01Z</time>
      </trkpt>
      <trkpt lat="41.636274031" lon="2.531012695">
        <ele>388.51</ele>
        <time>2013-11-11T08:34:05Z</time>
      </trkpt>
      <trkpt lat="41.636320635" lon="2.531260548">
        <ele>388.51</ele>
        <time>2013-11-11T08:34:12Z</time>
      </trkpt>
      <trkpt lat="41.636354078" lon="2.531679979">
        <ele>388.03</ele>
        <time>2013-11-11T08:34:22Z</time>
      </trkpt>
      <trkpt lat="41.636416775" lon="2.531939231">
        <ele>388.03</ele>
        <time>2013-11-11T08:34:29Z</time>
      </trkpt>
      <trkpt lat="41.636544012" lon="2.532244500">
        <ele>388.03</ele>
        <time>2013-11-11T08:34:36Z</time>
      </trkpt>
      <trkpt lat="41.636481986" lon="2.532517415">
        <ele>388.51</ele>
        <time>2013-11-11T08:34:42Z</time>
      </trkpt>
      <trkpt lat="41.636427588" lon="2.532751186">
        <ele>388.51</ele>
        <time>2013-11-11T08:34:47Z</time>
      </trkpt>
      <trkpt lat="41.636453153" lon="2.532840621">
        <ele>387.55</ele>
        <time>2013-11-11T08:34:49Z</time>
      </trkpt>
      <trkpt lat="41.636561028" lon="2.532979844">
        <ele>387.55</ele>
        <time>2013-11-11T08:34:53Z</time>
      </trkpt>
      <trkpt lat="41.636744424" lon="2.533293076">
        <ele>387.07</ele>
        <time>2013-11-11T08:35:01Z</time>
      </trkpt>
      <trkpt lat="41.636717602" lon="2.533566075">
        <ele>387.07</ele>
        <time>2013-11-11T08:35:07Z</time>
      </trkpt>
      <trkpt lat="41.636621294" lon="2.533838906">
        <ele>387.07</ele>
        <time>2013-11-11T08:35:14Z</time>
      </trkpt>
      <trkpt lat="41.636587682" lon="2.533909984">
        <ele>387.07</ele>
        <time>2013-11-11T08:35:16Z</time>
      </trkpt>
      <trkpt lat="41.636661108" lon="2.534089105">
        <ele>387.07</ele>
        <time>2013-11-11T08:35:21Z</time>
      </trkpt>
      <trkpt lat="41.636844839" lon="2.534145013">
        <ele>387.07</ele>
        <time>2013-11-11T08:35:26Z</time>
      </trkpt>
      <trkpt lat="41.636888173" lon="2.534169739">
        <ele>386.59</ele>
        <time>2013-11-11T08:35:27Z</time>
      </trkpt>
      <trkpt lat="41.637276339" lon="2.534452126">
        <ele>384.18</ele>
        <time>2013-11-11T08:35:35Z</time>
      </trkpt>
      <trkpt lat="41.637578088" lon="2.534609538">
        <ele>383.70</ele>
        <time>2013-11-11T08:35:41Z</time>
      </trkpt>
      <trkpt lat="41.637816385" lon="2.534884716">
        <ele>381.30</ele>
        <time>2013-11-11T08:35:48Z</time>
      </trkpt>
      <trkpt lat="41.637829713" lon="2.534901060">
        <ele>381.30</ele>
        <time>2013-11-11T08:35:49Z</time>
      </trkpt>
      <trkpt lat="41.637939851" lon="2.534896534">
        <ele>380.82</ele>
        <time>2013-11-11T08:35:53Z</time>
      </trkpt>
      <trkpt lat="41.638202959" lon="2.534669636">
        <ele>379.38</ele>
        <time>2013-11-11T08:35:59Z</time>
      </trkpt>
      <trkpt lat="41.638464390" lon="2.534614399">
        <ele>378.42</ele>
        <time>2013-11-11T08:36:04Z</time>
      </trkpt>
      <trkpt lat="41.638509988" lon="2.534636695">
        <ele>378.42</ele>
        <time>2013-11-11T08:36:05Z</time>
      </trkpt>
      <trkpt lat="41.638992450" lon="2.534911286">
        <ele>377.94</ele>
        <time>2013-11-11T08:36:16Z</time>
      </trkpt>
      <trkpt lat="41.639165620" lon="2.534929726">
        <ele>377.94</ele>
        <time>2013-11-11T08:36:21Z</time>
      </trkpt>
      <trkpt lat="41.639312471" lon="2.534748593">
        <ele>379.38</ele>
        <time>2013-11-11T08:36:27Z</time>
      </trkpt>
      <trkpt lat="41.639329403" lon="2.534711462">
        <ele>379.38</ele>
        <time>2013-11-11T08:36:28Z</time>
      </trkpt>
      <trkpt lat="41.639482037" lon="2.534434943">
        <ele>380.34</ele>
        <time>2013-11-11T08:36:36Z</time>
      </trkpt>
      <trkpt lat="41.639640371" lon="2.534318937">
        <ele>381.78</ele>
        <time>2013-11-11T08:36:43Z</time>
      </trkpt>
      <trkpt lat="41.639700805" lon="2.534329666">
        <ele>382.26</ele>
        <time>2013-11-11T08:36:45Z</time>
      </trkpt>
      <trkpt lat="41.639812452" lon="2.534424549">
        <ele>382.26</ele>
        <time>2013-11-11T08:36:48Z</time>
      </trkpt>
      <trkpt lat="41.640003224" lon="2.534511637">
        <ele>380.82</ele>
        <time>2013-11-11T08:36:52Z</time>
      </trkpt>
      <trkpt lat="41.640276222" lon="2.534552541">
        <ele>380.34</ele>
        <time>2013-11-11T08:37:00Z</time>
      </trkpt>
      <trkpt lat="41.640488368" lon="2.534634348">
        <ele>382.26</ele>
        <time>2013-11-11T08:37:07Z</time>
      </trkpt>
      <trkpt lat="41.640683583" lon="2.534665780">
        <ele>383.22</ele>
        <time>2013-11-11T08:37:14Z</time>
      </trkpt>
      <trkpt lat="41.640906793" lon="2.534639126">
        <ele>384.66</ele>
        <time>2013-11-11T08:37:22Z</time>
      </trkpt>
      <trkpt lat="41.641073425" lon="2.534628229">
        <ele>385.63</ele>
        <time>2013-11-11T08:37:28Z</time>
      </trkpt>
      <trkpt lat="41.641192616" lon="2.534627978">
        <ele>387.07</ele>
        <time>2013-11-11T08:37:34Z</time>
      </trkpt>
      <trkpt lat="41.641376096" lon="2.534571316">
        <ele>388.99</ele>
        <time>2013-11-11T08:37:42Z</time>
      </trkpt>
      <trkpt lat="41.641434266" lon="2.534534436">
        <ele>390.91</ele>
        <time>2013-11-11T08:37:45Z</time>
      </trkpt>
      <trkpt lat="41.641500567" lon="2.534445839">
        <ele>390.91</ele>
        <time>2013-11-11T08:37:49Z</time>
      </trkpt>
      <trkpt lat="41.641606011" lon="2.534222964">
        <ele>391.87</ele>
        <time>2013-11-11T08:37:58Z</time>
      </trkpt>
      <trkpt lat="41.641690585" lon="2.534085166">
        <ele>393.32</ele>
        <time>2013-11-11T08:38:05Z</time>
      </trkpt>
      <trkpt lat="41.641859229" lon="2.533962203">
        <ele>394.76</ele>
        <time>2013-11-11T08:38:15Z</time>
      </trkpt>
      <trkpt lat="41.641992752" lon="2.533836559">
        <ele>396.68</ele>
        <time>2013-11-11T08:38:24Z</time>
      </trkpt>
      <trkpt lat="41.642102891" lon="2.533576971">
        <ele>397.16</ele>
        <time>2013-11-11T08:38:32Z</time>
      </trkpt>
      <trkpt lat="41.642134909" lon="2.533396090">
        <ele>395.24</ele>
        <time>2013-11-11T08:38:36Z</time>
      </trkpt>
      <trkpt lat="41.642116888" lon="2.533168856">
        <ele>392.84</ele>
        <time>2013-11-11T08:38:41Z</time>
      </trkpt>
      <trkpt lat="41.642112781" lon="2.533049833">
        <ele>391.39</ele>
        <time>2013-11-11T08:38:43Z</time>
      </trkpt>
      <trkpt lat="41.642191068" lon="2.532751270">
        <ele>388.51</ele>
        <time>2013-11-11T08:38:49Z</time>
      </trkpt>
      <trkpt lat="41.642366082" lon="2.532557732">
        <ele>386.11</ele>
        <time>2013-11-11T08:38:54Z</time>
      </trkpt>
      <trkpt lat="41.642401789" lon="2.532350531">
        <ele>384.66</ele>
        <time>2013-11-11T08:38:58Z</time>
      </trkpt>
      <trkpt lat="41.642432718" lon="2.532060098">
        <ele>383.70</ele>
        <time>2013-11-11T08:39:04Z</time>
      </trkpt>
      <trkpt lat="41.642479238" lon="2.531929927">
        <ele>382.26</ele>
        <time>2013-11-11T08:39:11Z</time>
      </trkpt>
      <trkpt lat="41.642591891" lon="2.531858010">
        <ele>380.82</ele>
        <time>2013-11-11T08:39:18Z</time>
      </trkpt>
      <trkpt lat="41.642733629" lon="2.531813502">
        <ele>379.38</ele>
        <time>2013-11-11T08:39:24Z</time>
      </trkpt>
      <trkpt lat="41.642843013" lon="2.531719541">
        <ele>376.97</ele>
        <time>2013-11-11T08:39:30Z</time>
      </trkpt>
      <trkpt lat="41.642836307" lon="2.531570595">
        <ele>375.53</ele>
        <time>2013-11-11T08:39:37Z</time>
      </trkpt>
      <trkpt lat="41.642840666" lon="2.531557854">
        <ele>375.05</ele>
        <time>2013-11-11T08:39:43Z</time>
      </trkpt>
      <trkpt lat="41.642848545" lon="2.531548718">
        <ele>375.05</ele>
        <time>2013-11-11T08:39:48Z</time>
      </trkpt>
      <trkpt lat="41.642866398" lon="2.531543773">
        <ele>375.05</ele>
        <time>2013-11-11T08:39:50Z</time>
      </trkpt>
      <trkpt lat="41.642924569" lon="2.531589454">
        <ele>375.05</ele>
        <time>2013-11-11T08:39:56Z</time>
      </trkpt>
      <trkpt lat="41.642964634" lon="2.531590795">
        <ele>375.05</ele>
        <time>2013-11-11T08:39:59Z</time>
      </trkpt>
      <trkpt lat="41.643084663" lon="2.531592136">
        <ele>372.17</ele>
        <time>2013-11-11T08:40:07Z</time>
      </trkpt>
      <trkpt lat="41.643235789" lon="2.531603955">
        <ele>369.28</ele>
        <time>2013-11-11T08:40:14Z</time>
      </trkpt>
      <trkpt lat="41.643413904" lon="2.531634800">
        <ele>368.32</ele>
        <time>2013-11-11T08:40:21Z</time>
      </trkpt>
      <trkpt lat="41.643646921" lon="2.531660449">
        <ele>367.36</ele>
        <time>2013-11-11T08:40:27Z</time>
      </trkpt>
      <trkpt lat="41.643736021" lon="2.531661622">
        <ele>366.40</ele>
        <time>2013-11-11T08:40:29Z</time>
      </trkpt>
      <trkpt lat="41.643967529" lon="2.531717446">
        <ele>363.52</ele>
        <time>2013-11-11T08:40:34Z</time>
      </trkpt>
      <trkpt lat="41.644189565" lon="2.531710908">
        <ele>360.15</ele>
        <time>2013-11-11T08:40:40Z</time>
      </trkpt>
      <trkpt lat="41.644322670" lon="2.531663802">
        <ele>358.23</ele>
        <time>2013-11-11T08:40:45Z</time>
      </trkpt>
      <trkpt lat="41.644363490" lon="2.531607727">
        <ele>357.75</ele>
        <time>2013-11-11T08:40:51Z</time>
      </trkpt>
      <trkpt lat="41.644386289" lon="2.531602278">
        <ele>357.27</ele>
        <time>2013-11-11T08:41:12Z</time>
      </trkpt>
      <trkpt lat="41.644240527" lon="2.531564728">
        <ele>355.83</ele>
        <time>2013-11-11T08:41:19Z</time>
      </trkpt>
      <trkpt lat="41.644049504" lon="2.531501947">
        <ele>354.86</ele>
        <time>2013-11-11T08:41:25Z</time>
      </trkpt>
      <trkpt lat="41.643721939" lon="2.531353671">
        <ele>353.90</ele>
        <time>2013-11-11T08:41:34Z</time>
      </trkpt>
      <trkpt lat="41.643524294" lon="2.531206485">
        <ele>352.94</ele>
        <time>2013-11-11T08:41:41Z</time>
      </trkpt>
      <trkpt lat="41.643397476" lon="2.530874394">
        <ele>351.98</ele>
        <time>2013-11-11T08:41:49Z</time>
      </trkpt>
      <trkpt lat="41.643396637" lon="2.530681526">
        <ele>351.50</ele>
        <time>2013-11-11T08:41:54Z</time>
      </trkpt>
      <trkpt lat="41.643369899" lon="2.530455802">
        <ele>353.90</ele>
        <time>2013-11-11T08:42:01Z</time>
      </trkpt>
      <trkpt lat="41.643304353" lon="2.530371228">
        <ele>356.31</ele>
        <time>2013-11-11T08:42:07Z</time>
      </trkpt>
      <trkpt lat="41.643238303" lon="2.530226054">
        <ele>358.71</ele>
        <time>2013-11-11T08:42:16Z</time>
      </trkpt>
      <trkpt lat="41.643177115" lon="2.530024385">
        <ele>360.63</ele>
        <time>2013-11-11T08:42:24Z</time>
      </trkpt>
      <trkpt lat="41.643164040" lon="2.529980213">
        <ele>361.11</ele>
        <time>2013-11-11T08:42:26Z</time>
      </trkpt>
      <trkpt lat="41.643079131" lon="2.529866973">
        <ele>362.55</ele>
        <time>2013-11-11T08:42:35Z</time>
      </trkpt>
      <trkpt lat="41.643023978" lon="2.529801091">
        <ele>364.96</ele>
        <time>2013-11-11T08:42:44Z</time>
      </trkpt>
      <trkpt lat="41.642978632" lon="2.529721547">
        <ele>366.40</ele>
        <time>2013-11-11T08:42:54Z</time>
      </trkpt>
      <trkpt lat="41.642945859" lon="2.529679135">
        <ele>366.88</ele>
        <time>2013-11-11T08:43:02Z</time>
      </trkpt>
      <trkpt lat="41.642893723" lon="2.529619539">
        <ele>368.32</ele>
        <time>2013-11-11T08:43:09Z</time>
      </trkpt>
      <trkpt lat="41.642823483" lon="2.529540498">
        <ele>370.24</ele>
        <time>2013-11-11T08:43:17Z</time>
      </trkpt>
      <trkpt lat="41.642739245" lon="2.529391635">
        <ele>373.13</ele>
        <time>2013-11-11T08:43:29Z</time>
      </trkpt>
      <trkpt lat="41.642693563" lon="2.529267248">
        <ele>376.49</ele>
        <time>2013-11-11T08:43:38Z</time>
      </trkpt>
      <trkpt lat="41.642678392" lon="2.529229026">
        <ele>376.49</ele>
        <time>2013-11-11T08:43:40Z</time>
      </trkpt>
      <trkpt lat="41.642622150" lon="2.529044876">
        <ele>377.45</ele>
        <time>2013-11-11T08:43:50Z</time>
      </trkpt>
      <trkpt lat="41.642611002" lon="2.528979413">
        <ele>377.45</ele>
        <time>2013-11-11T08:44:02Z</time>
      </trkpt>
      <trkpt lat="41.642618042" lon="2.528815296">
        <ele>377.45</ele>
        <time>2013-11-11T08:44:10Z</time>
      </trkpt>
      <trkpt lat="41.642668921" lon="2.528624272">
        <ele>378.42</ele>
        <time>2013-11-11T08:44:19Z</time>
      </trkpt>
      <trkpt lat="41.642718290" lon="2.528467782">
        <ele>376.97</ele>
        <time>2013-11-11T08:44:24Z</time>
      </trkpt>
      <trkpt lat="41.642748884" lon="2.528303664">
        <ele>374.09</ele>
        <time>2013-11-11T08:44:28Z</time>
      </trkpt>
      <trkpt lat="41.642881989" lon="2.528087411">
        <ele>372.17</ele>
        <time>2013-11-11T08:44:33Z</time>
      </trkpt>
      <trkpt lat="41.642941919" lon="2.527914409">
        <ele>371.21</ele>
        <time>2013-11-11T08:44:37Z</time>
      </trkpt>
      <trkpt lat="41.642968071" lon="2.527667729">
        <ele>369.28</ele>
        <time>2013-11-11T08:44:42Z</time>
      </trkpt>
      <trkpt lat="41.643037976" lon="2.527416607">
        <ele>366.40</ele>
        <time>2013-11-11T08:44:48Z</time>
      </trkpt>
      <trkpt lat="41.643053063" lon="2.527377715">
        <ele>366.40</ele>
        <time>2013-11-11T08:44:49Z</time>
      </trkpt>
      <trkpt lat="41.643055997" lon="2.527193733">
        <ele>363.04</ele>
        <time>2013-11-11T08:44:54Z</time>
      </trkpt>
      <trkpt lat="41.643046609" lon="2.527124498">
        <ele>361.59</ele>
        <time>2013-11-11T08:44:56Z</time>
      </trkpt>
      <trkpt lat="41.643098912" lon="2.526999775">
        <ele>358.23</ele>
        <time>2013-11-11T08:45:02Z</time>
      </trkpt>
      <trkpt lat="41.643150964" lon="2.526950155">
        <ele>357.27</ele>
        <time>2013-11-11T08:45:06Z</time>
      </trkpt>
      <trkpt lat="41.643205698" lon="2.526849153">
        <ele>352.94</ele>
        <time>2013-11-11T08:45:11Z</time>
      </trkpt>
      <trkpt lat="41.643212068" lon="2.526839094">
        <ele>352.94</ele>
        <time>2013-11-11T08:45:12Z</time>
      </trkpt>
      <trkpt lat="41.643231933" lon="2.526799867">
        <ele>352.46</ele>
        <time>2013-11-11T08:45:16Z</time>
      </trkpt>
      <trkpt lat="41.643255486" lon="2.526722418">
        <ele>350.06</ele>
        <time>2013-11-11T08:45:20Z</time>
      </trkpt>
      <trkpt lat="41.643273591" lon="2.526636588">
        <ele>348.62</ele>
        <time>2013-11-11T08:45:24Z</time>
      </trkpt>
      <trkpt lat="41.643287505" lon="2.526485294">
        <ele>346.69</ele>
        <time>2013-11-11T08:45:31Z</time>
      </trkpt>
      <trkpt lat="41.643342574" lon="2.526351184">
        <ele>343.33</ele>
        <time>2013-11-11T08:45:36Z</time>
      </trkpt>
      <trkpt lat="41.643441648" lon="2.526197460">
        <ele>341.41</ele>
        <time>2013-11-11T08:45:41Z</time>
      </trkpt>
      <trkpt lat="41.643520606" lon="2.526065612">
        <ele>339.48</ele>
        <time>2013-11-11T08:45:46Z</time>
      </trkpt>
      <trkpt lat="41.643614232" lon="2.525919180">
        <ele>337.08</ele>
        <time>2013-11-11T08:45:53Z</time>
      </trkpt>
      <trkpt lat="41.643743816" lon="2.525686247">
        <ele>333.23</ele>
        <time>2013-11-11T08:46:01Z</time>
      </trkpt>
      <trkpt lat="41.643757646" lon="2.525662946">
        <ele>333.23</ele>
        <time>2013-11-11T08:46:02Z</time>
      </trkpt>
      <trkpt lat="41.643835346" lon="2.525518190">
        <ele>330.35</ele>
        <time>2013-11-11T08:46:08Z</time>
      </trkpt>
      <trkpt lat="41.643931403" lon="2.525468821">
        <ele>328.43</ele>
        <time>2013-11-11T08:46:14Z</time>
      </trkpt>
      <trkpt lat="41.643972390" lon="2.525370501">
        <ele>326.99</ele>
        <time>2013-11-11T08:46:20Z</time>
      </trkpt>
      <trkpt lat="41.643990244" lon="2.525201941">
        <ele>323.62</ele>
        <time>2013-11-11T08:46:28Z</time>
      </trkpt>
      <trkpt lat="41.643943473" lon="2.525146118">
        <ele>322.66</ele>
        <time>2013-11-11T08:46:36Z</time>
      </trkpt>
      <trkpt lat="41.643881028" lon="2.525042182">
        <ele>319.30</ele>
        <time>2013-11-11T08:46:45Z</time>
      </trkpt>
      <trkpt lat="41.643864934" lon="2.524976887">
        <ele>318.33</ele>
        <time>2013-11-11T08:46:51Z</time>
      </trkpt>
      <trkpt lat="41.643857810" lon="2.524944030">
        <ele>317.85</ele>
        <time>2013-11-11T08:47:00Z</time>
      </trkpt>
      <trkpt lat="41.643909358" lon="2.524922405">
        <ele>316.89</ele>
        <time>2013-11-11T08:47:09Z</time>
      </trkpt>
      <trkpt lat="41.644040870" lon="2.524839256">
        <ele>314.97</ele>
        <time>2013-11-11T08:47:18Z</time>
      </trkpt>
      <trkpt lat="41.644139693" lon="2.524745295">
        <ele>313.53</ele>
        <time>2013-11-11T08:47:23Z</time>
      </trkpt>
      <trkpt lat="41.644174143" lon="2.524677821">
        <ele>313.53</ele>
        <time>2013-11-11T08:47:30Z</time>
      </trkpt>
      <trkpt lat="41.644195852" lon="2.524651585">
        <ele>313.53</ele>
        <time>2013-11-11T08:47:49Z</time>
      </trkpt>
      <trkpt lat="41.644197528" lon="2.524617052">
        <ele>313.53</ele>
        <time>2013-11-11T08:47:56Z</time>
      </trkpt>
      <trkpt lat="41.644276486" lon="2.524494089">
        <ele>314.97</ele>
        <time>2013-11-11T08:48:04Z</time>
      </trkpt>
      <trkpt lat="41.644324011" lon="2.524358889">
        <ele>315.45</ele>
        <time>2013-11-11T08:48:11Z</time>
      </trkpt>
      <trkpt lat="41.644416380" lon="2.524168536">
        <ele>316.41</ele>
        <time>2013-11-11T08:48:20Z</time>
      </trkpt>
      <trkpt lat="41.644469772" lon="2.523941973">
        <ele>316.89</ele>
        <time>2013-11-11T08:48:29Z</time>
      </trkpt>
      <trkpt lat="41.644473293" lon="2.523679871">
        <ele>317.85</ele>
        <time>2013-11-11T08:48:38Z</time>
      </trkpt>
      <trkpt lat="41.644415877" lon="2.523432018">
        <ele>316.41</ele>
        <time>2013-11-11T08:48:44Z</time>
      </trkpt>
      <trkpt lat="41.644398778" lon="2.523378039">
        <ele>316.41</ele>
        <time>2013-11-11T08:48:45Z</time>
      </trkpt>
      <trkpt lat="41.644381176" lon="2.523322383">
        <ele>314.97</ele>
        <time>2013-11-11T08:48:46Z</time>
      </trkpt>
      <trkpt lat="41.644357958" lon="2.523076207">
        <ele>314.49</ele>
        <time>2013-11-11T08:48:50Z</time>
      </trkpt>
      <trkpt lat="41.644387294" lon="2.522902282">
        <ele>314.01</ele>
        <time>2013-11-11T08:48:53Z</time>
      </trkpt>
      <trkpt lat="41.644488548" lon="2.522538927">
        <ele>310.16</ele>
        <time>2013-11-11T08:48:58Z</time>
      </trkpt>
      <trkpt lat="41.644578150" lon="2.522184707">
        <ele>309.68</ele>
        <time>2013-11-11T08:49:04Z</time>
      </trkpt>
      <trkpt lat="41.644590975" lon="2.522128297">
        <ele>311.12</ele>
        <time>2013-11-11T08:49:06Z</time>
      </trkpt>
      <trkpt lat="41.644607739" lon="2.521810036">
        <ele>312.57</ele>
        <time>2013-11-11T08:49:13Z</time>
      </trkpt>
      <trkpt lat="41.644604637" lon="2.521496134">
        <ele>312.57</ele>
        <time>2013-11-11T08:49:19Z</time>
      </trkpt>
      <trkpt lat="41.644668340" lon="2.521248784">
        <ele>313.05</ele>
        <time>2013-11-11T08:49:26Z</time>
      </trkpt>
      <trkpt lat="41.644774874" lon="2.521036973">
        <ele>310.64</ele>
        <time>2013-11-11T08:49:30Z</time>
      </trkpt>
      <trkpt lat="41.645041167" lon="2.520691890">
        <ele>309.20</ele>
        <time>2013-11-11T08:49:36Z</time>
      </trkpt>
      <trkpt lat="41.645117023" lon="2.520537160">
        <ele>308.72</ele>
        <time>2013-11-11T08:49:40Z</time>
      </trkpt>
      <trkpt lat="41.645164800" lon="2.520416126">
        <ele>308.72</ele>
        <time>2013-11-11T08:49:44Z</time>
      </trkpt>
      <trkpt lat="41.645165051" lon="2.520246392">
        <ele>309.68</ele>
        <time>2013-11-11T08:49:48Z</time>
      </trkpt>
      <trkpt lat="41.645158513" lon="2.520121083">
        <ele>308.24</ele>
        <time>2013-11-11T08:49:50Z</time>
      </trkpt>
      <trkpt lat="41.645072515" lon="2.519787064">
        <ele>306.32</ele>
        <time>2013-11-11T08:49:56Z</time>
      </trkpt>
      <trkpt lat="41.645121717" lon="2.519668963">
        <ele>305.36</ele>
        <time>2013-11-11T08:50:00Z</time>
      </trkpt>
      <trkpt lat="41.645242835" lon="2.519635519">
        <ele>304.39</ele>
        <time>2013-11-11T08:50:04Z</time>
      </trkpt>
      <trkpt lat="41.645511392" lon="2.519685727">
        <ele>303.43</ele>
        <time>2013-11-11T08:50:11Z</time>
      </trkpt>
      <trkpt lat="41.645594791" lon="2.519715147">
        <ele>303.43</ele>
        <time>2013-11-11T08:50:13Z</time>
      </trkpt>
      <trkpt lat="41.645736278" lon="2.519720428">
        <ele>301.99</ele>
        <time>2013-11-11T08:50:16Z</time>
      </trkpt>
      <trkpt lat="41.645897462" lon="2.519710453">
        <ele>300.55</ele>
        <time>2013-11-11T08:50:19Z</time>
      </trkpt>
      <trkpt lat="41.646063172" lon="2.519663012">
        <ele>298.15</ele>
        <time>2013-11-11T08:50:24Z</time>
      </trkpt>
      <trkpt lat="41.646030315" lon="2.519543905">
        <ele>297.18</ele>
        <time>2013-11-11T08:50:28Z</time>
      </trkpt>
      <trkpt lat="41.645959320" lon="2.519334022">
        <ele>295.74</ele>
        <time>2013-11-11T08:50:33Z</time>
      </trkpt>
      <trkpt lat="41.645959320" lon="2.519153476">
        <ele>294.30</ele>
        <time>2013-11-11T08:50:39Z</time>
      </trkpt>
      <trkpt lat="41.645968289" lon="2.519151632">
        <ele>294.30</ele>
        <time>2013-11-11T08:50:46Z</time>
      </trkpt>
      <trkpt lat="41.645962841" lon="2.519134784">
        <ele>294.30</ele>
        <time>2013-11-11T08:50:54Z</time>
      </trkpt>
      <trkpt lat="41.645924284" lon="2.519014252">
        <ele>293.82</ele>
        <time>2013-11-11T08:51:00Z</time>
      </trkpt>
      <trkpt lat="41.645856139" lon="2.518748462">
        <ele>291.90</ele>
        <time>2013-11-11T08:51:07Z</time>
      </trkpt>
      <trkpt lat="41.645809871" lon="2.518513937">
        <ele>288.53</ele>
        <time>2013-11-11T08:51:12Z</time>
      </trkpt>
      <trkpt lat="41.645813811" lon="2.518358620">
        <ele>285.65</ele>
        <time>2013-11-11T08:51:17Z</time>
      </trkpt>
      <trkpt lat="41.645745666" lon="2.518394578">
        <ele>284.21</ele>
        <time>2013-11-11T08:51:23Z</time>
      </trkpt>
      <trkpt lat="41.645725968" lon="2.518489545">
        <ele>283.25</ele>
        <time>2013-11-11T08:51:25Z</time>
      </trkpt>
      <trkpt lat="41.645701325" lon="2.519007379">
        <ele>282.77</ele>
        <time>2013-11-11T08:51:35Z</time>
      </trkpt>
      <trkpt lat="41.645567047" lon="2.519117601">
        <ele>282.77</ele>
        <time>2013-11-11T08:51:41Z</time>
      </trkpt>
      <trkpt lat="41.645540896" lon="2.519113746">
        <ele>282.77</ele>
        <time>2013-11-11T08:51:42Z</time>
      </trkpt>
      <trkpt lat="41.645381807" lon="2.518965302">
        <ele>282.77</ele>
        <time>2013-11-11T08:51:49Z</time>
      </trkpt>
      <trkpt lat="41.645202770" lon="2.518674282">
        <ele>282.77</ele>
        <time>2013-11-11T08:51:57Z</time>
      </trkpt>
      <trkpt lat="41.645140325" lon="2.518640923">
        <ele>281.80</ele>
        <time>2013-11-11T08:51:59Z</time>
      </trkpt>
      <trkpt lat="41.645051057" lon="2.518780062">
        <ele>281.32</ele>
        <time>2013-11-11T08:52:04Z</time>
      </trkpt>
      <trkpt lat="41.645021637" lon="2.518912831">
        <ele>280.84</ele>
        <time>2013-11-11T08:52:07Z</time>
      </trkpt>
      <trkpt lat="41.644847964" lon="2.519048954">
        <ele>279.88</ele>
        <time>2013-11-11T08:52:12Z</time>
      </trkpt>
      <trkpt lat="41.644757775" lon="2.519033279">
        <ele>279.40</ele>
        <time>2013-11-11T08:52:14Z</time>
      </trkpt>
      <trkpt lat="41.644548143" lon="2.518976534">
        <ele>277.96</ele>
        <time>2013-11-11T08:52:19Z</time>
      </trkpt>
      <trkpt lat="41.644462815" lon="2.519033531">
        <ele>277.48</ele>
        <time>2013-11-11T08:52:25Z</time>
      </trkpt>
      <trkpt lat="41.644450243" lon="2.519252215">
        <ele>277.48</ele>
        <time>2013-11-11T08:52:31Z</time>
      </trkpt>
      <trkpt lat="41.644496175" lon="2.519576259">
        <ele>276.52</ele>
        <time>2013-11-11T08:52:37Z</time>
      </trkpt>
      <trkpt lat="41.644515873" lon="2.519642392">
        <ele>276.04</ele>
        <time>2013-11-11T08:52:38Z</time>
      </trkpt>
      <trkpt lat="41.644586449" lon="2.519861495">
        <ele>274.11</ele>
        <time>2013-11-11T08:52:42Z</time>
      </trkpt>
      <trkpt lat="41.644592400" lon="2.519938357">
        <ele>274.59</ele>
        <time>2013-11-11T08:52:45Z</time>
      </trkpt>
      <trkpt lat="41.644487626" lon="2.520007759">
        <ele>273.15</ele>
        <time>2013-11-11T08:52:51Z</time>
      </trkpt>
      <trkpt lat="41.644279084" lon="2.519987727">
        <ele>271.71</ele>
        <time>2013-11-11T08:52:58Z</time>
      </trkpt>
      <trkpt lat="41.644109518" lon="2.519811036">
        <ele>269.31</ele>
        <time>2013-11-11T08:53:05Z</time>
      </trkpt>
      <trkpt lat="41.643948167" lon="2.519601908">
        <ele>265.94</ele>
        <time>2013-11-11T08:53:09Z</time>
      </trkpt>
      <trkpt lat="41.643905922" lon="2.519540971">
        <ele>265.46</ele>
        <time>2013-11-11T08:53:10Z</time>
      </trkpt>
      <trkpt lat="41.643703415" lon="2.519434773">
        <ele>264.02</ele>
        <time>2013-11-11T08:53:15Z</time>
      </trkpt>
      <trkpt lat="41.643673324" lon="2.519452458">
        <ele>264.02</ele>
        <time>2013-11-11T08:53:16Z</time>
      </trkpt>
      <trkpt lat="41.643549020" lon="2.519566704">
        <ele>261.62</ele>
        <time>2013-11-11T08:53:20Z</time>
      </trkpt>
      <trkpt lat="41.643496298" lon="2.519662174">
        <ele>261.14</ele>
        <time>2013-11-11T08:53:22Z</time>
      </trkpt>
      <trkpt lat="41.643406277" lon="2.519913379">
        <ele>260.17</ele>
        <time>2013-11-11T08:53:28Z</time>
      </trkpt>
      <trkpt lat="41.643296474" lon="2.519920671">
        <ele>258.73</ele>
        <time>2013-11-11T08:53:32Z</time>
      </trkpt>
      <trkpt lat="41.643247020" lon="2.519822100">
        <ele>257.29</ele>
        <time>2013-11-11T08:53:35Z</time>
      </trkpt>
      <trkpt lat="41.643213828" lon="2.519591347">
        <ele>255.37</ele>
        <time>2013-11-11T08:53:42Z</time>
      </trkpt>
      <trkpt lat="41.643208799" lon="2.519250203">
        <ele>252.96</ele>
        <time>2013-11-11T08:53:49Z</time>
      </trkpt>
      <trkpt lat="41.643204692" lon="2.519189015">
        <ele>252.00</ele>
        <time>2013-11-11T08:53:50Z</time>
      </trkpt>
      <trkpt lat="41.643152137" lon="2.518702027">
        <ele>247.68</ele>
        <time>2013-11-11T08:53:58Z</time>
      </trkpt>
      <trkpt lat="41.643142414" lon="2.518636648">
        <ele>246.72</ele>
        <time>2013-11-11T08:53:59Z</time>
      </trkpt>
      <trkpt lat="41.643020458" lon="2.518316459">
        <ele>243.35</ele>
        <time>2013-11-11T08:54:05Z</time>
      </trkpt>
      <trkpt lat="41.643010315" lon="2.518266922">
        <ele>242.39</ele>
        <time>2013-11-11T08:54:06Z</time>
      </trkpt>
      <trkpt lat="41.643108887" lon="2.518095344">
        <ele>241.43</ele>
        <time>2013-11-11T08:54:11Z</time>
      </trkpt>
      <trkpt lat="41.643250625" lon="2.518031726">
        <ele>240.95</ele>
        <time>2013-11-11T08:54:16Z</time>
      </trkpt>
      <trkpt lat="41.643275100" lon="2.518009765">
        <ele>240.95</ele>
        <time>2013-11-11T08:54:17Z</time>
      </trkpt>
      <trkpt lat="41.643477607" lon="2.517839193">
        <ele>240.47</ele>
        <time>2013-11-11T08:54:24Z</time>
      </trkpt>
      <trkpt lat="41.643616495" lon="2.517737270">
        <ele>240.47</ele>
        <time>2013-11-11T08:54:28Z</time>
      </trkpt>
      <trkpt lat="41.643758819" lon="2.517598298">
        <ele>239.51</ele>
        <time>2013-11-11T08:54:32Z</time>
      </trkpt>
      <trkpt lat="41.643879686" lon="2.517484555">
        <ele>239.51</ele>
        <time>2013-11-11T08:54:35Z</time>
      </trkpt>
      <trkpt lat="41.644007510" lon="2.517378105">
        <ele>239.02</ele>
        <time>2013-11-11T08:54:38Z</time>
      </trkpt>
      <trkpt lat="41.644440855" lon="2.517111141">
        <ele>238.06</ele>
        <time>2013-11-11T08:54:47Z</time>
      </trkpt>
      <trkpt lat="41.644797840" lon="2.516907796">
        <ele>237.10</ele>
        <time>2013-11-11T08:54:54Z</time>
      </trkpt>
      <trkpt lat="41.645219701" lon="2.516700512">
        <ele>236.62</ele>
        <time>2013-11-11T08:55:02Z</time>
      </trkpt>
      <trkpt lat="41.645443917" lon="2.516579896">
        <ele>236.14</ele>
        <time>2013-11-11T08:55:06Z</time>
      </trkpt>
      <trkpt lat="41.645779948" lon="2.516187707">
        <ele>234.70</ele>
        <time>2013-11-11T08:55:13Z</time>
      </trkpt>
      <trkpt lat="41.646186386" lon="2.515550766">
        <ele>233.74</ele>
        <time>2013-11-11T08:55:23Z</time>
      </trkpt>
      <trkpt lat="41.646607158" lon="2.514930254">
        <ele>233.26</ele>
        <time>2013-11-11T08:55:33Z</time>
      </trkpt>
      <trkpt lat="41.646835481" lon="2.514591877">
        <ele>232.78</ele>
        <time>2013-11-11T08:55:39Z</time>
      </trkpt>
      <trkpt lat="41.646939081" lon="2.514220810">
        <ele>232.78</ele>
        <time>2013-11-11T08:55:45Z</time>
      </trkpt>
      <trkpt lat="41.646946876" lon="2.514150402">
        <ele>232.78</ele>
        <time>2013-11-11T08:55:46Z</time>
      </trkpt>
      <trkpt lat="41.646973028" lon="2.513859466">
        <ele>234.22</ele>
        <time>2013-11-11T08:55:50Z</time>
      </trkpt>
      <trkpt lat="41.647007729" lon="2.513374237">
        <ele>234.22</ele>
        <time>2013-11-11T08:55:56Z</time>
      </trkpt>
      <trkpt lat="41.647047627" lon="2.513074165">
        <ele>234.22</ele>
        <time>2013-11-11T08:56:00Z</time>
      </trkpt>
      <trkpt lat="41.647052153" lon="2.512575358">
        <ele>232.78</ele>
        <time>2013-11-11T08:56:06Z</time>
      </trkpt>
      <trkpt lat="41.647125830" lon="2.511565674">
        <ele>231.33</ele>
        <time>2013-11-11T08:56:17Z</time>
      </trkpt>
      <trkpt lat="41.647171511" lon="2.511197038">
        <ele>229.89</ele>
        <time>2013-11-11T08:56:21Z</time>
      </trkpt>
      <trkpt lat="41.647297491" lon="2.510669984">
        <ele>227.97</ele>
        <time>2013-11-11T08:56:27Z</time>
      </trkpt>
      <trkpt lat="41.647491281" lon="2.510222977">
        <ele>226.53</ele>
        <time>2013-11-11T08:56:33Z</time>
      </trkpt>
      <trkpt lat="41.647540566" lon="2.510132034">
        <ele>226.05</ele>
        <time>2013-11-11T08:56:35Z</time>
      </trkpt>
      <trkpt lat="41.647659254" lon="2.510049807">
        <ele>225.57</ele>
        <time>2013-11-11T08:56:40Z</time>
      </trkpt>
      <trkpt lat="41.647703678" lon="2.510081994">
        <ele>225.57</ele>
        <time>2013-11-11T08:56:42Z</time>
      </trkpt>
      <trkpt lat="41.647911969" lon="2.510310484">
        <ele>227.01</ele>
        <time>2013-11-11T08:56:51Z</time>
      </trkpt>
      <trkpt lat="41.648062759" lon="2.510425652">
        <ele>227.01</ele>
        <time>2013-11-11T08:56:57Z</time>
      </trkpt>
      <trkpt lat="41.648220842" lon="2.510563534">
        <ele>227.97</ele>
        <time>2013-11-11T08:57:03Z</time>
      </trkpt>
      <trkpt lat="41.648431898" lon="2.510755479">
        <ele>228.45</ele>
        <time>2013-11-11T08:57:10Z</time>
      </trkpt>
      <trkpt lat="41.648613785" lon="2.510820355">
        <ele>228.45</ele>
        <time>2013-11-11T08:57:14Z</time>
      </trkpt>
      <trkpt lat="41.648780753" lon="2.510798143">
        <ele>227.49</ele>
        <time>2013-11-11T08:57:17Z</time>
      </trkpt>
      <trkpt lat="41.648936237" lon="2.510666045">
        <ele>226.05</ele>
        <time>2013-11-11T08:57:20Z</time>
      </trkpt>
      <trkpt lat="41.649175121" lon="2.510467896">
        <ele>226.05</ele>
        <time>2013-11-11T08:57:27Z</time>
      </trkpt>
      <trkpt lat="41.649263970" lon="2.510498826">
        <ele>227.01</ele>
        <time>2013-11-11T08:57:30Z</time>
      </trkpt>
      <trkpt lat="41.649464884" lon="2.510622794">
        <ele>228.93</ele>
        <time>2013-11-11T08:57:38Z</time>
      </trkpt>
      <trkpt lat="41.649651884" lon="2.510714492">
        <ele>229.89</ele>
        <time>2013-11-11T08:57:47Z</time>
      </trkpt>
      <trkpt lat="41.649921362" lon="2.510825887">
        <ele>232.30</ele>
        <time>2013-11-11T08:57:57Z</time>
      </trkpt>
      <trkpt lat="41.650098556" lon="2.510861511">
        <ele>233.74</ele>
        <time>2013-11-11T08:58:05Z</time>
      </trkpt>
      <trkpt lat="41.650347750" lon="2.510944408">
        <ele>235.66</ele>
        <time>2013-11-11T08:58:15Z</time>
      </trkpt>
      <trkpt lat="41.650513795" lon="2.511100730">
        <ele>236.62</ele>
        <time>2013-11-11T08:58:23Z</time>
      </trkpt>
      <trkpt lat="41.650732647" lon="2.511273481">
        <ele>238.06</ele>
        <time>2013-11-11T08:58:33Z</time>
      </trkpt>
      <trkpt lat="41.650903135" lon="2.511262668">
        <ele>239.02</ele>
        <time>2013-11-11T08:58:40Z</time>
      </trkpt>
      <trkpt lat="41.651122573" lon="2.511121769">
        <ele>239.99</ele>
        <time>2013-11-11T08:58:49Z</time>
      </trkpt>
      <trkpt lat="41.651297000" lon="2.510977181">
        <ele>241.43</ele>
        <time>2013-11-11T08:58:57Z</time>
      </trkpt>
      <trkpt lat="41.651425495" lon="2.510997381">
        <ele>242.39</ele>
        <time>2013-11-11T08:59:03Z</time>
      </trkpt>
      <trkpt lat="41.651611741" lon="2.511071142">
        <ele>243.35</ele>
        <time>2013-11-11T08:59:11Z</time>
      </trkpt>
      <trkpt lat="41.651790778" lon="2.511095449">
        <ele>243.83</ele>
        <time>2013-11-11T08:59:19Z</time>
      </trkpt>
      <trkpt lat="41.651960512" lon="2.511114476">
        <ele>244.79</ele>
        <time>2013-11-11T08:59:27Z</time>
      </trkpt>
      <trkpt lat="41.652092778" lon="2.511177424">
        <ele>245.27</ele>
        <time>2013-11-11T08:59:34Z</time>
      </trkpt>
      <trkpt lat="41.652312384" lon="2.511249341">
        <ele>246.23</ele>
        <time>2013-11-11T08:59:44Z</time>
      </trkpt>
      <trkpt lat="41.652406764" lon="2.511269709">
        <ele>246.72</ele>
        <time>2013-11-11T08:59:49Z</time>
      </trkpt>
      <trkpt lat="41.652596614" lon="2.511380434">
        <ele>246.72</ele>
        <time>2013-11-11T08:59:57Z</time>
      </trkpt>
      <trkpt lat="41.652860225" lon="2.511512449">
        <ele>247.20</ele>
        <time>2013-11-11T09:00:05Z</time>
      </trkpt>
      <trkpt lat="41.653139929" lon="2.511582103">
        <ele>247.20</ele>
        <time>2013-11-11T09:00:13Z</time>
      </trkpt>
      <trkpt lat="41.653357021" lon="2.511523932">
        <ele>247.20</ele>
        <time>2013-11-11T09:00:20Z</time>
      </trkpt>
      <trkpt lat="41.653555755" lon="2.511477832">
        <ele>248.16</ele>
        <time>2013-11-11T09:00:27Z</time>
      </trkpt>
      <trkpt lat="41.653688441" lon="2.511431229">
        <ele>248.16</ele>
        <time>2013-11-11T09:00:32Z</time>
      </trkpt>
      <trkpt lat="41.653926319" lon="2.511318743">
        <ele>248.64</ele>
        <time>2013-11-11T09:00:40Z</time>
      </trkpt>
      <trkpt lat="41.654114912" lon="2.511208940">
        <ele>249.60</ele>
        <time>2013-11-11T09:00:47Z</time>
      </trkpt>
      <trkpt lat="41.654361675" lon="2.511118164">
        <ele>251.04</ele>
        <time>2013-11-11T09:00:56Z</time>
      </trkpt>
      <trkpt lat="41.654527050" lon="2.511160158">
        <ele>252.00</ele>
        <time>2013-11-11T09:01:02Z</time>
      </trkpt>
      <trkpt lat="41.654664430" lon="2.511231739">
        <ele>253.93</ele>
        <time>2013-11-11T09:01:08Z</time>
      </trkpt>
      <trkpt lat="41.654811784" lon="2.511270883">
        <ele>256.33</ele>
        <time>2013-11-11T09:01:14Z</time>
      </trkpt>
      <trkpt lat="41.654959557" lon="2.511314133">
        <ele>257.77</ele>
        <time>2013-11-11T09:01:21Z</time>
      </trkpt>
      <trkpt lat="41.655108922" lon="2.511434833">
        <ele>259.69</ele>
        <time>2013-11-11T09:01:29Z</time>
      </trkpt>
      <trkpt lat="41.655258539" lon="2.511581265">
        <ele>262.10</ele>
        <time>2013-11-11T09:01:37Z</time>
      </trkpt>
      <trkpt lat="41.655453502" lon="2.511689391">
        <ele>264.98</ele>
        <time>2013-11-11T09:01:47Z</time>
      </trkpt>
      <trkpt lat="41.655599766" lon="2.511750998">
        <ele>267.38</ele>
        <time>2013-11-11T09:01:55Z</time>
      </trkpt>
      <trkpt lat="41.655664726" lon="2.511777988">
        <ele>268.83</ele>
        <time>2013-11-11T09:01:59Z</time>
      </trkpt>
      <trkpt lat="41.655805961" lon="2.511928443">
        <ele>270.27</ele>
        <time>2013-11-11T09:02:08Z</time>
      </trkpt>
      <trkpt lat="41.655887769" lon="2.512025086">
        <ele>271.71</ele>
        <time>2013-11-11T09:02:15Z</time>
      </trkpt>
      <trkpt lat="41.655968486" lon="2.512152994">
        <ele>273.15</ele>
        <time>2013-11-11T09:02:23Z</time>
      </trkpt>
      <trkpt lat="41.656035793" lon="2.512269419">
        <ele>274.11</ele>
        <time>2013-11-11T09:02:31Z</time>
      </trkpt>
      <trkpt lat="41.656072841" lon="2.512329517">
        <ele>275.07</ele>
        <time>2013-11-11T09:02:35Z</time>
      </trkpt>
      <trkpt lat="41.656087845" lon="2.512371007">
        <ele>275.07</ele>
        <time>2013-11-11T09:02:38Z</time>
      </trkpt>
      <trkpt lat="41.656115589" lon="2.512401853">
        <ele>275.56</ele>
        <time>2013-11-11T09:02:42Z</time>
      </trkpt>
      <trkpt lat="41.656096813" lon="2.512280651">
        <ele>275.07</ele>
        <time>2013-11-11T09:02:49Z</time>
      </trkpt>
      <trkpt lat="41.656103100" lon="2.512246788">
        <ele>275.07</ele>
        <time>2013-11-11T09:02:52Z</time>
      </trkpt>
      <trkpt lat="41.656065381" lon="2.512297414">
        <ele>275.07</ele>
        <time>2013-11-11T09:02:57Z</time>
      </trkpt>
      <trkpt lat="41.656087509" lon="2.512336306">
        <ele>275.07</ele>
        <time>2013-11-11T09:02:59Z</time>
      </trkpt>
      <trkpt lat="41.656232349" lon="2.512473099">
        <ele>276.04</ele>
        <time>2013-11-11T09:03:09Z</time>
      </trkpt>
      <trkpt lat="41.656257997" lon="2.512491623">
        <ele>276.52</ele>
        <time>2013-11-11T09:03:11Z</time>
      </trkpt>
      <trkpt lat="41.656375428" lon="2.512557756">
        <ele>277.48</ele>
        <time>2013-11-11T09:03:19Z</time>
      </trkpt>
      <trkpt lat="41.656501911" lon="2.512656076">
        <ele>279.40</ele>
        <time>2013-11-11T09:03:27Z</time>
      </trkpt>
      <trkpt lat="41.656528314" lon="2.512680216">
        <ele>279.88</ele>
        <time>2013-11-11T09:03:29Z</time>
      </trkpt>
      <trkpt lat="41.656618922" lon="2.512823966">
        <ele>281.32</ele>
        <time>2013-11-11T09:03:37Z</time>
      </trkpt>
      <trkpt lat="41.656613893" lon="2.512982467">
        <ele>283.73</ele>
        <time>2013-11-11T09:03:46Z</time>
      </trkpt>
      <trkpt lat="41.656587993" lon="2.513057653">
        <ele>284.69</ele>
        <time>2013-11-11T09:03:50Z</time>
      </trkpt>
      <trkpt lat="41.656575588" lon="2.513210790">
        <ele>286.61</ele>
        <time>2013-11-11T09:03:57Z</time>
      </trkpt>
      <trkpt lat="41.656612552" lon="2.513297878">
        <ele>288.05</ele>
        <time>2013-11-11T09:04:02Z</time>
      </trkpt>
      <trkpt lat="41.656730737" lon="2.513284886">
        <ele>289.49</ele>
        <time>2013-11-11T09:04:11Z</time>
      </trkpt>
      <trkpt lat="41.656744148" lon="2.513280947">
        <ele>289.49</ele>
        <time>2013-11-11T09:04:12Z</time>
      </trkpt>
      <trkpt lat="41.656831990" lon="2.513165444">
        <ele>291.42</ele>
        <time>2013-11-11T09:04:21Z</time>
      </trkpt>
      <trkpt lat="41.656885299" lon="2.513009457">
        <ele>293.82</ele>
        <time>2013-11-11T09:04:29Z</time>
      </trkpt>
      <trkpt lat="41.656902146" lon="2.512952544">
        <ele>294.30</ele>
        <time>2013-11-11T09:04:32Z</time>
      </trkpt>
      <trkpt lat="41.656901224" lon="2.512836622">
        <ele>295.74</ele>
        <time>2013-11-11T09:04:38Z</time>
      </trkpt>
      <trkpt lat="41.656906002" lon="2.512632523">
        <ele>297.18</ele>
        <time>2013-11-11T09:04:48Z</time>
      </trkpt>
      <trkpt lat="41.656908181" lon="2.512613747">
        <ele>297.67</ele>
        <time>2013-11-11T09:04:49Z</time>
      </trkpt>
      <trkpt lat="41.656920587" lon="2.512421383">
        <ele>300.07</ele>
        <time>2013-11-11T09:04:59Z</time>
      </trkpt>
      <trkpt lat="41.656916815" lon="2.512355250">
        <ele>301.03</ele>
        <time>2013-11-11T09:05:03Z</time>
      </trkpt>
      <trkpt lat="41.656920084" lon="2.512253996">
        <ele>303.43</ele>
        <time>2013-11-11T09:05:09Z</time>
      </trkpt>
      <trkpt lat="41.656939949" lon="2.512230192">
        <ele>303.91</ele>
        <time>2013-11-11T09:05:11Z</time>
      </trkpt>
      <trkpt lat="41.656997449" lon="2.512318956">
        <ele>305.84</ele>
        <time>2013-11-11T09:05:19Z</time>
      </trkpt>
      <trkpt lat="41.657034497" lon="2.512482152">
        <ele>307.28</ele>
        <time>2013-11-11T09:05:28Z</time>
      </trkpt>
      <trkpt lat="41.657037263" lon="2.512500005">
        <ele>307.76</ele>
        <time>2013-11-11T09:05:29Z</time>
      </trkpt>
      <trkpt lat="41.657083782" lon="2.512696644">
        <ele>309.68</ele>
        <time>2013-11-11T09:05:39Z</time>
      </trkpt>
      <trkpt lat="41.657132146" lon="2.512885237">
        <ele>310.64</ele>
        <time>2013-11-11T09:05:48Z</time>
      </trkpt>
      <trkpt lat="41.657198614" lon="2.513137533">
        <ele>312.09</ele>
        <time>2013-11-11T09:05:59Z</time>
      </trkpt>
      <trkpt lat="41.657289139" lon="2.513391839">
        <ele>313.05</ele>
        <time>2013-11-11T09:06:09Z</time>
      </trkpt>
      <trkpt lat="41.657386788" lon="2.513609266">
        <ele>314.49</ele>
        <time>2013-11-11T09:06:19Z</time>
      </trkpt>
      <trkpt lat="41.657513187" lon="2.513801128">
        <ele>315.93</ele>
        <time>2013-11-11T09:06:29Z</time>
      </trkpt>
      <trkpt lat="41.657632629" lon="2.513958959">
        <ele>317.85</ele>
        <time>2013-11-11T09:06:38Z</time>
      </trkpt>
      <trkpt lat="41.657750730" lon="2.514056021">
        <ele>319.30</ele>
        <time>2013-11-11T09:06:46Z</time>
      </trkpt>
      <trkpt lat="41.657924152" lon="2.514047807">
        <ele>321.22</ele>
        <time>2013-11-11T09:06:56Z</time>
      </trkpt>
      <trkpt lat="41.657987100" lon="2.514027523">
        <ele>321.70</ele>
        <time>2013-11-11T09:07:00Z</time>
      </trkpt>
      <trkpt lat="41.658146608" lon="2.513963569">
        <ele>324.58</ele>
        <time>2013-11-11T09:07:10Z</time>
      </trkpt>
      <trkpt lat="41.658161863" lon="2.513962144">
        <ele>324.58</ele>
        <time>2013-11-11T09:07:11Z</time>
      </trkpt>
      <trkpt lat="41.658291363" lon="2.513930461">
        <ele>326.50</ele>
        <time>2013-11-11T09:07:20Z</time>
      </trkpt>
      <trkpt lat="41.658417930" lon="2.513919564">
        <ele>328.43</ele>
        <time>2013-11-11T09:07:28Z</time>
      </trkpt>
      <trkpt lat="41.658544664" lon="2.513926437">
        <ele>330.83</ele>
        <time>2013-11-11T09:07:37Z</time>
      </trkpt>
      <trkpt lat="41.658569391" lon="2.513934149">
        <ele>331.79</ele>
        <time>2013-11-11T09:07:39Z</time>
      </trkpt>
      <trkpt lat="41.658712889" lon="2.513974885">
        <ele>333.71</ele>
        <time>2013-11-11T09:07:49Z</time>
      </trkpt>
      <trkpt lat="41.658854376" lon="2.514009502">
        <ele>336.12</ele>
        <time>2013-11-11T09:07:58Z</time>
      </trkpt>
      <trkpt lat="41.659012794" lon="2.514072115">
        <ele>338.52</ele>
        <time>2013-11-11T09:08:08Z</time>
      </trkpt>
      <trkpt lat="41.659163333" lon="2.514135314">
        <ele>340.92</ele>
        <time>2013-11-11T09:08:18Z</time>
      </trkpt>
      <trkpt lat="41.659282858" lon="2.514255008">
        <ele>342.37</ele>
        <time>2013-11-11T09:08:26Z</time>
      </trkpt>
      <trkpt lat="41.659409844" lon="2.514411749">
        <ele>344.29</ele>
        <time>2013-11-11T09:08:36Z</time>
      </trkpt>
      <trkpt lat="41.659429961" lon="2.514444690">
        <ele>345.25</ele>
        <time>2013-11-11T09:08:38Z</time>
      </trkpt>
      <trkpt lat="41.659512942" lon="2.514536975">
        <ele>346.21</ele>
        <time>2013-11-11T09:08:45Z</time>
      </trkpt>
      <trkpt lat="41.659629450" lon="2.514628925">
        <ele>347.65</ele>
        <time>2013-11-11T09:08:54Z</time>
      </trkpt>
      <trkpt lat="41.659635820" lon="2.514685838">
        <ele>347.65</ele>
        <time>2013-11-11T09:08:57Z</time>
      </trkpt>
      <trkpt lat="41.659573962" lon="2.514935115">
        <ele>348.13</ele>
        <time>2013-11-11T09:09:07Z</time>
      </trkpt>
      <trkpt lat="41.659496262" lon="2.515198726">
        <ele>349.10</ele>
        <time>2013-11-11T09:09:17Z</time>
      </trkpt>
      <trkpt lat="41.659473798" lon="2.515496787">
        <ele>350.06</ele>
        <time>2013-11-11T09:09:25Z</time>
      </trkpt>
      <trkpt lat="41.659383441" lon="2.515810605">
        <ele>350.06</ele>
        <time>2013-11-11T09:09:33Z</time>
      </trkpt>
      <trkpt lat="41.659303646" lon="2.516024344">
        <ele>348.62</ele>
        <time>2013-11-11T09:09:37Z</time>
      </trkpt>
      <trkpt lat="41.659073730" lon="2.516514937">
        <ele>347.65</ele>
        <time>2013-11-11T09:09:46Z</time>
      </trkpt>
      <trkpt lat="41.659034000" lon="2.516777542">
        <ele>347.65</ele>
        <time>2013-11-11T09:09:52Z</time>
      </trkpt>
      <trkpt lat="41.659103570" lon="2.517016677">
        <ele>348.62</ele>
        <time>2013-11-11T09:09:59Z</time>
      </trkpt>
      <trkpt lat="41.659106252" lon="2.517240977">
        <ele>350.54</ele>
        <time>2013-11-11T09:10:06Z</time>
      </trkpt>
      <trkpt lat="41.659066857" lon="2.517489500">
        <ele>352.46</ele>
        <time>2013-11-11T09:10:15Z</time>
      </trkpt>
      <trkpt lat="41.659035341" lon="2.517702485">
        <ele>354.86</ele>
        <time>2013-11-11T09:10:23Z</time>
      </trkpt>
      <trkpt lat="41.659005501" lon="2.517967269">
        <ele>356.79</ele>
        <time>2013-11-11T09:10:33Z</time>
      </trkpt>
      <trkpt lat="41.658988402" lon="2.518140104">
        <ele>358.23</ele>
        <time>2013-11-11T09:10:40Z</time>
      </trkpt>
      <trkpt lat="41.658950935" lon="2.518397512">
        <ele>359.67</ele>
        <time>2013-11-11T09:10:50Z</time>
      </trkpt>
      <trkpt lat="41.658881281" lon="2.518603036">
        <ele>361.59</ele>
        <time>2013-11-11T09:10:58Z</time>
      </trkpt>
      <trkpt lat="41.658819088" lon="2.518796155">
        <ele>363.04</ele>
        <time>2013-11-11T09:11:06Z</time>
      </trkpt>
      <trkpt lat="41.658725546" lon="2.519056916">
        <ele>364.96</ele>
        <time>2013-11-11T09:11:16Z</time>
      </trkpt>
      <trkpt lat="41.658670560" lon="2.519266799">
        <ele>366.88</ele>
        <time>2013-11-11T09:11:24Z</time>
      </trkpt>
      <trkpt lat="41.658620437" lon="2.519573242">
        <ele>368.80</ele>
        <time>2013-11-11T09:11:34Z</time>
      </trkpt>
      <trkpt lat="41.658544664" lon="2.519829895">
        <ele>369.76</ele>
        <time>2013-11-11T09:11:43Z</time>
      </trkpt>
      <trkpt lat="41.658440226" lon="2.520010525">
        <ele>371.21</ele>
        <time>2013-11-11T09:11:53Z</time>
      </trkpt>
      <trkpt lat="41.658393539" lon="2.520203980">
        <ele>371.21</ele>
        <time>2013-11-11T09:12:01Z</time>
      </trkpt>
      <trkpt lat="41.658371578" lon="2.520470021">
        <ele>371.21</ele>
        <time>2013-11-11T09:12:07Z</time>
      </trkpt>
      <trkpt lat="41.658368477" lon="2.520797335">
        <ele>370.24</ele>
        <time>2013-11-11T09:12:14Z</time>
      </trkpt>
      <trkpt lat="41.658303014" lon="2.521021299">
        <ele>368.80</ele>
        <time>2013-11-11T09:12:18Z</time>
      </trkpt>
      <trkpt lat="41.658281724" lon="2.521150045">
        <ele>367.36</ele>
        <time>2013-11-11T09:12:20Z</time>
      </trkpt>
      <trkpt lat="41.658269822" lon="2.521300836">
        <ele>366.40</ele>
        <time>2013-11-11T09:12:22Z</time>
      </trkpt>
      <trkpt lat="41.658230846" lon="2.521740802">
        <ele>362.55</ele>
        <time>2013-11-11T09:12:27Z</time>
      </trkpt>
      <trkpt lat="41.658222464" lon="2.521950182">
        <ele>362.07</ele>
        <time>2013-11-11T09:12:29Z</time>
      </trkpt>
      <trkpt lat="41.658218943" lon="2.522263162">
        <ele>360.15</ele>
        <time>2013-11-11T09:12:32Z</time>
      </trkpt>
      <trkpt lat="41.658280634" lon="2.522632972">
        <ele>359.19</ele>
        <time>2013-11-11T09:12:36Z</time>
      </trkpt>
      <trkpt lat="41.658460007" lon="2.523245772">
        <ele>355.83</ele>
        <time>2013-11-11T09:12:43Z</time>
      </trkpt>
      <trkpt lat="41.658488338" lon="2.523620108">
        <ele>352.94</ele>
        <time>2013-11-11T09:12:48Z</time>
      </trkpt>
      <trkpt lat="41.658624376" lon="2.523989918">
        <ele>350.06</ele>
        <time>2013-11-11T09:12:54Z</time>
      </trkpt>
      <trkpt lat="41.658778436" lon="2.524122855">
        <ele>348.62</ele>
        <time>2013-11-11T09:12:57Z</time>
      </trkpt>
      <trkpt lat="41.658966358" lon="2.524339108">
        <ele>346.69</ele>
        <time>2013-11-11T09:13:01Z</time>
      </trkpt>
      <trkpt lat="41.659153693" lon="2.524703469">
        <ele>343.33</ele>
        <time>2013-11-11T09:13:07Z</time>
      </trkpt>
      <trkpt lat="41.659180432" lon="2.524761975">
        <ele>343.33</ele>
        <time>2013-11-11T09:13:08Z</time>
      </trkpt>
      <trkpt lat="41.659275818" lon="2.525040925">
        <ele>340.44</ele>
        <time>2013-11-11T09:13:13Z</time>
      </trkpt>
      <trkpt lat="41.659286044" lon="2.525083169">
        <ele>340.44</ele>
        <time>2013-11-11T09:13:14Z</time>
      </trkpt>
      <trkpt lat="41.659375730" lon="2.525267655">
        <ele>339.00</ele>
        <time>2013-11-11T09:13:21Z</time>
      </trkpt>
      <trkpt lat="41.659382519" lon="2.525280731">
        <ele>339.48</ele>
        <time>2013-11-11T09:13:22Z</time>
      </trkpt>
      <trkpt lat="41.659418142" lon="2.525332363">
        <ele>339.00</ele>
        <time>2013-11-11T09:13:29Z</time>
      </trkpt>
      <trkpt lat="41.659538926" lon="2.525478041">
        <ele>337.08</ele>
        <time>2013-11-11T09:13:38Z</time>
      </trkpt>
      <trkpt lat="41.659621487" lon="2.525595220">
        <ele>336.60</ele>
        <time>2013-11-11T09:13:44Z</time>
      </trkpt>
      <trkpt lat="41.659653674" lon="2.525733018">
        <ele>336.12</ele>
        <time>2013-11-11T09:13:51Z</time>
      </trkpt>
      <trkpt lat="41.659630791" lon="2.525786411">
        <ele>335.64</ele>
        <time>2013-11-11T09:13:59Z</time>
      </trkpt>
      <trkpt lat="41.659652417" lon="2.525815580">
        <ele>335.16</ele>
        <time>2013-11-11T09:14:12Z</time>
      </trkpt>
      <trkpt lat="41.659683765" lon="2.525811557">
        <ele>335.16</ele>
        <time>2013-11-11T09:14:20Z</time>
      </trkpt>
      <trkpt lat="41.659683597" lon="2.525775850">
        <ele>335.16</ele>
        <time>2013-11-11T09:14:27Z</time>
      </trkpt>
      <trkpt lat="41.659680664" lon="2.525695719">
        <ele>336.12</ele>
        <time>2013-11-11T09:14:34Z</time>
      </trkpt>
      <trkpt lat="41.659632384" lon="2.525568314">
        <ele>336.60</ele>
        <time>2013-11-11T09:14:43Z</time>
      </trkpt>
      <trkpt lat="41.659536746" lon="2.525461948">
        <ele>338.04</ele>
        <time>2013-11-11T09:14:53Z</time>
      </trkpt>
      <trkpt lat="41.659500369" lon="2.525392713">
        <ele>339.00</ele>
        <time>2013-11-11T09:14:58Z</time>
      </trkpt>
      <trkpt lat="41.659472876" lon="2.525319958">
        <ele>339.00</ele>
        <time>2013-11-11T09:15:02Z</time>
      </trkpt>
      <trkpt lat="41.659442869" lon="2.525305541">
        <ele>339.00</ele>
        <time>2013-11-11T09:15:05Z</time>
      </trkpt>
      <trkpt lat="41.659430045" lon="2.525375866">
        <ele>339.48</ele>
        <time>2013-11-11T09:15:10Z</time>
      </trkpt>
      <trkpt lat="41.659392410" lon="2.525533613">
        <ele>342.85</ele>
        <time>2013-11-11T09:15:20Z</time>
      </trkpt>
      <trkpt lat="41.659406659" lon="2.525703766">
        <ele>344.77</ele>
        <time>2013-11-11T09:15:30Z</time>
      </trkpt>
      <trkpt lat="41.659407330" lon="2.525716758">
        <ele>344.77</ele>
        <time>2013-11-11T09:15:31Z</time>
      </trkpt>
      <trkpt lat="41.659380927" lon="2.525881127">
        <ele>347.17</ele>
        <time>2013-11-11T09:15:41Z</time>
      </trkpt>
      <trkpt lat="41.659312195" lon="2.526006101">
        <ele>348.13</ele>
        <time>2013-11-11T09:15:50Z</time>
      </trkpt>
      <trkpt lat="41.659249498" lon="2.526162842">
        <ele>349.58</ele>
        <time>2013-11-11T09:15:58Z</time>
      </trkpt>
      <trkpt lat="41.659232567" lon="2.526389238">
        <ele>350.54</ele>
        <time>2013-11-11T09:16:07Z</time>
      </trkpt>
      <trkpt lat="41.659218737" lon="2.526568359">
        <ele>351.02</ele>
        <time>2013-11-11T09:16:15Z</time>
      </trkpt>
      <trkpt lat="41.659282188" lon="2.526747229">
        <ele>351.98</ele>
        <time>2013-11-11T09:16:24Z</time>
      </trkpt>
      <trkpt lat="41.659307082" lon="2.526803387">
        <ele>352.46</ele>
        <time>2013-11-11T09:16:27Z</time>
      </trkpt>
      <trkpt lat="41.659276488" lon="2.526933978">
        <ele>353.42</ele>
        <time>2013-11-11T09:16:35Z</time>
      </trkpt>
      <trkpt lat="41.659190993" lon="2.527107734">
        <ele>354.86</ele>
        <time>2013-11-11T09:16:45Z</time>
      </trkpt>
      <trkpt lat="41.659108431" lon="2.527274870">
        <ele>356.31</ele>
        <time>2013-11-11T09:16:55Z</time>
      </trkpt>
      <trkpt lat="41.659045148" lon="2.527432617">
        <ele>357.75</ele>
        <time>2013-11-11T09:17:04Z</time>
      </trkpt>
      <trkpt lat="41.658961832" lon="2.527526578">
        <ele>359.19</ele>
        <time>2013-11-11T09:17:13Z</time>
      </trkpt>
      <trkpt lat="41.658943559" lon="2.527544432">
        <ele>360.15</ele>
        <time>2013-11-11T09:17:15Z</time>
      </trkpt>
      <trkpt lat="41.658911708" lon="2.527617941">
        <ele>361.11</ele>
        <time>2013-11-11T09:17:20Z</time>
      </trkpt>
      <trkpt lat="41.658868541" lon="2.527795302">
        <ele>364.00</ele>
        <time>2013-11-11T09:17:29Z</time>
      </trkpt>
      <trkpt lat="41.658866110" lon="2.527818101">
        <ele>364.00</ele>
        <time>2013-11-11T09:17:30Z</time>
      </trkpt>
      <trkpt lat="41.658844485" lon="2.527969981">
        <ele>364.96</ele>
        <time>2013-11-11T09:17:38Z</time>
      </trkpt>
      <trkpt lat="41.658826548" lon="2.528060338">
        <ele>365.92</ele>
        <time>2013-11-11T09:17:43Z</time>
      </trkpt>
      <trkpt lat="41.658818836" lon="2.528158238">
        <ele>366.88</ele>
        <time>2013-11-11T09:17:48Z</time>
      </trkpt>
      <trkpt lat="41.658797127" lon="2.528337695">
        <ele>368.32</ele>
        <time>2013-11-11T09:17:58Z</time>
      </trkpt>
      <trkpt lat="41.658763348" lon="2.528465938">
        <ele>369.76</ele>
        <time>2013-11-11T09:18:06Z</time>
      </trkpt>
      <trkpt lat="41.658761756" lon="2.528499214">
        <ele>369.76</ele>
        <time>2013-11-11T09:18:08Z</time>
      </trkpt>
      <trkpt lat="41.658738202" lon="2.528666349">
        <ele>371.69</ele>
        <time>2013-11-11T09:18:18Z</time>
      </trkpt>
      <trkpt lat="41.658723366" lon="2.528723849">
        <ele>371.69</ele>
        <time>2013-11-11T09:18:21Z</time>
      </trkpt>
      <trkpt lat="41.658668213" lon="2.528882099">
        <ele>372.65</ele>
        <time>2013-11-11T09:18:30Z</time>
      </trkpt>
      <trkpt lat="41.658628399" lon="2.529016042">
        <ele>373.61</ele>
        <time>2013-11-11T09:18:38Z</time>
      </trkpt>
      <trkpt lat="41.658628232" lon="2.529185021">
        <ele>375.53</ele>
        <time>2013-11-11T09:18:48Z</time>
      </trkpt>
      <trkpt lat="41.658571989" lon="2.529315025">
        <ele>376.49</ele>
        <time>2013-11-11T09:18:57Z</time>
      </trkpt>
      <trkpt lat="41.658501749" lon="2.529497918">
        <ele>379.38</ele>
        <time>2013-11-11T09:19:08Z</time>
      </trkpt>
      <trkpt lat="41.658487835" lon="2.529537648">
        <ele>379.86</ele>
        <time>2013-11-11T09:19:11Z</time>
      </trkpt>
      <trkpt lat="41.658398987" lon="2.529622305">
        <ele>380.82</ele>
        <time>2013-11-11T09:19:20Z</time>
      </trkpt>
      <trkpt lat="41.658351378" lon="2.529660108">
        <ele>382.26</ele>
        <time>2013-11-11T09:19:25Z</time>
      </trkpt>
      <trkpt lat="41.658224559" lon="2.529692210">
        <ele>383.22</ele>
        <time>2013-11-11T09:19:34Z</time>
      </trkpt>
      <trkpt lat="41.658175274" lon="2.529624317">
        <ele>383.22</ele>
        <time>2013-11-11T09:19:39Z</time>
      </trkpt>
      <trkpt lat="41.658102184" lon="2.529451734">
        <ele>384.66</ele>
        <time>2013-11-11T09:19:49Z</time>
      </trkpt>
      <trkpt lat="41.658029429" lon="2.529274708">
        <ele>385.63</ele>
        <time>2013-11-11T09:19:58Z</time>
      </trkpt>
      <trkpt lat="41.657985005" lon="2.529111428">
        <ele>387.07</ele>
        <time>2013-11-11T09:20:08Z</time>
      </trkpt>
      <trkpt lat="41.657973102" lon="2.529044373">
        <ele>388.03</ele>
        <time>2013-11-11T09:20:12Z</time>
      </trkpt>
      <trkpt lat="41.657904119" lon="2.528879836">
        <ele>390.43</ele>
        <time>2013-11-11T09:20:21Z</time>
      </trkpt>
      <trkpt lat="41.657845949" lon="2.528736925">
        <ele>391.87</ele>
        <time>2013-11-11T09:20:29Z</time>
      </trkpt>
      <trkpt lat="41.657780905" lon="2.528601054">
        <ele>393.32</ele>
        <time>2013-11-11T09:20:36Z</time>
      </trkpt>
      <trkpt lat="41.657660206" lon="2.528528718">
        <ele>394.28</ele>
        <time>2013-11-11T09:20:44Z</time>
      </trkpt>
      <trkpt lat="41.657553672" lon="2.528548164">
        <ele>395.72</ele>
        <time>2013-11-11T09:20:52Z</time>
      </trkpt>
      <trkpt lat="41.657461974" lon="2.528571466">
        <ele>396.20</ele>
        <time>2013-11-11T09:21:00Z</time>
      </trkpt>
      <trkpt lat="41.657440097" lon="2.528577250">
        <ele>396.68</ele>
        <time>2013-11-11T09:21:02Z</time>
      </trkpt>
      <trkpt lat="41.657403552" lon="2.528592002">
        <ele>397.16</ele>
        <time>2013-11-11T09:21:05Z</time>
      </trkpt>
      <trkpt lat="41.657291234" lon="2.528614130">
        <ele>399.57</ele>
        <time>2013-11-11T09:21:13Z</time>
      </trkpt>
      <trkpt lat="41.657230549" lon="2.528575406">
        <ele>401.01</ele>
        <time>2013-11-11T09:21:20Z</time>
      </trkpt>
      <trkpt lat="41.657228454" lon="2.528564006">
        <ele>401.49</ele>
        <time>2013-11-11T09:21:21Z</time>
      </trkpt>
      <trkpt lat="41.657279164" lon="2.528442972">
        <ele>403.41</ele>
        <time>2013-11-11T09:21:31Z</time>
      </trkpt>
      <trkpt lat="41.657358206" lon="2.528324032">
        <ele>404.85</ele>
        <time>2013-11-11T09:21:41Z</time>
      </trkpt>
      <trkpt lat="41.657437415" lon="2.528192269">
        <ele>406.77</ele>
        <time>2013-11-11T09:21:51Z</time>
      </trkpt>
      <trkpt lat="41.657526934" lon="2.528108785">
        <ele>407.74</ele>
        <time>2013-11-11T09:22:00Z</time>
      </trkpt>
      <trkpt lat="41.657630282" lon="2.528070480">
        <ele>409.18</ele>
        <time>2013-11-11T09:22:09Z</time>
      </trkpt>
      <trkpt lat="41.657719214" lon="2.528065954">
        <ele>410.14</ele>
        <time>2013-11-11T09:22:17Z</time>
      </trkpt>
      <trkpt lat="41.657747713" lon="2.528058326">
        <ele>410.14</ele>
        <time>2013-11-11T09:22:22Z</time>
      </trkpt>
      <trkpt lat="41.657804794" lon="2.528047681">
        <ele>411.10</ele>
        <time>2013-11-11T09:22:29Z</time>
      </trkpt>
      <trkpt lat="41.657839830" lon="2.527996216">
        <ele>411.58</ele>
        <time>2013-11-11T09:22:34Z</time>
      </trkpt>
      <trkpt lat="41.657753664" lon="2.527937794">
        <ele>412.54</ele>
        <time>2013-11-11T09:22:43Z</time>
      </trkpt>
      <trkpt lat="41.657604969" lon="2.527920695">
        <ele>413.02</ele>
        <time>2013-11-11T09:22:52Z</time>
      </trkpt>
      <trkpt lat="41.657475720" lon="2.527928993">
        <ele>413.98</ele>
        <time>2013-11-11T09:23:00Z</time>
      </trkpt>
      <trkpt lat="41.657343957" lon="2.528002167">
        <ele>414.95</ele>
        <time>2013-11-11T09:23:08Z</time>
      </trkpt>
      <trkpt lat="41.657158884" lon="2.528081879">
        <ele>414.95</ele>
        <time>2013-11-11T09:23:16Z</time>
      </trkpt>
      <trkpt lat="41.656963167" lon="2.528215151">
        <ele>415.43</ele>
        <time>2013-11-11T09:23:25Z</time>
      </trkpt>
      <trkpt lat="41.656818998" lon="2.528328307">
        <ele>415.43</ele>
        <time>2013-11-11T09:23:31Z</time>
      </trkpt>
      <trkpt lat="41.656740124" lon="2.528475996">
        <ele>415.43</ele>
        <time>2013-11-11T09:23:36Z</time>
      </trkpt>
      <trkpt lat="41.656701400" lon="2.528689902">
        <ele>415.91</ele>
        <time>2013-11-11T09:23:42Z</time>
      </trkpt>
      <trkpt lat="41.656613055" lon="2.528890398">
        <ele>417.35</ele>
        <time>2013-11-11T09:23:50Z</time>
      </trkpt>
      <trkpt lat="41.656471484" lon="2.528987795">
        <ele>418.79</ele>
        <time>2013-11-11T09:23:58Z</time>
      </trkpt>
      <trkpt lat="41.656314407" lon="2.529104639">
        <ele>421.19</ele>
        <time>2013-11-11T09:24:07Z</time>
      </trkpt>
      <trkpt lat="41.656190691" lon="2.529209245">
        <ele>423.12</ele>
        <time>2013-11-11T09:24:15Z</time>
      </trkpt>
      <trkpt lat="41.656041660" lon="2.529344278">
        <ele>426.00</ele>
        <time>2013-11-11T09:24:25Z</time>
      </trkpt>
      <trkpt lat="41.655883661" lon="2.529475538">
        <ele>427.44</ele>
        <time>2013-11-11T09:24:34Z</time>
      </trkpt>
      <trkpt lat="41.655743097" lon="2.529666813">
        <ele>428.89</ele>
        <time>2013-11-11T09:24:42Z</time>
      </trkpt>
      <trkpt lat="41.655593564" lon="2.529955737">
        <ele>429.85</ele>
        <time>2013-11-11T09:24:52Z</time>
      </trkpt>
      <trkpt lat="41.655451993" lon="2.530234939">
        <ele>430.33</ele>
        <time>2013-11-11T09:25:00Z</time>
      </trkpt>
      <trkpt lat="41.655353758" lon="2.530659817">
        <ele>427.92</ele>
        <time>2013-11-11T09:25:06Z</time>
      </trkpt>
      <trkpt lat="41.655287457" lon="2.531072961">
        <ele>426.96</ele>
        <time>2013-11-11T09:25:12Z</time>
      </trkpt>
      <trkpt lat="41.655188383" lon="2.531137753">
        <ele>426.00</ele>
        <time>2013-11-11T09:25:17Z</time>
      </trkpt>
      <trkpt lat="41.655008926" lon="2.531248562">
        <ele>424.08</ele>
        <time>2013-11-11T09:25:23Z</time>
      </trkpt>
      <trkpt lat="41.654874313" lon="2.531249987">
        <ele>423.60</ele>
        <time>2013-11-11T09:25:26Z</time>
      </trkpt>
      <trkpt lat="41.654628471" lon="2.531372111">
        <ele>421.68</ele>
        <time>2013-11-11T09:25:32Z</time>
      </trkpt>
      <trkpt lat="41.654436107" lon="2.531520303">
        <ele>418.31</ele>
        <time>2013-11-11T09:25:38Z</time>
      </trkpt>
      <trkpt lat="41.654400819" lon="2.531546539">
        <ele>418.31</ele>
        <time>2013-11-11T09:25:39Z</time>
      </trkpt>
      <trkpt lat="41.654361173" lon="2.531577384">
        <ele>417.35</ele>
        <time>2013-11-11T09:25:40Z</time>
      </trkpt>
      <trkpt lat="41.654173586" lon="2.531667825">
        <ele>414.95</ele>
        <time>2013-11-11T09:25:44Z</time>
      </trkpt>
      <trkpt lat="41.654029836" lon="2.531775532">
        <ele>412.54</ele>
        <time>2013-11-11T09:25:48Z</time>
      </trkpt>
      <trkpt lat="41.653913076" lon="2.531816771">
        <ele>409.18</ele>
        <time>2013-11-11T09:25:52Z</time>
      </trkpt>
      <trkpt lat="41.653889104" lon="2.531816436">
        <ele>408.70</ele>
        <time>2013-11-11T09:25:53Z</time>
      </trkpt>
      <trkpt lat="41.653707133" lon="2.531806126">
        <ele>405.33</ele>
        <time>2013-11-11T09:25:59Z</time>
      </trkpt>
      <trkpt lat="41.653626750" lon="2.531806294">
        <ele>404.37</ele>
        <time>2013-11-11T09:26:01Z</time>
      </trkpt>
      <trkpt lat="41.653484845" lon="2.531802857">
        <ele>402.93</ele>
        <time>2013-11-11T09:26:04Z</time>
      </trkpt>
      <trkpt lat="41.653223413" lon="2.531826746">
        <ele>401.01</ele>
        <time>2013-11-11T09:26:10Z</time>
      </trkpt>
      <trkpt lat="41.653107743" lon="2.531878630">
        <ele>398.60</ele>
        <time>2013-11-11T09:26:16Z</time>
      </trkpt>
      <trkpt lat="41.652930717" lon="2.531993546">
        <ele>395.72</ele>
        <time>2013-11-11T09:26:23Z</time>
      </trkpt>
      <trkpt lat="41.652881683" lon="2.532039311">
        <ele>394.76</ele>
        <time>2013-11-11T09:26:25Z</time>
      </trkpt>
      <trkpt lat="41.652741537" lon="2.532163112">
        <ele>392.36</ele>
        <time>2013-11-11T09:26:30Z</time>
      </trkpt>
      <trkpt lat="41.652548083" lon="2.532296049">
        <ele>390.91</ele>
        <time>2013-11-11T09:26:37Z</time>
      </trkpt>
      <trkpt lat="41.652280617" lon="2.532423034">
        <ele>388.03</ele>
        <time>2013-11-11T09:26:43Z</time>
      </trkpt>
      <trkpt lat="41.652038463" lon="2.532429069">
        <ele>386.11</ele>
        <time>2013-11-11T09:26:49Z</time>
      </trkpt>
      <trkpt lat="41.651909047" lon="2.532474332">
        <ele>383.70</ele>
        <time>2013-11-11T09:26:53Z</time>
      </trkpt>
      <trkpt lat="41.651800417" lon="2.532598551">
        <ele>381.78</ele>
        <time>2013-11-11T09:26:59Z</time>
      </trkpt>
      <trkpt lat="41.651654405" lon="2.532724532">
        <ele>379.86</ele>
        <time>2013-11-11T09:27:05Z</time>
      </trkpt>
      <trkpt lat="41.651569580" lon="2.532818493">
        <ele>376.97</ele>
        <time>2013-11-11T09:27:10Z</time>
      </trkpt>
      <trkpt lat="41.651476541" lon="2.532846907">
        <ele>376.01</ele>
        <time>2013-11-11T09:27:15Z</time>
      </trkpt>
      <trkpt lat="41.651314183" lon="2.532832323">
        <ele>373.13</ele>
        <time>2013-11-11T09:27:20Z</time>
      </trkpt>
      <trkpt lat="41.651299850" lon="2.532650687">
        <ele>371.21</ele>
        <time>2013-11-11T09:27:26Z</time>
      </trkpt>
      <trkpt lat="41.651317452" lon="2.532622608">
        <ele>370.73</ele>
        <time>2013-11-11T09:27:27Z</time>
      </trkpt>
      <trkpt lat="41.651358859" lon="2.532557815">
        <ele>370.24</ele>
        <time>2013-11-11T09:27:29Z</time>
      </trkpt>
      <trkpt lat="41.651410910" lon="2.532332007">
        <ele>368.80</ele>
        <time>2013-11-11T09:27:33Z</time>
      </trkpt>
      <trkpt lat="41.651329941" lon="2.532019027">
        <ele>366.40</ele>
        <time>2013-11-11T09:27:39Z</time>
      </trkpt>
      <trkpt lat="41.651302281" lon="2.531922300">
        <ele>365.92</ele>
        <time>2013-11-11T09:27:41Z</time>
      </trkpt>
      <trkpt lat="41.651304460" lon="2.531758433">
        <ele>365.44</ele>
        <time>2013-11-11T09:27:44Z</time>
      </trkpt>
      <trkpt lat="41.651312758" lon="2.531348894">
        <ele>361.59</ele>
        <time>2013-11-11T09:27:52Z</time>
      </trkpt>
      <trkpt lat="41.651330947" lon="2.531075644">
        <ele>360.15</ele>
        <time>2013-11-11T09:27:57Z</time>
      </trkpt>
      <trkpt lat="41.651373862" lon="2.531002134">
        <ele>359.67</ele>
        <time>2013-11-11T09:27:59Z</time>
      </trkpt>
      <trkpt lat="41.651446366" lon="2.530936001">
        <ele>358.23</ele>
        <time>2013-11-11T09:28:02Z</time>
      </trkpt>
      <trkpt lat="41.651463046" lon="2.530842962">
        <ele>357.27</ele>
        <time>2013-11-11T09:28:08Z</time>
      </trkpt>
      <trkpt lat="41.651466818" lon="2.530809853">
        <ele>356.79</ele>
        <time>2013-11-11T09:28:27Z</time>
      </trkpt>
      <trkpt lat="41.651462208" lon="2.530794263">
        <ele>356.79</ele>
        <time>2013-11-11T09:28:36Z</time>
      </trkpt>
      <trkpt lat="41.651355171" lon="2.530802477">
        <ele>354.86</ele>
        <time>2013-11-11T09:28:43Z</time>
      </trkpt>
      <trkpt lat="41.651260958" lon="2.530858636">
        <ele>354.38</ele>
        <time>2013-11-11T09:28:47Z</time>
      </trkpt>
      <trkpt lat="41.651184431" lon="2.531060221">
        <ele>353.42</ele>
        <time>2013-11-11T09:28:53Z</time>
      </trkpt>
      <trkpt lat="41.651125171" lon="2.531358700">
        <ele>351.98</ele>
        <time>2013-11-11T09:28:59Z</time>
      </trkpt>
      <trkpt lat="41.651094996" lon="2.531480322">
        <ele>351.50</ele>
        <time>2013-11-11T09:29:01Z</time>
      </trkpt>
      <trkpt lat="41.650945463" lon="2.531823728">
        <ele>351.02</ele>
        <time>2013-11-11T09:29:08Z</time>
      </trkpt>
      <trkpt lat="41.650855190" lon="2.531863123">
        <ele>349.10</ele>
        <time>2013-11-11T09:29:13Z</time>
      </trkpt>
      <trkpt lat="41.650646481" lon="2.531874020">
        <ele>347.65</ele>
        <time>2013-11-11T09:29:18Z</time>
      </trkpt>
      <trkpt lat="41.650399215" lon="2.531899668">
        <ele>345.73</ele>
        <time>2013-11-11T09:29:22Z</time>
      </trkpt>
      <trkpt lat="41.650156810" lon="2.531925485">
        <ele>343.33</ele>
        <time>2013-11-11T09:29:26Z</time>
      </trkpt>
      <trkpt lat="41.649973749" lon="2.532001844">
        <ele>340.92</ele>
        <time>2013-11-11T09:29:31Z</time>
      </trkpt>
      <trkpt lat="41.649793119" lon="2.532106785">
        <ele>336.12</ele>
        <time>2013-11-11T09:29:37Z</time>
      </trkpt>
      <trkpt lat="41.649645179" lon="2.532181971">
        <ele>333.23</ele>
        <time>2013-11-11T09:29:43Z</time>
      </trkpt>
      <trkpt lat="41.649490532" lon="2.532279117">
        <ele>329.87</ele>
        <time>2013-11-11T09:29:48Z</time>
      </trkpt>
      <trkpt lat="41.649305544" lon="2.532365451">
        <ele>326.99</ele>
        <time>2013-11-11T09:29:54Z</time>
      </trkpt>
      <trkpt lat="41.649155256" lon="2.532385316">
        <ele>323.62</ele>
        <time>2013-11-11T09:29:59Z</time>
      </trkpt>
      <trkpt lat="41.649049560" lon="2.532431081">
        <ele>321.22</ele>
        <time>2013-11-11T09:30:03Z</time>
      </trkpt>
      <trkpt lat="41.648946798" lon="2.532457484">
        <ele>319.78</ele>
        <time>2013-11-11T09:30:10Z</time>
      </trkpt>
      <trkpt lat="41.648915534" lon="2.532472152">
        <ele>319.30</ele>
        <time>2013-11-11T09:30:24Z</time>
      </trkpt>
      <trkpt lat="41.648908661" lon="2.532475002">
        <ele>319.30</ele>
        <time>2013-11-11T09:30:30Z</time>
      </trkpt>
      <trkpt lat="41.648813861" lon="2.532441307">
        <ele>317.85</ele>
        <time>2013-11-11T09:30:38Z</time>
      </trkpt>
      <trkpt lat="41.648670112" lon="2.532383137">
        <ele>315.45</ele>
        <time>2013-11-11T09:30:43Z</time>
      </trkpt>
      <trkpt lat="41.648578665" lon="2.532242153">
        <ele>313.53</ele>
        <time>2013-11-11T09:30:47Z</time>
      </trkpt>
      <trkpt lat="41.648384037" lon="2.532248272">
        <ele>309.68</ele>
        <time>2013-11-11T09:30:53Z</time>
      </trkpt>
      <trkpt lat="41.648247831" lon="2.532434518">
        <ele>307.28</ele>
        <time>2013-11-11T09:30:58Z</time>
      </trkpt>
      <trkpt lat="41.648169042" lon="2.532447929">
        <ele>306.32</ele>
        <time>2013-11-11T09:31:01Z</time>
      </trkpt>
      <trkpt lat="41.648172227" lon="2.532297976">
        <ele>304.39</ele>
        <time>2013-11-11T09:31:04Z</time>
      </trkpt>
      <trkpt lat="41.648208185" lon="2.532160513">
        <ele>303.43</ele>
        <time>2013-11-11T09:31:06Z</time>
      </trkpt>
      <trkpt lat="41.648223524" lon="2.532019194">
        <ele>302.95</ele>
        <time>2013-11-11T09:31:08Z</time>
      </trkpt>
      <trkpt lat="41.648248334" lon="2.531694731">
        <ele>299.11</ele>
        <time>2013-11-11T09:31:14Z</time>
      </trkpt>
      <trkpt lat="41.648150518" lon="2.531618791">
        <ele>296.22</ele>
        <time>2013-11-11T09:31:19Z</time>
      </trkpt>
      <trkpt lat="41.648129311" lon="2.531639746">
        <ele>296.22</ele>
        <time>2013-11-11T09:31:20Z</time>
      </trkpt>
      <trkpt lat="41.648075080" lon="2.531733371">
        <ele>295.26</ele>
        <time>2013-11-11T09:31:23Z</time>
      </trkpt>
      <trkpt lat="41.647943485" lon="2.532028498">
        <ele>293.34</ele>
        <time>2013-11-11T09:31:28Z</time>
      </trkpt>
      <trkpt lat="41.647878525" lon="2.532282638">
        <ele>292.86</ele>
        <time>2013-11-11T09:31:32Z</time>
      </trkpt>
      <trkpt lat="41.647759334" lon="2.532603832">
        <ele>288.53</ele>
        <time>2013-11-11T09:31:38Z</time>
      </trkpt>
      <trkpt lat="41.647708456" lon="2.532778846">
        <ele>285.65</ele>
        <time>2013-11-11T09:31:41Z</time>
      </trkpt>
      <trkpt lat="41.647672162" lon="2.533096269">
        <ele>281.80</ele>
        <time>2013-11-11T09:31:47Z</time>
      </trkpt>
      <trkpt lat="41.647665624" lon="2.533298943">
        <ele>278.92</ele>
        <time>2013-11-11T09:31:52Z</time>
      </trkpt>
      <trkpt lat="41.647668139" lon="2.533353761">
        <ele>277.96</ele>
        <time>2013-11-11T09:31:54Z</time>
      </trkpt>
      <trkpt lat="41.647642910" lon="2.533457445">
        <ele>276.04</ele>
        <time>2013-11-11T09:32:00Z</time>
      </trkpt>
      <trkpt lat="41.647651124" lon="2.533489129">
        <ele>276.04</ele>
        <time>2013-11-11T09:32:02Z</time>
      </trkpt>
      <trkpt lat="41.647714240" lon="2.533542857">
        <ele>277.48</ele>
        <time>2013-11-11T09:32:09Z</time>
      </trkpt>
      <trkpt lat="41.647726477" lon="2.533554759">
        <ele>277.48</ele>
        <time>2013-11-11T09:32:10Z</time>
      </trkpt>
      <trkpt lat="41.647803591" lon="2.533639500">
        <ele>278.92</ele>
        <time>2013-11-11T09:32:19Z</time>
      </trkpt>
      <trkpt lat="41.647856983" lon="2.533706974">
        <ele>279.88</ele>
        <time>2013-11-11T09:32:27Z</time>
      </trkpt>
      <trkpt lat="41.647908448" lon="2.533751901">
        <ele>280.36</ele>
        <time>2013-11-11T09:32:34Z</time>
      </trkpt>
      <trkpt lat="41.647980197" lon="2.533794314">
        <ele>280.84</ele>
        <time>2013-11-11T09:32:44Z</time>
      </trkpt>
      <trkpt lat="41.648022861" lon="2.533808563">
        <ele>281.32</ele>
        <time>2013-11-11T09:32:53Z</time>
      </trkpt>
      <trkpt lat="41.648050438" lon="2.533814598">
        <ele>281.32</ele>
        <time>2013-11-11T09:33:00Z</time>
      </trkpt>
      <trkpt lat="41.648061418" lon="2.533822309">
        <ele>281.32</ele>
        <time>2013-11-11T09:33:14Z</time>
      </trkpt>
      <trkpt lat="41.648072650" lon="2.533839408">
        <ele>281.32</ele>
        <time>2013-11-11T09:33:23Z</time>
      </trkpt>
      <trkpt lat="41.648071057" lon="2.533852568">
        <ele>281.32</ele>
        <time>2013-11-11T09:33:33Z</time>
      </trkpt>
      <trkpt lat="41.648122941" lon="2.533900010">
        <ele>281.80</ele>
        <time>2013-11-11T09:33:40Z</time>
      </trkpt>
      <trkpt lat="41.648194774" lon="2.533982823">
        <ele>282.77</ele>
        <time>2013-11-11T09:33:48Z</time>
      </trkpt>
      <trkpt lat="41.648287059" lon="2.534131853">
        <ele>283.25</ele>
        <time>2013-11-11T09:33:58Z</time>
      </trkpt>
      <trkpt lat="41.648379595" lon="2.534266634">
        <ele>284.21</ele>
        <time>2013-11-11T09:34:06Z</time>
      </trkpt>
      <trkpt lat="41.648442208" lon="2.534426393">
        <ele>284.69</ele>
        <time>2013-11-11T09:34:13Z</time>
      </trkpt>
      <trkpt lat="41.648447069" lon="2.534463357">
        <ele>284.69</ele>
        <time>2013-11-11T09:34:15Z</time>
      </trkpt>
      <trkpt lat="41.648453020" lon="2.534541980">
        <ele>285.17</ele>
        <time>2013-11-11T09:34:19Z</time>
      </trkpt>
      <trkpt lat="41.648540779" lon="2.534762340">
        <ele>284.21</ele>
        <time>2013-11-11T09:34:27Z</time>
      </trkpt>
      <trkpt lat="41.648651504" lon="2.534878848">
        <ele>284.21</ele>
        <time>2013-11-11T09:34:34Z</time>
      </trkpt>
      <trkpt lat="41.648707327" lon="2.534954202">
        <ele>284.21</ele>
        <time>2013-11-11T09:34:38Z</time>
      </trkpt>
      <trkpt lat="41.648782429" lon="2.534991082">
        <ele>285.65</ele>
        <time>2013-11-11T09:34:42Z</time>
      </trkpt>
      <trkpt lat="41.648889299" lon="2.535021341">
        <ele>287.09</ele>
        <time>2013-11-11T09:34:47Z</time>
      </trkpt>
      <trkpt lat="41.648948642" lon="2.535066184">
        <ele>288.53</ele>
        <time>2013-11-11T09:34:51Z</time>
      </trkpt>
      <trkpt lat="41.648979572" lon="2.535149500">
        <ele>289.97</ele>
        <time>2013-11-11T09:34:56Z</time>
      </trkpt>
      <trkpt lat="41.648925592" lon="2.535262237">
        <ele>293.82</ele>
        <time>2013-11-11T09:35:04Z</time>
      </trkpt>
      <trkpt lat="41.648877229" lon="2.535329292">
        <ele>294.30</ele>
        <time>2013-11-11T09:35:10Z</time>
      </trkpt>
      <trkpt lat="41.648826267" lon="2.535488213">
        <ele>296.22</ele>
        <time>2013-11-11T09:35:20Z</time>
      </trkpt>
      <trkpt lat="41.648834900" lon="2.535661467">
        <ele>298.63</ele>
        <time>2013-11-11T09:35:29Z</time>
      </trkpt>
      <trkpt lat="41.648873792" lon="2.535848467">
        <ele>299.59</ele>
        <time>2013-11-11T09:35:39Z</time>
      </trkpt>
      <trkpt lat="41.648905140" lon="2.536096236">
        <ele>299.11</ele>
        <time>2013-11-11T09:35:47Z</time>
      </trkpt>
      <trkpt lat="41.648956521" lon="2.536277956">
        <ele>299.59</ele>
        <time>2013-11-11T09:35:55Z</time>
      </trkpt>
      <trkpt lat="41.649024163" lon="2.536390860">
        <ele>299.59</ele>
        <time>2013-11-11T09:36:02Z</time>
      </trkpt>
      <trkpt lat="41.649107647" lon="2.536467722">
        <ele>301.03</ele>
        <time>2013-11-11T09:36:10Z</time>
      </trkpt>
      <trkpt lat="41.649205380" lon="2.536523545">
        <ele>303.43</ele>
        <time>2013-11-11T09:36:19Z</time>
      </trkpt>
      <trkpt lat="41.649294312" lon="2.536583141">
        <ele>305.36</ele>
        <time>2013-11-11T09:36:27Z</time>
      </trkpt>
      <trkpt lat="41.649393973" lon="2.536638545">
        <ele>307.76</ele>
        <time>2013-11-11T09:36:35Z</time>
      </trkpt>
      <trkpt lat="41.649524060" lon="2.536697721">
        <ele>310.64</ele>
        <time>2013-11-11T09:36:46Z</time>
      </trkpt>
      <trkpt lat="41.649603437" lon="2.536784139">
        <ele>311.12</ele>
        <time>2013-11-11T09:36:55Z</time>
      </trkpt>
      <trkpt lat="41.649685328" lon="2.536877597">
        <ele>313.05</ele>
        <time>2013-11-11T09:37:04Z</time>
      </trkpt>
      <trkpt lat="41.649785743" lon="2.536947921">
        <ele>314.01</ele>
        <time>2013-11-11T09:37:12Z</time>
      </trkpt>
      <trkpt lat="41.649888757" lon="2.537028974">
        <ele>314.97</ele>
        <time>2013-11-11T09:37:21Z</time>
      </trkpt>
      <trkpt lat="41.650037955" lon="2.537126707">
        <ele>316.41</ele>
        <time>2013-11-11T09:37:32Z</time>
      </trkpt>
      <trkpt lat="41.650141722" lon="2.537176160">
        <ele>318.33</ele>
        <time>2013-11-11T09:37:40Z</time>
      </trkpt>
      <trkpt lat="41.650277425" lon="2.537233660">
        <ele>320.74</ele>
        <time>2013-11-11T09:37:50Z</time>
      </trkpt>
      <trkpt lat="41.650414721" lon="2.537314629">
        <ele>322.66</ele>
        <time>2013-11-11T09:38:01Z</time>
      </trkpt>
      <trkpt lat="41.650514047" lon="2.537492158">
        <ele>323.14</ele>
        <time>2013-11-11T09:38:10Z</time>
      </trkpt>
      <trkpt lat="41.650573223" lon="2.537636913">
        <ele>324.10</ele>
        <time>2013-11-11T09:38:19Z</time>
      </trkpt>
      <trkpt lat="41.650659054" lon="2.537741436">
        <ele>326.99</ele>
        <time>2013-11-11T09:38:28Z</time>
      </trkpt>
      <trkpt lat="41.650761061" lon="2.537848389">
        <ele>329.39</ele>
        <time>2013-11-11T09:38:38Z</time>
      </trkpt>
      <trkpt lat="41.650838510" lon="2.537938494">
        <ele>331.31</ele>
        <time>2013-11-11T09:38:46Z</time>
      </trkpt>
      <trkpt lat="41.650952420" lon="2.537990211">
        <ele>333.23</ele>
        <time>2013-11-11T09:38:56Z</time>
      </trkpt>
      <trkpt lat="41.651080663" lon="2.537994485">
        <ele>334.20</ele>
        <time>2013-11-11T09:39:05Z</time>
      </trkpt>
      <trkpt lat="41.651162554" lon="2.537971184">
        <ele>335.16</ele>
        <time>2013-11-11T09:39:11Z</time>
      </trkpt>
      <trkpt lat="41.651291720" lon="2.537916953">
        <ele>338.04</ele>
        <time>2013-11-11T09:39:20Z</time>
      </trkpt>
      <trkpt lat="41.651384423" lon="2.537856100">
        <ele>339.48</ele>
        <time>2013-11-11T09:39:28Z</time>
      </trkpt>
      <trkpt lat="41.651494394" lon="2.537792649">
        <ele>340.44</ele>
        <time>2013-11-11T09:39:36Z</time>
      </trkpt>
      <trkpt lat="41.651581566" lon="2.537774796">
        <ele>340.92</ele>
        <time>2013-11-11T09:39:44Z</time>
      </trkpt>
      <trkpt lat="41.651668151" lon="2.537802624">
        <ele>342.85</ele>
        <time>2013-11-11T09:39:52Z</time>
      </trkpt>
      <trkpt lat="41.651738810" lon="2.537837995">
        <ele>344.77</ele>
        <time>2013-11-11T09:40:00Z</time>
      </trkpt>
      <trkpt lat="41.651846685" lon="2.537863560">
        <ele>348.13</ele>
        <time>2013-11-11T09:40:08Z</time>
      </trkpt>
      <trkpt lat="41.651935198" lon="2.537865739">
        <ele>350.06</ele>
        <time>2013-11-11T09:40:15Z</time>
      </trkpt>
      <trkpt lat="41.652000745" lon="2.537871355">
        <ele>351.98</ele>
        <time>2013-11-11T09:40:20Z</time>
      </trkpt>
      <trkpt lat="41.652134520" lon="2.537906308">
        <ele>352.94</ele>
        <time>2013-11-11T09:40:28Z</time>
      </trkpt>
      <trkpt lat="41.652240802" lon="2.538004208">
        <ele>353.42</ele>
        <time>2013-11-11T09:40:36Z</time>
      </trkpt>
      <trkpt lat="41.652303164" lon="2.538156424">
        <ele>354.86</ele>
        <time>2013-11-11T09:40:45Z</time>
      </trkpt>
      <trkpt lat="41.652406932" lon="2.538298497">
        <ele>357.27</ele>
        <time>2013-11-11T09:40:55Z</time>
      </trkpt>
      <trkpt lat="41.652448087" lon="2.538444761">
        <ele>358.71</ele>
        <time>2013-11-11T09:41:03Z</time>
      </trkpt>
      <trkpt lat="41.652534840" lon="2.538524557">
        <ele>360.63</ele>
        <time>2013-11-11T09:41:11Z</time>
      </trkpt>
      <trkpt lat="41.652632489" lon="2.538446689">
        <ele>363.04</ele>
        <time>2013-11-11T09:41:19Z</time>
      </trkpt>
      <trkpt lat="41.652678003" lon="2.538396146">
        <ele>363.52</ele>
        <time>2013-11-11T09:41:24Z</time>
      </trkpt>
      <trkpt lat="41.652791326" lon="2.538309896">
        <ele>365.44</ele>
        <time>2013-11-11T09:41:33Z</time>
      </trkpt>
      <trkpt lat="41.652772131" lon="2.538205709">
        <ele>368.32</ele>
        <time>2013-11-11T09:41:40Z</time>
      </trkpt>
      <trkpt lat="41.652780849" lon="2.538159022">
        <ele>369.28</ele>
        <time>2013-11-11T09:41:45Z</time>
      </trkpt>
      <trkpt lat="41.652857208" lon="2.538269412">
        <ele>370.24</ele>
        <time>2013-11-11T09:41:53Z</time>
      </trkpt>
      <trkpt lat="41.652835079" lon="2.538404528">
        <ele>370.24</ele>
        <time>2013-11-11T09:41:59Z</time>
      </trkpt>
      <trkpt lat="41.652785375" lon="2.538550373">
        <ele>370.73</ele>
        <time>2013-11-11T09:42:07Z</time>
      </trkpt>
      <trkpt lat="41.652750757" lon="2.538685909">
        <ele>369.28</ele>
        <time>2013-11-11T09:42:14Z</time>
      </trkpt>
      <trkpt lat="41.652756122" lon="2.538722286">
        <ele>368.80</ele>
        <time>2013-11-11T09:42:21Z</time>
      </trkpt>
      <trkpt lat="41.652783698" lon="2.538739888">
        <ele>367.84</ele>
        <time>2013-11-11T09:42:31Z</time>
      </trkpt>
      <trkpt lat="41.652788308" lon="2.538767381">
        <ele>366.88</ele>
        <time>2013-11-11T09:42:39Z</time>
      </trkpt>
      <trkpt lat="41.652762827" lon="2.538879782">
        <ele>363.52</ele>
        <time>2013-11-11T09:42:44Z</time>
      </trkpt>
      <trkpt lat="41.652753188" lon="2.538934097">
        <ele>363.04</ele>
        <time>2013-11-11T09:42:46Z</time>
      </trkpt>
      <trkpt lat="41.652751009" lon="2.539091760">
        <ele>362.07</ele>
        <time>2013-11-11T09:42:52Z</time>
      </trkpt>
      <trkpt lat="41.652755116" lon="2.539107518">
        <ele>362.07</ele>
        <time>2013-11-11T09:42:53Z</time>
      </trkpt>
      <trkpt lat="41.652858800" lon="2.539254034">
        <ele>363.04</ele>
        <time>2013-11-11T09:43:02Z</time>
      </trkpt>
      <trkpt lat="41.652939937" lon="2.539349755">
        <ele>363.52</ele>
        <time>2013-11-11T09:43:08Z</time>
      </trkpt>
      <trkpt lat="41.653090141" lon="2.539480513">
        <ele>364.96</ele>
        <time>2013-11-11T09:43:18Z</time>
      </trkpt>
      <trkpt lat="41.653188880" lon="2.539604230">
        <ele>366.40</ele>
        <time>2013-11-11T09:43:26Z</time>
      </trkpt>
      <trkpt lat="41.653192651" lon="2.539715039">
        <ele>366.88</ele>
        <time>2013-11-11T09:43:33Z</time>
      </trkpt>
      <trkpt lat="41.653170607" lon="2.539719900">
        <ele>366.88</ele>
        <time>2013-11-11T09:43:36Z</time>
      </trkpt>
      <trkpt lat="41.653126351" lon="2.539700706">
        <ele>367.36</ele>
        <time>2013-11-11T09:43:40Z</time>
      </trkpt>
      <trkpt lat="41.653037586" lon="2.539685283">
        <ele>368.80</ele>
        <time>2013-11-11T09:43:47Z</time>
      </trkpt>
      <trkpt lat="41.652886377" lon="2.539658712">
        <ele>370.73</ele>
        <time>2013-11-11T09:43:56Z</time>
      </trkpt>
      <trkpt lat="41.652772718" lon="2.539574977">
        <ele>372.17</ele>
        <time>2013-11-11T09:44:03Z</time>
      </trkpt>
      <trkpt lat="41.652675991" lon="2.539376913">
        <ele>369.28</ele>
        <time>2013-11-11T09:44:08Z</time>
      </trkpt>
      <trkpt lat="41.652540036" lon="2.539164851">
        <ele>366.40</ele>
        <time>2013-11-11T09:44:14Z</time>
      </trkpt>
      <trkpt lat="41.652336272" lon="2.539002409">
        <ele>364.00</ele>
        <time>2013-11-11T09:44:20Z</time>
      </trkpt>
      <trkpt lat="41.652243988" lon="2.538923452">
        <ele>362.55</ele>
        <time>2013-11-11T09:44:22Z</time>
      </trkpt>
      <trkpt lat="41.652136699" lon="2.538779199">
        <ele>361.59</ele>
        <time>2013-11-11T09:44:25Z</time>
      </trkpt>
      <trkpt lat="41.652046342" lon="2.538482731">
        <ele>357.75</ele>
        <time>2013-11-11T09:44:30Z</time>
      </trkpt>
      <trkpt lat="41.651836292" lon="2.538422298">
        <ele>354.86</ele>
        <time>2013-11-11T09:44:35Z</time>
      </trkpt>
      <trkpt lat="41.651776780" lon="2.538432859">
        <ele>354.86</ele>
        <time>2013-11-11T09:44:36Z</time>
      </trkpt>
      <trkpt lat="41.651589864" lon="2.538471332">
        <ele>353.42</ele>
        <time>2013-11-11T09:44:39Z</time>
      </trkpt>
      <trkpt lat="41.651442342" lon="2.538583314">
        <ele>351.02</ele>
        <time>2013-11-11T09:44:43Z</time>
      </trkpt>
      <trkpt lat="41.651397583" lon="2.538654141">
        <ele>350.54</ele>
        <time>2013-11-11T09:44:45Z</time>
      </trkpt>
      <trkpt lat="41.651242602" lon="2.538672246">
        <ele>351.02</ele>
        <time>2013-11-11T09:44:50Z</time>
      </trkpt>
      <trkpt lat="41.651045040" lon="2.538688256">
        <ele>351.02</ele>
        <time>2013-11-11T09:44:57Z</time>
      </trkpt>
      <trkpt lat="41.650836582" lon="2.538805267">
        <ele>352.46</ele>
        <time>2013-11-11T09:45:04Z</time>
      </trkpt>
      <trkpt lat="41.650694425" lon="2.538978605">
        <ele>354.38</ele>
        <time>2013-11-11T09:45:11Z</time>
      </trkpt>
      <trkpt lat="41.650643212" lon="2.539160324">
        <ele>356.31</ele>
        <time>2013-11-11T09:45:18Z</time>
      </trkpt>
      <trkpt lat="41.650607421" lon="2.539379930">
        <ele>357.75</ele>
        <time>2013-11-11T09:45:25Z</time>
      </trkpt>
      <trkpt lat="41.650588478" lon="2.539444387">
        <ele>357.75</ele>
        <time>2013-11-11T09:45:27Z</time>
      </trkpt>
      <trkpt lat="41.650482028" lon="2.539486548">
        <ele>357.75</ele>
        <time>2013-11-11T09:45:33Z</time>
      </trkpt>
      <trkpt lat="41.650397371" lon="2.539443884">
        <ele>359.19</ele>
        <time>2013-11-11T09:45:37Z</time>
      </trkpt>
      <trkpt lat="41.650243060" lon="2.539297955">
        <ele>362.07</ele>
        <time>2013-11-11T09:45:45Z</time>
      </trkpt>
      <trkpt lat="41.650123450" lon="2.539271133">
        <ele>363.52</ele>
        <time>2013-11-11T09:45:51Z</time>
      </trkpt>
      <trkpt lat="41.650010630" lon="2.539392000">
        <ele>364.48</ele>
        <time>2013-11-11T09:45:58Z</time>
      </trkpt>
      <trkpt lat="41.649901413" lon="2.539561063">
        <ele>364.96</ele>
        <time>2013-11-11T09:46:06Z</time>
      </trkpt>
      <trkpt lat="41.649788006" lon="2.539668854">
        <ele>365.44</ele>
        <time>2013-11-11T09:46:14Z</time>
      </trkpt>
      <trkpt lat="41.649760262" lon="2.539678913">
        <ele>364.48</ele>
        <time>2013-11-11T09:46:15Z</time>
      </trkpt>
      <trkpt lat="41.649642664" lon="2.539588304">
        <ele>364.00</ele>
        <time>2013-11-11T09:46:20Z</time>
      </trkpt>
      <trkpt lat="41.649619195" lon="2.539470371">
        <ele>364.96</ele>
        <time>2013-11-11T09:46:24Z</time>
      </trkpt>
      <trkpt lat="41.649569574" lon="2.539259566">
        <ele>364.00</ele>
        <time>2013-11-11T09:46:30Z</time>
      </trkpt>
      <trkpt lat="41.649460860" lon="2.539084384">
        <ele>362.07</ele>
        <time>2013-11-11T09:46:34Z</time>
      </trkpt>
      <trkpt lat="41.649405372" lon="2.538977096">
        <ele>360.63</ele>
        <time>2013-11-11T09:46:36Z</time>
      </trkpt>
      <trkpt lat="41.649378550" lon="2.538920770">
        <ele>360.63</ele>
        <time>2013-11-11T09:46:37Z</time>
      </trkpt>
      <trkpt lat="41.649119968" lon="2.538503938">
        <ele>355.83</ele>
        <time>2013-11-11T09:46:43Z</time>
      </trkpt>
      <trkpt lat="41.648922575" lon="2.538330097">
        <ele>354.86</ele>
        <time>2013-11-11T09:46:47Z</time>
      </trkpt>
      <trkpt lat="41.648814783" lon="2.538333785">
        <ele>354.38</ele>
        <time>2013-11-11T09:46:50Z</time>
      </trkpt>
      <trkpt lat="41.648705819" lon="2.538382400">
        <ele>352.94</ele>
        <time>2013-11-11T09:46:53Z</time>
      </trkpt>
      <trkpt lat="41.648551173" lon="2.538509637">
        <ele>349.10</ele>
        <time>2013-11-11T09:46:57Z</time>
      </trkpt>
      <trkpt lat="41.648468359" lon="2.538562611">
        <ele>348.62</ele>
        <time>2013-11-11T09:46:59Z</time>
      </trkpt>
      <trkpt lat="41.648351683" lon="2.538500166">
        <ele>347.65</ele>
        <time>2013-11-11T09:47:02Z</time>
      </trkpt>
      <trkpt lat="41.648246239" lon="2.538264634">
        <ele>347.65</ele>
        <time>2013-11-11T09:47:08Z</time>
      </trkpt>
      <trkpt lat="41.648223859" lon="2.538005298">
        <ele>347.17</ele>
        <time>2013-11-11T09:47:13Z</time>
      </trkpt>
      <trkpt lat="41.648238695" lon="2.537738670">
        <ele>346.21</ele>
        <time>2013-11-11T09:47:17Z</time>
      </trkpt>
      <trkpt lat="41.648316479" lon="2.537314545">
        <ele>342.37</ele>
        <time>2013-11-11T09:47:23Z</time>
      </trkpt>
      <trkpt lat="41.648348498" lon="2.537194098">
        <ele>340.44</ele>
        <time>2013-11-11T09:47:26Z</time>
      </trkpt>
      <trkpt lat="41.648353946" lon="2.537047247">
        <ele>340.44</ele>
        <time>2013-11-11T09:47:32Z</time>
      </trkpt>
      <trkpt lat="41.648312624" lon="2.537026879">
        <ele>341.89</ele>
        <time>2013-11-11T09:47:35Z</time>
      </trkpt>
      <trkpt lat="41.648198714" lon="2.537005589">
        <ele>343.33</ele>
        <time>2013-11-11T09:47:43Z</time>
      </trkpt>
      <trkpt lat="41.648096287" lon="2.537125031">
        <ele>345.25</ele>
        <time>2013-11-11T09:47:53Z</time>
      </trkpt>
      <trkpt lat="41.648018251" lon="2.537319910">
        <ele>348.13</ele>
        <time>2013-11-11T09:48:04Z</time>
      </trkpt>
      <trkpt lat="41.647940299" lon="2.537425019">
        <ele>350.06</ele>
        <time>2013-11-11T09:48:12Z</time>
      </trkpt>
      <trkpt lat="41.647839884" lon="2.537515041">
        <ele>352.46</ele>
        <time>2013-11-11T09:48:21Z</time>
      </trkpt>
      <trkpt lat="41.647758161" lon="2.537672369">
        <ele>355.34</ele>
        <time>2013-11-11T09:48:31Z</time>
      </trkpt>
      <trkpt lat="41.647734859" lon="2.537728192">
        <ele>355.83</ele>
        <time>2013-11-11T09:48:34Z</time>
      </trkpt>
      <trkpt lat="41.647675180" lon="2.537848892">
        <ele>358.23</ele>
        <time>2013-11-11T09:48:43Z</time>
      </trkpt>
      <trkpt lat="41.647571663" lon="2.537947128">
        <ele>359.67</ele>
        <time>2013-11-11T09:48:53Z</time>
      </trkpt>
      <trkpt lat="41.647530676" lon="2.537977219">
        <ele>359.67</ele>
        <time>2013-11-11T09:48:56Z</time>
      </trkpt>
      <trkpt lat="41.647468482" lon="2.538048130">
        <ele>359.67</ele>
        <time>2013-11-11T09:49:00Z</time>
      </trkpt>
      <trkpt lat="41.647400253" lon="2.538262120">
        <ele>358.23</ele>
        <time>2013-11-11T09:49:06Z</time>
      </trkpt>
      <trkpt lat="41.647360356" lon="2.538451802">
        <ele>356.31</ele>
        <time>2013-11-11T09:49:10Z</time>
      </trkpt>
      <trkpt lat="41.647340658" lon="2.538688675">
        <ele>355.34</ele>
        <time>2013-11-11T09:49:16Z</time>
      </trkpt>
      <trkpt lat="41.647282739" lon="2.538834855">
        <ele>356.79</ele>
        <time>2013-11-11T09:49:24Z</time>
      </trkpt>
      <trkpt lat="41.647274022" lon="2.538850781">
        <ele>356.79</ele>
        <time>2013-11-11T09:49:25Z</time>
      </trkpt>
      <trkpt lat="41.647204201" lon="2.538991681">
        <ele>357.27</ele>
        <time>2013-11-11T09:49:32Z</time>
      </trkpt>
      <trkpt lat="41.647176121" lon="2.539031830">
        <ele>357.27</ele>
        <time>2013-11-11T09:49:34Z</time>
      </trkpt>
      <trkpt lat="41.646981913" lon="2.539043229">
        <ele>356.79</ele>
        <time>2013-11-11T09:49:43Z</time>
      </trkpt>
      <trkpt lat="41.646922820" lon="2.539028561">
        <ele>355.83</ele>
        <time>2013-11-11T09:49:45Z</time>
      </trkpt>
      <trkpt lat="41.646771862" lon="2.539040463">
        <ele>354.86</ele>
        <time>2013-11-11T09:49:49Z</time>
      </trkpt>
      <trkpt lat="41.646671447" lon="2.539200977">
        <ele>353.90</ele>
        <time>2013-11-11T09:49:55Z</time>
      </trkpt>
      <trkpt lat="41.646667424" lon="2.539218914">
        <ele>353.90</ele>
        <time>2013-11-11T09:49:56Z</time>
      </trkpt>
      <trkpt lat="41.646652336" lon="2.539267697">
        <ele>353.42</ele>
        <time>2013-11-11T09:49:59Z</time>
      </trkpt>
      <trkpt lat="41.646531804" lon="2.539416308">
        <ele>355.83</ele>
        <time>2013-11-11T09:50:09Z</time>
      </trkpt>
      <trkpt lat="41.646466426" lon="2.539586796">
        <ele>357.27</ele>
        <time>2013-11-11T09:50:17Z</time>
      </trkpt>
      <trkpt lat="41.646366513" lon="2.539746052">
        <ele>359.67</ele>
        <time>2013-11-11T09:50:27Z</time>
      </trkpt>
      <trkpt lat="41.646282024" lon="2.539890723">
        <ele>360.63</ele>
        <time>2013-11-11T09:50:35Z</time>
      </trkpt>
      <trkpt lat="41.646276743" lon="2.539914360">
        <ele>361.11</ele>
        <time>2013-11-11T09:50:36Z</time>
      </trkpt>
      <trkpt lat="41.646191583" lon="2.540067162">
        <ele>361.11</ele>
        <time>2013-11-11T09:50:45Z</time>
      </trkpt>
      <trkpt lat="41.646036853" lon="2.540209739">
        <ele>358.23</ele>
        <time>2013-11-11T09:50:51Z</time>
      </trkpt>
      <trkpt lat="41.645894947" lon="2.540264221">
        <ele>356.31</ele>
        <time>2013-11-11T09:50:58Z</time>
      </trkpt>
      <trkpt lat="41.645747007" lon="2.540232035">
        <ele>354.86</ele>
        <time>2013-11-11T09:51:04Z</time>
      </trkpt>
      <trkpt lat="41.645550954" lon="2.540180905">
        <ele>354.86</ele>
        <time>2013-11-11T09:51:11Z</time>
      </trkpt>
      <trkpt lat="41.645392704" lon="2.540175038">
        <ele>355.83</ele>
        <time>2013-11-11T09:51:20Z</time>
      </trkpt>
      <trkpt lat="41.645224563" lon="2.540128518">
        <ele>357.27</ele>
        <time>2013-11-11T09:51:29Z</time>
      </trkpt>
      <trkpt lat="41.645078634" lon="2.540057020">
        <ele>357.75</ele>
        <time>2013-11-11T09:51:36Z</time>
      </trkpt>
      <trkpt lat="41.644905045" lon="2.539973620">
        <ele>359.67</ele>
        <time>2013-11-11T09:51:45Z</time>
      </trkpt>
      <trkpt lat="41.644780406" lon="2.539898183">
        <ele>361.59</ele>
        <time>2013-11-11T09:51:51Z</time>
      </trkpt>
      <trkpt lat="41.644738832" lon="2.539891981">
        <ele>362.07</ele>
        <time>2013-11-11T09:51:53Z</time>
      </trkpt>
      <trkpt lat="41.644647469" lon="2.539987534">
        <ele>363.52</ele>
        <time>2013-11-11T09:51:59Z</time>
      </trkpt>
      <trkpt lat="41.644577815" lon="2.540224156">
        <ele>365.44</ele>
        <time>2013-11-11T09:52:09Z</time>
      </trkpt>
      <trkpt lat="41.644483183" lon="2.540426159">
        <ele>368.32</ele>
        <time>2013-11-11T09:52:19Z</time>
      </trkpt>
      <trkpt lat="41.644387378" lon="2.540472008">
        <ele>369.28</ele>
        <time>2013-11-11T09:52:25Z</time>
      </trkpt>
      <trkpt lat="41.644318060" lon="2.540412832">
        <ele>370.73</ele>
        <time>2013-11-11T09:52:30Z</time>
      </trkpt>
      <trkpt lat="41.644311103" lon="2.540329013">
        <ele>371.69</ele>
        <time>2013-11-11T09:52:34Z</time>
      </trkpt>
      <trkpt lat="41.644278749" lon="2.540252654">
        <ele>372.65</ele>
        <time>2013-11-11T09:52:38Z</time>
      </trkpt>
      <trkpt lat="41.644193924" lon="2.540093565">
        <ele>374.57</ele>
        <time>2013-11-11T09:52:47Z</time>
      </trkpt>
      <trkpt lat="41.644104573" lon="2.539983679">
        <ele>375.53</ele>
        <time>2013-11-11T09:52:54Z</time>
      </trkpt>
      <trkpt lat="41.643982784" lon="2.539830290">
        <ele>378.42</ele>
        <time>2013-11-11T09:53:04Z</time>
      </trkpt>
      <trkpt lat="41.643847165" lon="2.539704813">
        <ele>379.86</ele>
        <time>2013-11-11T09:53:13Z</time>
      </trkpt>
      <trkpt lat="41.643719341" lon="2.539620742">
        <ele>381.30</ele>
        <time>2013-11-11T09:53:21Z</time>
      </trkpt>
      <trkpt lat="41.643587242" lon="2.539545557">
        <ele>383.22</ele>
        <time>2013-11-11T09:53:29Z</time>
      </trkpt>
      <trkpt lat="41.643444498" lon="2.539466767">
        <ele>385.15</ele>
        <time>2013-11-11T09:53:38Z</time>
      </trkpt>
      <trkpt lat="41.643352549" lon="2.539346822">
        <ele>386.11</ele>
        <time>2013-11-11T09:53:45Z</time>
      </trkpt>
      <trkpt lat="41.643223719" lon="2.539150182">
        <ele>388.99</ele>
        <time>2013-11-11T09:53:55Z</time>
      </trkpt>
      <trkpt lat="41.643072509" lon="2.539061502">
        <ele>390.43</ele>
        <time>2013-11-11T09:54:03Z</time>
      </trkpt>
      <trkpt lat="41.642919120" lon="2.538968630">
        <ele>392.36</ele>
        <time>2013-11-11T09:54:11Z</time>
      </trkpt>
      <trkpt lat="41.642749806" lon="2.538842734">
        <ele>393.32</ele>
        <time>2013-11-11T09:54:19Z</time>
      </trkpt>
      <trkpt lat="41.642590382" lon="2.538686328">
        <ele>394.28</ele>
        <time>2013-11-11T09:54:27Z</time>
      </trkpt>
      <trkpt lat="41.642396341" lon="2.538572166">
        <ele>394.28</ele>
        <time>2013-11-11T09:54:34Z</time>
      </trkpt>
      <trkpt lat="41.642308331" lon="2.538575016">
        <ele>394.28</ele>
        <time>2013-11-11T09:54:36Z</time>
      </trkpt>
      <trkpt lat="41.641959644" lon="2.538464543">
        <ele>392.36</ele>
        <time>2013-11-11T09:54:43Z</time>
      </trkpt>
      <trkpt lat="41.641746911" lon="2.538233118">
        <ele>392.36</ele>
        <time>2013-11-11T09:54:51Z</time>
      </trkpt>
      <trkpt lat="41.641643646" lon="2.537999515">
        <ele>392.36</ele>
        <time>2013-11-11T09:54:58Z</time>
      </trkpt>
      <trkpt lat="41.641606766" lon="2.537672872">
        <ele>392.36</ele>
        <time>2013-11-11T09:55:04Z</time>
      </trkpt>
      <trkpt lat="41.641581536" lon="2.537416889">
        <ele>391.39</ele>
        <time>2013-11-11T09:55:08Z</time>
      </trkpt>
      <trkpt lat="41.641635851" lon="2.537095359">
        <ele>391.39</ele>
        <time>2013-11-11T09:55:14Z</time>
      </trkpt>
      <trkpt lat="41.641592349" lon="2.536934259">
        <ele>391.39</ele>
        <time>2013-11-11T09:55:20Z</time>
      </trkpt>
      <trkpt lat="41.641566952" lon="2.536872149">
        <ele>391.39</ele>
        <time>2013-11-11T09:55:27Z</time>
      </trkpt>
      <trkpt lat="41.641564856" lon="2.536859743">
        <ele>390.91</ele>
        <time>2013-11-11T09:55:42Z</time>
      </trkpt>
      <trkpt lat="41.641562593" lon="2.536855469">
        <ele>390.91</ele>
        <time>2013-11-11T09:55:57Z</time>
      </trkpt>
      <trkpt lat="41.641561420" lon="2.536852786">
        <ele>390.91</ele>
        <time>2013-11-11T09:56:10Z</time>
      </trkpt>
      <trkpt lat="41.641553960" lon="2.536846919">
        <ele>390.91</ele>
        <time>2013-11-11T09:56:25Z</time>
      </trkpt>
      <trkpt lat="41.641474416" lon="2.536718089">
        <ele>389.95</ele>
        <time>2013-11-11T09:56:31Z</time>
      </trkpt>
      <trkpt lat="41.641401996" lon="2.536488928">
        <ele>388.51</ele>
        <time>2013-11-11T09:56:36Z</time>
      </trkpt>
      <trkpt lat="41.641316417" lon="2.536128590">
        <ele>386.59</ele>
        <time>2013-11-11T09:56:41Z</time>
      </trkpt>
      <trkpt lat="41.641081640" lon="2.535529703">
        <ele>383.22</ele>
        <time>2013-11-11T09:56:48Z</time>
      </trkpt>
      <trkpt lat="41.640963622" lon="2.535386959">
        <ele>382.74</ele>
        <time>2013-11-11T09:56:52Z</time>
      </trkpt>
      <trkpt lat="41.640938393" lon="2.535377152">
        <ele>382.74</ele>
        <time>2013-11-11T09:56:53Z</time>
      </trkpt>
      <trkpt lat="41.640764636" lon="2.535238432">
        <ele>382.74</ele>
        <time>2013-11-11T09:57:00Z</time>
      </trkpt>
      <trkpt lat="41.640404801" lon="2.535253771">
        <ele>382.26</ele>
        <time>2013-11-11T09:57:08Z</time>
      </trkpt>
      <trkpt lat="41.640360544" lon="2.535263410">
        <ele>382.26</ele>
        <time>2013-11-11T09:57:09Z</time>
      </trkpt>
      <trkpt lat="41.640195840" lon="2.535246981">
        <ele>381.78</ele>
        <time>2013-11-11T09:57:13Z</time>
      </trkpt>
      <trkpt lat="41.639935666" lon="2.535087977">
        <ele>379.38</ele>
        <time>2013-11-11T09:57:19Z</time>
      </trkpt>
      <trkpt lat="41.639651854" lon="2.535009941">
        <ele>377.45</ele>
        <time>2013-11-11T09:57:24Z</time>
      </trkpt>
      <trkpt lat="41.639365864" lon="2.534988400">
        <ele>375.05</ele>
        <time>2013-11-11T09:57:29Z</time>
      </trkpt>
      <trkpt lat="41.639191101" lon="2.534966104">
        <ele>373.61</ele>
        <time>2013-11-11T09:57:32Z</time>
      </trkpt>
      <trkpt lat="41.639128405" lon="2.534955124">
        <ele>372.65</ele>
        <time>2013-11-11T09:57:33Z</time>
      </trkpt>
      <trkpt lat="41.638695563" lon="2.534738535">
        <ele>372.65</ele>
        <time>2013-11-11T09:57:41Z</time>
      </trkpt>
      <trkpt lat="41.638451398" lon="2.534630073">
        <ele>372.65</ele>
        <time>2013-11-11T09:57:48Z</time>
      </trkpt>
      <trkpt lat="41.638264901" lon="2.534685226">
        <ele>372.17</ele>
        <time>2013-11-11T09:57:54Z</time>
      </trkpt>
      <trkpt lat="41.638138167" lon="2.534815565">
        <ele>372.17</ele>
        <time>2013-11-11T09:58:00Z</time>
      </trkpt>
      <trkpt lat="41.638083684" lon="2.535000302">
        <ele>371.69</ele>
        <time>2013-11-11T09:58:05Z</time>
      </trkpt>
      <trkpt lat="41.637999446" lon="2.535214627">
        <ele>371.21</ele>
        <time>2013-11-11T09:58:09Z</time>
      </trkpt>
      <trkpt lat="41.637905988" lon="2.535442783">
        <ele>370.73</ele>
        <time>2013-11-11T09:58:13Z</time>
      </trkpt>
      <trkpt lat="41.637733907" lon="2.535651241">
        <ele>369.28</ele>
        <time>2013-11-11T09:58:18Z</time>
      </trkpt>
      <trkpt lat="41.637585129" lon="2.535770096">
        <ele>367.36</ele>
        <time>2013-11-11T09:58:21Z</time>
      </trkpt>
      <trkpt lat="41.637404080" lon="2.536071509">
        <ele>366.40</ele>
        <time>2013-11-11T09:58:26Z</time>
      </trkpt>
      <trkpt lat="41.637459652" lon="2.536328666">
        <ele>365.92</ele>
        <time>2013-11-11T09:58:30Z</time>
      </trkpt>
      <trkpt lat="41.637491251" lon="2.536402930">
        <ele>364.96</ele>
        <time>2013-11-11T09:58:31Z</time>
      </trkpt>
      <trkpt lat="41.637523354" lon="2.536848763">
        <ele>363.04</ele>
        <time>2013-11-11T09:58:37Z</time>
      </trkpt>
      <trkpt lat="41.637473565" lon="2.537177585">
        <ele>362.55</ele>
        <time>2013-11-11T09:58:42Z</time>
      </trkpt>
      <trkpt lat="41.637328391" lon="2.537584527">
        <ele>357.27</ele>
        <time>2013-11-11T09:58:49Z</time>
      </trkpt>
      <trkpt lat="41.637298048" lon="2.537584024">
        <ele>357.27</ele>
        <time>2013-11-11T09:58:50Z</time>
      </trkpt>
      <trkpt lat="41.637069222" lon="2.537505988">
        <ele>353.42</ele>
        <time>2013-11-11T09:58:55Z</time>
      </trkpt>
      <trkpt lat="41.636886916" lon="2.537353857">
        <ele>349.58</ele>
        <time>2013-11-11T09:58:59Z</time>
      </trkpt>
      <trkpt lat="41.636835451" lon="2.537302224">
        <ele>348.62</ele>
        <time>2013-11-11T09:59:00Z</time>
      </trkpt>
      <trkpt lat="41.636602099" lon="2.537220165">
        <ele>344.77</ele>
        <time>2013-11-11T09:59:04Z</time>
      </trkpt>
      <trkpt lat="41.636496319" lon="2.537234750">
        <ele>342.85</ele>
        <time>2013-11-11T09:59:07Z</time>
      </trkpt>
      <trkpt lat="41.636464301" lon="2.537341200">
        <ele>341.41</ele>
        <time>2013-11-11T09:59:11Z</time>
      </trkpt>
      <trkpt lat="41.636519705" lon="2.537513029">
        <ele>339.48</ele>
        <time>2013-11-11T09:59:14Z</time>
      </trkpt>
      <trkpt lat="41.636517442" lon="2.537798517">
        <ele>338.04</ele>
        <time>2013-11-11T09:59:19Z</time>
      </trkpt>
      <trkpt lat="41.636395737" lon="2.537850820">
        <ele>338.04</ele>
        <time>2013-11-11T09:59:22Z</time>
      </trkpt>
      <trkpt lat="41.636220555" lon="2.538022397">
        <ele>336.12</ele>
        <time>2013-11-11T09:59:27Z</time>
      </trkpt>
      <trkpt lat="41.636224075" lon="2.538087022">
        <ele>336.12</ele>
        <time>2013-11-11T09:59:28Z</time>
      </trkpt>
      <trkpt lat="41.636177639" lon="2.538370079">
        <ele>336.12</ele>
        <time>2013-11-11T09:59:33Z</time>
      </trkpt>
      <trkpt lat="41.635938336" lon="2.538694542">
        <ele>336.12</ele>
        <time>2013-11-11T09:59:40Z</time>
      </trkpt>
      <trkpt lat="41.635914783" lon="2.538765453">
        <ele>336.12</ele>
        <time>2013-11-11T09:59:41Z</time>
      </trkpt>
      <trkpt lat="41.635875053" lon="2.538927224">
        <ele>334.68</ele>
        <time>2013-11-11T09:59:43Z</time>
      </trkpt>
      <trkpt lat="41.635736668" lon="2.539143225">
        <ele>331.79</ele>
        <time>2013-11-11T09:59:47Z</time>
      </trkpt>
      <trkpt lat="41.635640443" lon="2.539128641">
        <ele>330.35</ele>
        <time>2013-11-11T09:59:49Z</time>
      </trkpt>
      <trkpt lat="41.635450006" lon="2.539141968">
        <ele>325.54</ele>
        <time>2013-11-11T09:59:54Z</time>
      </trkpt>
      <trkpt lat="41.635396446" lon="2.539207179">
        <ele>324.10</ele>
        <time>2013-11-11T09:59:56Z</time>
      </trkpt>
      <trkpt lat="41.635202573" lon="2.539238444">
        <ele>320.26</ele>
        <time>2013-11-11T10:00:00Z</time>
      </trkpt>
      <trkpt lat="41.635095871" lon="2.539349504">
        <ele>319.30</ele>
        <time>2013-11-11T10:00:04Z</time>
      </trkpt>
      <trkpt lat="41.635125627" lon="2.539594172">
        <ele>319.30</ele>
        <time>2013-11-11T10:00:10Z</time>
      </trkpt>
      <trkpt lat="41.635132416" lon="2.539623676">
        <ele>319.30</ele>
        <time>2013-11-11T10:00:11Z</time>
      </trkpt>
      <trkpt lat="41.635142726" lon="2.539664328">
        <ele>320.74</ele>
        <time>2013-11-11T10:00:13Z</time>
      </trkpt>
      <trkpt lat="41.635148342" lon="2.539683607">
        <ele>321.22</ele>
        <time>2013-11-11T10:00:14Z</time>
      </trkpt>
      <trkpt lat="41.635145408" lon="2.539943697">
        <ele>324.10</ele>
        <time>2013-11-11T10:00:23Z</time>
      </trkpt>
      <trkpt lat="41.635138954" lon="2.540227676">
        <ele>326.02</ele>
        <time>2013-11-11T10:00:31Z</time>
      </trkpt>
      <trkpt lat="41.635165525" lon="2.540477540">
        <ele>327.47</ele>
        <time>2013-11-11T10:00:39Z</time>
      </trkpt>
      <trkpt lat="41.635094949" lon="2.540653393">
        <ele>328.91</ele>
        <time>2013-11-11T10:00:46Z</time>
      </trkpt>
      <trkpt lat="41.634971484" lon="2.540668983">
        <ele>330.35</ele>
        <time>2013-11-11T10:00:53Z</time>
      </trkpt>
      <trkpt lat="41.634828069" lon="2.540731009">
        <ele>330.83</ele>
        <time>2013-11-11T10:00:59Z</time>
      </trkpt>
      <trkpt lat="41.634663197" lon="2.540792113">
        <ele>330.83</ele>
        <time>2013-11-11T10:01:05Z</time>
      </trkpt>
      <trkpt lat="41.634553310" lon="2.540796220">
        <ele>331.79</ele>
        <time>2013-11-11T10:01:10Z</time>
      </trkpt>
      <trkpt lat="41.634473096" lon="2.540864449">
        <ele>332.75</ele>
        <time>2013-11-11T10:01:16Z</time>
      </trkpt>
      <trkpt lat="41.634345020" lon="2.540940138">
        <ele>334.68</ele>
        <time>2013-11-11T10:01:24Z</time>
      </trkpt>
      <trkpt lat="41.634155086" lon="2.540987160">
        <ele>336.12</ele>
        <time>2013-11-11T10:01:32Z</time>
      </trkpt>
      <trkpt lat="41.634108231" lon="2.540981712">
        <ele>336.60</ele>
        <time>2013-11-11T10:01:34Z</time>
      </trkpt>
      <trkpt lat="41.634046960" lon="2.540832766">
        <ele>335.16</ele>
        <time>2013-11-11T10:01:40Z</time>
      </trkpt>
      <trkpt lat="41.633980575" lon="2.540678539">
        <ele>333.71</ele>
        <time>2013-11-11T10:01:45Z</time>
      </trkpt>
      <trkpt lat="41.633921063" lon="2.540546691">
        <ele>333.23</ele>
        <time>2013-11-11T10:01:51Z</time>
      </trkpt>
      <trkpt lat="41.633878651" lon="2.540460944">
        <ele>332.75</ele>
        <time>2013-11-11T10:01:58Z</time>
      </trkpt>
      <trkpt lat="41.633782343" lon="2.540363127">
        <ele>331.31</ele>
        <time>2013-11-11T10:02:04Z</time>
      </trkpt>
      <trkpt lat="41.633698356" lon="2.540319290">
        <ele>331.31</ele>
        <time>2013-11-11T10:02:08Z</time>
      </trkpt>
      <trkpt lat="41.633649238" lon="2.540313758">
        <ele>332.75</ele>
        <time>2013-11-11T10:02:12Z</time>
      </trkpt>
      <trkpt lat="41.633610765" lon="2.540315854">
        <ele>332.75</ele>
        <time>2013-11-11T10:02:16Z</time>
      </trkpt>
      <trkpt lat="41.633582015" lon="2.540308813">
        <ele>332.75</ele>
        <time>2013-11-11T10:02:19Z</time>
      </trkpt>
      <trkpt lat="41.633500879" lon="2.540304454">
        <ele>334.20</ele>
        <time>2013-11-11T10:02:27Z</time>
      </trkpt>
      <trkpt lat="41.633411192" lon="2.540273190">
        <ele>335.16</ele>
        <time>2013-11-11T10:02:34Z</time>
      </trkpt>
      <trkpt lat="41.633241878" lon="2.540249134">
        <ele>337.08</ele>
        <time>2013-11-11T10:02:43Z</time>
      </trkpt>
      <trkpt lat="41.633067534" lon="2.540292217">
        <ele>337.56</ele>
        <time>2013-11-11T10:02:51Z</time>
      </trkpt>
      <trkpt lat="41.633001988" lon="2.540326247">
        <ele>336.60</ele>
        <time>2013-11-11T10:02:53Z</time>
      </trkpt>
      <trkpt lat="41.632872823" lon="2.540191131">
        <ele>331.79</ele>
        <time>2013-11-11T10:02:57Z</time>
      </trkpt>
      <trkpt lat="41.632861256" lon="2.540119214">
        <ele>330.83</ele>
        <time>2013-11-11T10:02:58Z</time>
      </trkpt>
      <trkpt lat="41.632820939" lon="2.539859124">
        <ele>327.95</ele>
        <time>2013-11-11T10:03:01Z</time>
      </trkpt>
      <trkpt lat="41.632783974" lon="2.539689642">
        <ele>326.99</ele>
        <time>2013-11-11T10:03:03Z</time>
      </trkpt>
      <trkpt lat="41.632758745" lon="2.539326538">
        <ele>322.66</ele>
        <time>2013-11-11T10:03:07Z</time>
      </trkpt>
      <trkpt lat="41.632684062" lon="2.539180944">
        <ele>320.74</ele>
        <time>2013-11-11T10:03:10Z</time>
      </trkpt>
      <trkpt lat="41.632637543" lon="2.539184548">
        <ele>320.26</ele>
        <time>2013-11-11T10:03:11Z</time>
      </trkpt>
      <trkpt lat="41.632343757" lon="2.539357048">
        <ele>319.30</ele>
        <time>2013-11-11T10:03:17Z</time>
      </trkpt>
      <trkpt lat="41.632185339" lon="2.539419828">
        <ele>319.78</ele>
        <time>2013-11-11T10:03:21Z</time>
      </trkpt>
      <trkpt lat="41.632070926" lon="2.539245485">
        <ele>319.78</ele>
        <time>2013-11-11T10:03:26Z</time>
      </trkpt>
      <trkpt lat="41.632028933" lon="2.539063178">
        <ele>321.22</ele>
        <time>2013-11-11T10:03:30Z</time>
      </trkpt>
      <trkpt lat="41.631886440" lon="2.539110955">
        <ele>322.18</ele>
        <time>2013-11-11T10:03:35Z</time>
      </trkpt>
      <trkpt lat="41.631695501" lon="2.539307930">
        <ele>324.58</ele>
        <time>2013-11-11T10:03:44Z</time>
      </trkpt>
      <trkpt lat="41.631519061" lon="2.539308684">
        <ele>326.50</ele>
        <time>2013-11-11T10:03:51Z</time>
      </trkpt>
      <trkpt lat="41.631342539" lon="2.539218998">
        <ele>328.43</ele>
        <time>2013-11-11T10:03:58Z</time>
      </trkpt>
      <trkpt lat="41.631172889" lon="2.539153451">
        <ele>330.35</ele>
        <time>2013-11-11T10:04:06Z</time>
      </trkpt>
      <trkpt lat="41.631036180" lon="2.539190918">
        <ele>332.27</ele>
        <time>2013-11-11T10:04:12Z</time>
      </trkpt>
      <trkpt lat="41.630994773" lon="2.539212125">
        <ele>333.71</ele>
        <time>2013-11-11T10:04:14Z</time>
      </trkpt>
      <trkpt lat="41.630922605" lon="2.539288651">
        <ele>335.16</ele>
        <time>2013-11-11T10:04:19Z</time>
      </trkpt>
      <trkpt lat="41.630792267" lon="2.539402142">
        <ele>336.12</ele>
        <time>2013-11-11T10:04:27Z</time>
      </trkpt>
      <trkpt lat="41.630679027" lon="2.539510269">
        <ele>336.12</ele>
        <time>2013-11-11T10:04:33Z</time>
      </trkpt>
      <trkpt lat="41.630535864" lon="2.539769940">
        <ele>337.08</ele>
        <time>2013-11-11T10:04:42Z</time>
      </trkpt>
      <trkpt lat="41.630421367" lon="2.539988876">
        <ele>337.08</ele>
        <time>2013-11-11T10:04:49Z</time>
      </trkpt>
      <trkpt lat="41.630279546" lon="2.540201441">
        <ele>338.04</ele>
        <time>2013-11-11T10:04:56Z</time>
      </trkpt>
      <trkpt lat="41.630154739" lon="2.540349046">
        <ele>338.52</ele>
        <time>2013-11-11T10:05:02Z</time>
      </trkpt>
      <trkpt lat="41.629973439" lon="2.540446527">
        <ele>338.52</ele>
        <time>2013-11-11T10:05:09Z</time>
      </trkpt>
      <trkpt lat="41.629857517" lon="2.540437224">
        <ele>335.64</ele>
        <time>2013-11-11T10:05:14Z</time>
      </trkpt>
      <trkpt lat="41.629688957" lon="2.540565886">
        <ele>331.31</ele>
        <time>2013-11-11T10:05:21Z</time>
      </trkpt>
      <trkpt lat="41.629561384" lon="2.540669151">
        <ele>327.95</ele>
        <time>2013-11-11T10:05:25Z</time>
      </trkpt>
      <trkpt lat="41.629442948" lon="2.540736038">
        <ele>324.58</ele>
        <time>2013-11-11T10:05:28Z</time>
      </trkpt>
      <trkpt lat="41.629401038" lon="2.540754646">
        <ele>323.62</ele>
        <time>2013-11-11T10:05:29Z</time>
      </trkpt>
      <trkpt lat="41.629210350" lon="2.540827233">
        <ele>321.22</ele>
        <time>2013-11-11T10:05:34Z</time>
      </trkpt>
      <trkpt lat="41.629087052" lon="2.540794293">
        <ele>317.85</ele>
        <time>2013-11-11T10:05:38Z</time>
      </trkpt>
      <trkpt lat="41.629017231" lon="2.540673174">
        <ele>315.93</ele>
        <time>2013-11-11T10:05:42Z</time>
      </trkpt>
      <trkpt lat="41.628957552" lon="2.540576028">
        <ele>313.05</ele>
        <time>2013-11-11T10:05:45Z</time>
      </trkpt>
      <trkpt lat="41.628838529" lon="2.540408222">
        <ele>309.20</ele>
        <time>2013-11-11T10:05:50Z</time>
      </trkpt>
      <trkpt lat="41.628766193" lon="2.540301604">
        <ele>307.76</ele>
        <time>2013-11-11T10:05:55Z</time>
      </trkpt>
      <trkpt lat="41.628671980" lon="2.540184006">
        <ele>307.76</ele>
        <time>2013-11-11T10:06:01Z</time>
      </trkpt>
      <trkpt lat="41.628545414" lon="2.540020811">
        <ele>305.36</ele>
        <time>2013-11-11T10:06:05Z</time>
      </trkpt>
      <trkpt lat="41.628448100" lon="2.539878067">
        <ele>303.91</ele>
        <time>2013-11-11T10:06:09Z</time>
      </trkpt>
      <trkpt lat="41.628257747" lon="2.539782345">
        <ele>302.47</ele>
        <time>2013-11-11T10:06:15Z</time>
      </trkpt>
      <trkpt lat="41.628131096" lon="2.539795002">
        <ele>299.11</ele>
        <time>2013-11-11T10:06:20Z</time>
      </trkpt>
      <trkpt lat="41.627955747" lon="2.539644044">
        <ele>296.70</ele>
        <time>2013-11-11T10:06:27Z</time>
      </trkpt>
      <trkpt lat="41.627777296" lon="2.539453775">
        <ele>294.30</ele>
        <time>2013-11-11T10:06:31Z</time>
      </trkpt>
      <trkpt lat="41.627566994" lon="2.539306505">
        <ele>291.42</ele>
        <time>2013-11-11T10:06:35Z</time>
      </trkpt>
      <trkpt lat="41.627434225" lon="2.539244982">
        <ele>289.97</ele>
        <time>2013-11-11T10:06:37Z</time>
      </trkpt>
      <trkpt lat="41.627067014" lon="2.539183626">
        <ele>285.65</ele>
        <time>2013-11-11T10:06:42Z</time>
      </trkpt>
      <trkpt lat="41.626998617" lon="2.539175579">
        <ele>284.69</ele>
        <time>2013-11-11T10:06:43Z</time>
      </trkpt>
      <trkpt lat="41.626735677" lon="2.539180441">
        <ele>282.28</ele>
        <time>2013-11-11T10:06:47Z</time>
      </trkpt>
      <trkpt lat="41.626679602" lon="2.539218830">
        <ele>281.32</ele>
        <time>2013-11-11T10:06:48Z</time>
      </trkpt>
      <trkpt lat="41.626384308" lon="2.539464168">
        <ele>277.48</ele>
        <time>2013-11-11T10:06:56Z</time>
      </trkpt>
      <trkpt lat="41.626266374" lon="2.539530469">
        <ele>276.52</ele>
        <time>2013-11-11T10:07:00Z</time>
      </trkpt>
      <trkpt lat="41.626082811" lon="2.539625017">
        <ele>273.15</ele>
        <time>2013-11-11T10:07:04Z</time>
      </trkpt>
      <trkpt lat="41.625871000" lon="2.539751416">
        <ele>270.27</ele>
        <time>2013-11-11T10:07:08Z</time>
      </trkpt>
      <trkpt lat="41.625540250" lon="2.539980326">
        <ele>265.94</ele>
        <time>2013-11-11T10:07:13Z</time>
      </trkpt>
      <trkpt lat="41.625257780" lon="2.540240081">
        <ele>262.58</ele>
        <time>2013-11-11T10:07:17Z</time>
      </trkpt>
      <trkpt lat="41.625161639" lon="2.540338485">
        <ele>261.62</ele>
        <time>2013-11-11T10:07:19Z</time>
      </trkpt>
      <trkpt lat="41.625035073" lon="2.540446108">
        <ele>257.77</ele>
        <time>2013-11-11T10:07:23Z</time>
      </trkpt>
      <trkpt lat="41.625003640" lon="2.540464465">
        <ele>257.77</ele>
        <time>2013-11-11T10:07:24Z</time>
      </trkpt>
      <trkpt lat="41.624968688" lon="2.540487683">
        <ele>257.29</ele>
        <time>2013-11-11T10:07:25Z</time>
      </trkpt>
      <trkpt lat="41.624794177" lon="2.540663451">
        <ele>254.89</ele>
        <time>2013-11-11T10:07:29Z</time>
      </trkpt>
      <trkpt lat="41.624507599" lon="2.540963858">
        <ele>252.00</ele>
        <time>2013-11-11T10:07:34Z</time>
      </trkpt>
      <trkpt lat="41.624416991" lon="2.541060167">
        <ele>251.04</ele>
        <time>2013-11-11T10:07:36Z</time>
      </trkpt>
      <trkpt lat="41.624326383" lon="2.541171227">
        <ele>249.12</ele>
        <time>2013-11-11T10:07:38Z</time>
      </trkpt>
      <trkpt lat="41.624087834" lon="2.541355042">
        <ele>246.72</ele>
        <time>2013-11-11T10:07:42Z</time>
      </trkpt>
      <trkpt lat="41.623883734" lon="2.541428048">
        <ele>242.87</ele>
        <time>2013-11-11T10:07:46Z</time>
      </trkpt>
      <trkpt lat="41.623759096" lon="2.541438777">
        <ele>240.47</ele>
        <time>2013-11-11T10:07:49Z</time>
      </trkpt>
      <trkpt lat="41.623609562" lon="2.541543467">
        <ele>239.02</ele>
        <time>2013-11-11T10:07:53Z</time>
      </trkpt>
      <trkpt lat="41.623536640" lon="2.541627538">
        <ele>238.54</ele>
        <time>2013-11-11T10:07:56Z</time>
      </trkpt>
      <trkpt lat="41.623432034" lon="2.541782351">
        <ele>235.18</ele>
        <time>2013-11-11T10:08:00Z</time>
      </trkpt>
      <trkpt lat="41.623323991" lon="2.541830631">
        <ele>232.78</ele>
        <time>2013-11-11T10:08:04Z</time>
      </trkpt>
      <trkpt lat="41.623047723" lon="2.541931214">
        <ele>228.93</ele>
        <time>2013-11-11T10:08:10Z</time>
      </trkpt>
      <trkpt lat="41.623011011" lon="2.541946888">
        <ele>228.93</ele>
        <time>2013-11-11T10:08:11Z</time>
      </trkpt>
      <trkpt lat="41.622878493" lon="2.541970022">
        <ele>226.53</ele>
        <time>2013-11-11T10:08:14Z</time>
      </trkpt>
      <trkpt lat="41.622732061" lon="2.542024169">
        <ele>223.64</ele>
        <time>2013-11-11T10:08:18Z</time>
      </trkpt>
      <trkpt lat="41.622566854" lon="2.542053841">
        <ele>222.68</ele>
        <time>2013-11-11T10:08:23Z</time>
      </trkpt>
      <trkpt lat="41.622475658" lon="2.542065073">
        <ele>221.24</ele>
        <time>2013-11-11T10:08:25Z</time>
      </trkpt>
      <trkpt lat="41.622275331" lon="2.542123998">
        <ele>219.32</ele>
        <time>2013-11-11T10:08:29Z</time>
      </trkpt>
      <trkpt lat="41.622131917" lon="2.542170685">
        <ele>217.88</ele>
        <time>2013-11-11T10:08:32Z</time>
      </trkpt>
      <trkpt lat="41.621870234" lon="2.542385262">
        <ele>215.47</ele>
        <time>2013-11-11T10:08:37Z</time>
      </trkpt>
      <trkpt lat="41.621681389" lon="2.542664295">
        <ele>212.59</ele>
        <time>2013-11-11T10:08:41Z</time>
      </trkpt>
      <trkpt lat="41.621629338" lon="2.542759933">
        <ele>211.15</ele>
        <time>2013-11-11T10:08:43Z</time>
      </trkpt>
      <trkpt lat="41.621560522" lon="2.542715928">
        <ele>209.22</ele>
        <time>2013-11-11T10:08:48Z</time>
      </trkpt>
      <trkpt lat="41.621617938" lon="2.542484168">
        <ele>207.30</ele>
        <time>2013-11-11T10:08:54Z</time>
      </trkpt>
      <trkpt lat="41.621595894" lon="2.542391213">
        <ele>205.86</ele>
        <time>2013-11-11T10:08:56Z</time>
      </trkpt>
      <trkpt lat="41.621368158" lon="2.542069348">
        <ele>202.98</ele>
        <time>2013-11-11T10:09:03Z</time>
      </trkpt>
      <trkpt lat="41.621335301" lon="2.542036407">
        <ele>202.49</ele>
        <time>2013-11-11T10:09:04Z</time>
      </trkpt>
      <trkpt lat="41.621218289" lon="2.541974716">
        <ele>201.53</ele>
        <time>2013-11-11T10:09:07Z</time>
      </trkpt>
      <trkpt lat="41.621078311" lon="2.541950157">
        <ele>199.61</ele>
        <time>2013-11-11T10:09:10Z</time>
      </trkpt>
      <trkpt lat="41.620902375" lon="2.541933142">
        <ele>197.21</ele>
        <time>2013-11-11T10:09:14Z</time>
      </trkpt>
      <trkpt lat="41.620703557" lon="2.541927191">
        <ele>194.80</ele>
        <time>2013-11-11T10:09:19Z</time>
      </trkpt>
      <trkpt lat="41.620665670" lon="2.541939428">
        <ele>194.32</ele>
        <time>2013-11-11T10:09:20Z</time>
      </trkpt>
      <trkpt lat="41.620576152" lon="2.541989803">
        <ele>192.88</ele>
        <time>2013-11-11T10:09:22Z</time>
      </trkpt>
      <trkpt lat="41.620417817" lon="2.542193568">
        <ele>190.96</ele>
        <time>2013-11-11T10:09:27Z</time>
      </trkpt>
      <trkpt lat="41.620269625" lon="2.542375120">
        <ele>190.48</ele>
        <time>2013-11-11T10:09:34Z</time>
      </trkpt>
      <trkpt lat="41.620237271" lon="2.542434547">
        <ele>191.92</ele>
        <time>2013-11-11T10:09:36Z</time>
      </trkpt>
      <trkpt lat="41.620138700" lon="2.542647028">
        <ele>194.32</ele>
        <time>2013-11-11T10:09:44Z</time>
      </trkpt>
      <trkpt lat="41.620028730" lon="2.542801088">
        <ele>196.25</ele>
        <time>2013-11-11T10:09:51Z</time>
      </trkpt>
      <trkpt lat="41.619999141" lon="2.542873340">
        <ele>196.73</ele>
        <time>2013-11-11T10:09:54Z</time>
      </trkpt>
      <trkpt lat="41.619894368" lon="2.542974426">
        <ele>198.65</ele>
        <time>2013-11-11T10:10:01Z</time>
      </trkpt>
      <trkpt lat="41.619785570" lon="2.542903515">
        <ele>201.05</ele>
        <time>2013-11-11T10:10:09Z</time>
      </trkpt>
      <trkpt lat="41.619653723" lon="2.542769153">
        <ele>202.98</ele>
        <time>2013-11-11T10:10:18Z</time>
      </trkpt>
      <trkpt lat="41.619516260" lon="2.542724393">
        <ele>204.42</ele>
        <time>2013-11-11T10:10:27Z</time>
      </trkpt>
      <trkpt lat="41.619468818" lon="2.542713162">
        <ele>204.42</ele>
        <time>2013-11-11T10:10:34Z</time>
      </trkpt>
      <trkpt lat="41.619470495" lon="2.542718694">
        <ele>204.42</ele>
        <time>2013-11-11T10:10:41Z</time>
      </trkpt>
      <trkpt lat="41.619457838" lon="2.542716934">
        <ele>204.42</ele>
        <time>2013-11-11T10:10:48Z</time>
      </trkpt>
      <trkpt lat="41.619457922" lon="2.542707630">
        <ele>204.42</ele>
        <time>2013-11-11T10:11:00Z</time>
      </trkpt>
      <trkpt lat="41.619462448" lon="2.542709055">
        <ele>204.42</ele>
        <time>2013-11-11T10:11:12Z</time>
      </trkpt>
      <trkpt lat="41.619426993" lon="2.542718191">
        <ele>204.42</ele>
        <time>2013-11-11T10:11:20Z</time>
      </trkpt>
      <trkpt lat="41.619292212" lon="2.542727746">
        <ele>204.42</ele>
        <time>2013-11-11T10:11:26Z</time>
      </trkpt>
      <trkpt lat="41.619162292" lon="2.542730345">
        <ele>202.98</ele>
        <time>2013-11-11T10:11:29Z</time>
      </trkpt>
      <trkpt lat="41.618881666" lon="2.542591456">
        <ele>202.01</ele>
        <time>2013-11-11T10:11:34Z</time>
      </trkpt>
      <trkpt lat="41.618708831" lon="2.542428764">
        <ele>200.57</ele>
        <time>2013-11-11T10:11:37Z</time>
      </trkpt>
      <trkpt lat="41.618503391" lon="2.542199770">
        <ele>198.65</ele>
        <time>2013-11-11T10:11:41Z</time>
      </trkpt>
      <trkpt lat="41.618209354" lon="2.541597279">
        <ele>195.77</ele>
        <time>2013-11-11T10:11:48Z</time>
      </trkpt>
      <trkpt lat="41.618045404" lon="2.541159660">
        <ele>192.88</ele>
        <time>2013-11-11T10:11:53Z</time>
      </trkpt>
      <trkpt lat="41.618030735" lon="2.540862940">
        <ele>190.96</ele>
        <time>2013-11-11T10:11:56Z</time>
      </trkpt>
      <trkpt lat="41.618065269" lon="2.540755736">
        <ele>190.00</ele>
        <time>2013-11-11T10:11:57Z</time>
      </trkpt>
      <trkpt lat="41.618161996" lon="2.540190376">
        <ele>185.67</ele>
        <time>2013-11-11T10:12:03Z</time>
      </trkpt>
      <trkpt lat="41.618158978" lon="2.540131116">
        <ele>185.19</ele>
        <time>2013-11-11T10:12:04Z</time>
      </trkpt>
      <trkpt lat="41.618033082" lon="2.540104127">
        <ele>184.71</ele>
        <time>2013-11-11T10:12:08Z</time>
      </trkpt>
      <trkpt lat="41.617878436" lon="2.540344101">
        <ele>183.27</ele>
        <time>2013-11-11T10:12:12Z</time>
      </trkpt>
      <trkpt lat="41.617624129" lon="2.540926391">
        <ele>179.42</ele>
        <time>2013-11-11T10:12:18Z</time>
      </trkpt>
      <trkpt lat="41.617460933" lon="2.541277593">
        <ele>176.54</ele>
        <time>2013-11-11T10:12:21Z</time>
      </trkpt>
      <trkpt lat="41.617402093" lon="2.541398293">
        <ele>176.06</ele>
        <time>2013-11-11T10:12:22Z</time>
      </trkpt>
      <trkpt lat="41.616922396" lon="2.541955354">
        <ele>173.17</ele>
        <time>2013-11-11T10:12:28Z</time>
      </trkpt>
      <trkpt lat="41.616530542" lon="2.542076472">
        <ele>171.25</ele>
        <time>2013-11-11T10:12:32Z</time>
      </trkpt>
      <trkpt lat="41.616327868" lon="2.541995587">
        <ele>170.77</ele>
        <time>2013-11-11T10:12:34Z</time>
      </trkpt>
      <trkpt lat="41.615712049" lon="2.541565092">
        <ele>166.93</ele>
        <time>2013-11-11T10:12:40Z</time>
      </trkpt>
      <trkpt lat="41.615480960" lon="2.541435843">
        <ele>165.96</ele>
        <time>2013-11-11T10:12:42Z</time>
      </trkpt>
      <trkpt lat="41.614983494" lon="2.541287735">
        <ele>162.60</ele>
        <time>2013-11-11T10:12:46Z</time>
      </trkpt>
      <trkpt lat="41.614473791" lon="2.541154882">
        <ele>159.24</ele>
        <time>2013-11-11T10:12:50Z</time>
      </trkpt>
      <trkpt lat="41.614086379" lon="2.541052790">
        <ele>157.79</ele>
        <time>2013-11-11T10:12:53Z</time>
      </trkpt>
      <trkpt lat="41.613571144" lon="2.540928235">
        <ele>153.95</ele>
        <time>2013-11-11T10:12:57Z</time>
      </trkpt>
      <trkpt lat="41.613056160" lon="2.540866712">
        <ele>150.58</ele>
        <time>2013-11-11T10:13:01Z</time>
      </trkpt>
      <trkpt lat="41.612429026" lon="2.540845338">
        <ele>146.74</ele>
        <time>2013-11-11T10:13:06Z</time>
      </trkpt>
      <trkpt lat="41.611844053" lon="2.540810973">
        <ele>143.85</ele>
        <time>2013-11-11T10:13:11Z</time>
      </trkpt>
      <trkpt lat="41.611298558" lon="2.540956315">
        <ele>140.97</ele>
        <time>2013-11-11T10:13:16Z</time>
      </trkpt>
      <trkpt lat="41.610696989" lon="2.541197462">
        <ele>137.61</ele>
        <time>2013-11-11T10:13:22Z</time>
      </trkpt>
      <trkpt lat="41.610452908" lon="2.541295195">
        <ele>134.72</ele>
        <time>2013-11-11T10:13:26Z</time>
      </trkpt>
      <trkpt lat="41.610317876" lon="2.541345654">
        <ele>133.28</ele>
        <time>2013-11-11T10:13:31Z</time>
      </trkpt>
      <trkpt lat="41.610224753" lon="2.541387396">
        <ele>132.80</ele>
        <time>2013-11-11T10:13:38Z</time>
      </trkpt>
      <trkpt lat="41.610101874" lon="2.541408183">
        <ele>132.32</ele>
        <time>2013-11-11T10:13:42Z</time>
      </trkpt>
      <trkpt lat="41.609835665" lon="2.541364849">
        <ele>130.88</ele>
        <time>2013-11-11T10:13:48Z</time>
      </trkpt>
      <trkpt lat="41.609647491" lon="2.541373482">
        <ele>129.92</ele>
        <time>2013-11-11T10:13:54Z</time>
      </trkpt>
      <trkpt lat="41.609442302" lon="2.541415559">
        <ele>128.95</ele>
        <time>2013-11-11T10:14:01Z</time>
      </trkpt>
      <trkpt lat="41.609338450" lon="2.541433077">
        <ele>128.47</ele>
        <time>2013-11-11T10:14:08Z</time>
      </trkpt>
      <trkpt lat="41.609321519" lon="2.541435508">
        <ele>127.99</ele>
        <time>2013-11-11T10:14:24Z</time>
      </trkpt>
      <trkpt lat="41.609299139" lon="2.541432072">
        <ele>127.99</ele>
        <time>2013-11-11T10:14:37Z</time>
      </trkpt>
      <trkpt lat="41.609276927" lon="2.541443555">
        <ele>127.99</ele>
        <time>2013-11-11T10:14:50Z</time>
      </trkpt>
      <trkpt lat="41.609214901" lon="2.541468784">
        <ele>127.99</ele>
        <time>2013-11-11T10:14:56Z</time>
      </trkpt>
      <trkpt lat="41.609089675" lon="2.541477585">
        <ele>127.51</ele>
        <time>2013-11-11T10:15:02Z</time>
      </trkpt>
      <trkpt lat="41.608942908" lon="2.541483956">
        <ele>127.51</ele>
        <time>2013-11-11T10:15:06Z</time>
      </trkpt>
      <trkpt lat="41.608856491" lon="2.541487057">
        <ele>127.03</ele>
        <time>2013-11-11T10:15:08Z</time>
      </trkpt>
      <trkpt lat="41.608549881" lon="2.541350516">
        <ele>126.55</ele>
        <time>2013-11-11T10:15:14Z</time>
      </trkpt>
      <trkpt lat="41.608456003" lon="2.541259153">
        <ele>126.07</ele>
        <time>2013-11-11T10:15:16Z</time>
      </trkpt>
      <trkpt lat="41.608245785" lon="2.541124623">
        <ele>125.11</ele>
        <time>2013-11-11T10:15:20Z</time>
      </trkpt>
      <trkpt lat="41.607978151" lon="2.541016748">
        <ele>123.67</ele>
        <time>2013-11-11T10:15:27Z</time>
      </trkpt>
      <trkpt lat="41.607910006" lon="2.540996213">
        <ele>123.67</ele>
        <time>2013-11-11T10:15:29Z</time>
      </trkpt>
      <trkpt lat="41.607525780" lon="2.541002080">
        <ele>123.67</ele>
        <time>2013-11-11T10:15:37Z</time>
      </trkpt>
      <trkpt lat="41.607086987" lon="2.540946005">
        <ele>122.22</ele>
        <time>2013-11-11T10:15:44Z</time>
      </trkpt>
      <trkpt lat="41.606703850" lon="2.540812062">
        <ele>120.78</ele>
        <time>2013-11-11T10:15:51Z</time>
      </trkpt>
      <trkpt lat="41.606584157" lon="2.540930750">
        <ele>119.82</ele>
        <time>2013-11-11T10:15:55Z</time>
      </trkpt>
      <trkpt lat="41.606606620" lon="2.541023035">
        <ele>119.82</ele>
        <time>2013-11-11T10:15:57Z</time>
      </trkpt>
      <trkpt lat="41.606706365" lon="2.541388234">
        <ele>122.71</ele>
        <time>2013-11-11T10:16:07Z</time>
      </trkpt>
      <trkpt lat="41.606795213" lon="2.541720074">
        <ele>124.63</ele>
        <time>2013-11-11T10:16:16Z</time>
      </trkpt>
      <trkpt lat="41.606891773" lon="2.542013692">
        <ele>126.55</ele>
        <time>2013-11-11T10:16:24Z</time>
      </trkpt>
      <trkpt lat="41.607002330" lon="2.542236818">
        <ele>128.47</ele>
        <time>2013-11-11T10:16:31Z</time>
      </trkpt>
      <trkpt lat="41.607075336" lon="2.542355674">
        <ele>128.95</ele>
        <time>2013-11-11T10:16:38Z</time>
      </trkpt>
      <trkpt lat="41.607099392" lon="2.542359445">
        <ele>129.92</ele>
        <time>2013-11-11T10:16:45Z</time>
      </trkpt>
      <trkpt lat="41.607097045" lon="2.542386770">
        <ele>129.92</ele>
        <time>2013-11-11T10:17:00Z</time>
      </trkpt>
    </trkseg>
  </trk>
</gpx>
